<?xml version="1.0" encoding="UTF-8" standalone="no" ?>
<gpx xmlns="http://www.topografix.com/GPX/1/1" xmlns:xsi="http://www.w3.org/2001/XMLSchema-instance" xsi:schemaLocation="http://www.topografix.com/GPX/1/1 http://www.topografix.com/GPX/1/1/gpx.xsd" version="1.1" creator="VisuGPX - https://www.visugpx.com">
  <metadata>
    <name>col de sencours-pic du Midi de Bigorre </name>
    <desc><![CDATA[de l\'auberge du relai d\'Arizes à Artigues au col de Sencours , puis au pic du Midi de Bigorre ]]></desc>
  </metadata>
  <trk>
    <name><![CDATA[col de Sencours-pic du Midi de Bigorre: 23 SEPT 2014 09:24]]></name>
    <trkseg>
      <trkpt lat="42.92737" lon="0.19924">
        <ele>1272.92</ele>
        <time>2014-09-23T07:24:15Z</time>
      </trkpt>
      <trkpt lat="42.92737" lon="0.19924">
        <ele>1272.92</ele>
        <time>2014-09-23T07:24:16Z</time>
      </trkpt>
      <trkpt lat="42.92732" lon="0.19925">
        <ele>1271.96</ele>
        <time>2014-09-23T07:24:38Z</time>
      </trkpt>
      <trkpt lat="42.92726" lon="0.19933">
        <ele>1271.48</ele>
        <time>2014-09-23T07:25:04Z</time>
      </trkpt>
      <trkpt lat="42.92726" lon="0.19935">
        <ele>1271.96</ele>
        <time>2014-09-23T07:25:28Z</time>
      </trkpt>
      <trkpt lat="42.92725" lon="0.19935">
        <ele>1271.96</ele>
        <time>2014-09-23T07:25:48Z</time>
      </trkpt>
      <trkpt lat="42.92729" lon="0.19934">
        <ele>1271.96</ele>
        <time>2014-09-23T07:26:03Z</time>
      </trkpt>
      <trkpt lat="42.92731" lon="0.19933">
        <ele>1271.96</ele>
        <time>2014-09-23T07:26:20Z</time>
      </trkpt>
      <trkpt lat="42.92728" lon="0.19935">
        <ele>1272.44</ele>
        <time>2014-09-23T07:26:41Z</time>
      </trkpt>
      <trkpt lat="42.92728" lon="0.19933">
        <ele>1272.44</ele>
        <time>2014-09-23T07:26:55Z</time>
      </trkpt>
      <trkpt lat="42.9273" lon="0.19934">
        <ele>1272.92</ele>
        <time>2014-09-23T07:27:14Z</time>
      </trkpt>
      <trkpt lat="42.92723" lon="0.19934">
        <ele>1272.92</ele>
        <time>2014-09-23T07:27:24Z</time>
      </trkpt>
      <trkpt lat="42.92714" lon="0.19916">
        <ele>1274.36</ele>
        <time>2014-09-23T07:27:39Z</time>
      </trkpt>
      <trkpt lat="42.92712" lon="0.19914">
        <ele>1274.36</ele>
        <time>2014-09-23T07:27:43Z</time>
      </trkpt>
      <trkpt lat="42.92705" lon="0.19883">
        <ele>1276.77</ele>
        <time>2014-09-23T07:28:03Z</time>
      </trkpt>
      <trkpt lat="42.92701" lon="0.19866">
        <ele>1277.73</ele>
        <time>2014-09-23T07:28:17Z</time>
      </trkpt>
      <trkpt lat="42.92704" lon="0.19861">
        <ele>1278.21</ele>
        <time>2014-09-23T07:28:32Z</time>
      </trkpt>
      <trkpt lat="42.92705" lon="0.1985">
        <ele>1279.17</ele>
        <time>2014-09-23T07:28:44Z</time>
      </trkpt>
      <trkpt lat="42.92706" lon="0.1985">
        <ele>1279.17</ele>
        <time>2014-09-23T07:28:45Z</time>
      </trkpt>
      <trkpt lat="42.92707" lon="0.1985">
        <ele>1279.17</ele>
        <time>2014-09-23T07:29:06Z</time>
      </trkpt>
      <trkpt lat="42.92708" lon="0.19841">
        <ele>1280.13</ele>
        <time>2014-09-23T07:29:20Z</time>
      </trkpt>
      <trkpt lat="42.92711" lon="0.19832">
        <ele>1282.06</ele>
        <time>2014-09-23T07:29:34Z</time>
      </trkpt>
      <trkpt lat="42.92713" lon="0.19833">
        <ele>1283.02</ele>
        <time>2014-09-23T07:29:47Z</time>
      </trkpt>
      <trkpt lat="42.92719" lon="0.19826">
        <ele>1284.94</ele>
        <time>2014-09-23T07:30:01Z</time>
      </trkpt>
      <trkpt lat="42.92723" lon="0.19815">
        <ele>1288.3</ele>
        <time>2014-09-23T07:30:16Z</time>
      </trkpt>
      <trkpt lat="42.92729" lon="0.19808">
        <ele>1290.23</ele>
        <time>2014-09-23T07:30:31Z</time>
      </trkpt>
      <trkpt lat="42.92727" lon="0.19798">
        <ele>1291.67</ele>
        <time>2014-09-23T07:30:43Z</time>
      </trkpt>
      <trkpt lat="42.92715" lon="0.19802">
        <ele>1294.07</ele>
        <time>2014-09-23T07:30:59Z</time>
      </trkpt>
      <trkpt lat="42.9271" lon="0.19801">
        <ele>1295.03</ele>
        <time>2014-09-23T07:31:03Z</time>
      </trkpt>
      <trkpt lat="42.92698" lon="0.19796">
        <ele>1297.44</ele>
        <time>2014-09-23T07:31:18Z</time>
      </trkpt>
      <trkpt lat="42.92696" lon="0.19791">
        <ele>1298.4</ele>
        <time>2014-09-23T07:31:23Z</time>
      </trkpt>
      <trkpt lat="42.92692" lon="0.19776">
        <ele>1300.8</ele>
        <time>2014-09-23T07:31:40Z</time>
      </trkpt>
      <trkpt lat="42.92692" lon="0.19757">
        <ele>1304.17</ele>
        <time>2014-09-23T07:31:57Z</time>
      </trkpt>
      <trkpt lat="42.92694" lon="0.19744">
        <ele>1307.05</ele>
        <time>2014-09-23T07:32:13Z</time>
      </trkpt>
      <trkpt lat="42.92695" lon="0.19731">
        <ele>1310.41</ele>
        <time>2014-09-23T07:32:28Z</time>
      </trkpt>
      <trkpt lat="42.92691" lon="0.19716">
        <ele>1313.3</ele>
        <time>2014-09-23T07:32:44Z</time>
      </trkpt>
      <trkpt lat="42.9269" lon="0.19705">
        <ele>1316.18</ele>
        <time>2014-09-23T07:33:01Z</time>
      </trkpt>
      <trkpt lat="42.92683" lon="0.19692">
        <ele>1319.55</ele>
        <time>2014-09-23T07:33:16Z</time>
      </trkpt>
      <trkpt lat="42.92681" lon="0.19679">
        <ele>1322.91</ele>
        <time>2014-09-23T07:33:32Z</time>
      </trkpt>
      <trkpt lat="42.92684" lon="0.19672">
        <ele>1325.8</ele>
        <time>2014-09-23T07:33:43Z</time>
      </trkpt>
      <trkpt lat="42.92686" lon="0.19652">
        <ele>1328.68</ele>
        <time>2014-09-23T07:34:04Z</time>
      </trkpt>
      <trkpt lat="42.92686" lon="0.19638">
        <ele>1332.04</ele>
        <time>2014-09-23T07:34:20Z</time>
      </trkpt>
      <trkpt lat="42.92682" lon="0.19628">
        <ele>1334.93</ele>
        <time>2014-09-23T07:34:32Z</time>
      </trkpt>
      <trkpt lat="42.92673" lon="0.19624">
        <ele>1338.29</ele>
        <time>2014-09-23T07:34:44Z</time>
      </trkpt>
      <trkpt lat="42.92666" lon="0.1962">
        <ele>1341.66</ele>
        <time>2014-09-23T07:35:02Z</time>
      </trkpt>
      <trkpt lat="42.92669" lon="0.19612">
        <ele>1343.1</ele>
        <time>2014-09-23T07:35:12Z</time>
      </trkpt>
      <trkpt lat="42.9266" lon="0.19601">
        <ele>1346.46</ele>
        <time>2014-09-23T07:35:32Z</time>
      </trkpt>
      <trkpt lat="42.92647" lon="0.19594">
        <ele>1349.35</ele>
        <time>2014-09-23T07:35:54Z</time>
      </trkpt>
      <trkpt lat="42.92638" lon="0.19587">
        <ele>1352.23</ele>
        <time>2014-09-23T07:36:13Z</time>
      </trkpt>
      <trkpt lat="42.9263" lon="0.19578">
        <ele>1355.6</ele>
        <time>2014-09-23T07:36:32Z</time>
      </trkpt>
      <trkpt lat="42.92626" lon="0.19554">
        <ele>1358.96</ele>
        <time>2014-09-23T07:36:52Z</time>
      </trkpt>
      <trkpt lat="42.92636" lon="0.19545">
        <ele>1361.84</ele>
        <time>2014-09-23T07:37:09Z</time>
      </trkpt>
      <trkpt lat="42.92636" lon="0.19529">
        <ele>1365.21</ele>
        <time>2014-09-23T07:37:27Z</time>
      </trkpt>
      <trkpt lat="42.92641" lon="0.19521">
        <ele>1368.57</ele>
        <time>2014-09-23T07:37:44Z</time>
      </trkpt>
      <trkpt lat="42.92635" lon="0.19506">
        <ele>1371.46</ele>
        <time>2014-09-23T07:38:01Z</time>
      </trkpt>
      <trkpt lat="42.92635" lon="0.1948">
        <ele>1374.34</ele>
        <time>2014-09-23T07:38:25Z</time>
      </trkpt>
      <trkpt lat="42.92631" lon="0.19459">
        <ele>1377.23</ele>
        <time>2014-09-23T07:38:44Z</time>
      </trkpt>
      <trkpt lat="42.9263" lon="0.19435">
        <ele>1380.59</ele>
        <time>2014-09-23T07:39:06Z</time>
      </trkpt>
      <trkpt lat="42.92632" lon="0.19415">
        <ele>1383.47</ele>
        <time>2014-09-23T07:39:29Z</time>
      </trkpt>
      <trkpt lat="42.92626" lon="0.194">
        <ele>1386.36</ele>
        <time>2014-09-23T07:39:48Z</time>
      </trkpt>
      <trkpt lat="42.92622" lon="0.19374">
        <ele>1389.72</ele>
        <time>2014-09-23T07:40:11Z</time>
      </trkpt>
      <trkpt lat="42.92614" lon="0.19351">
        <ele>1392.61</ele>
        <time>2014-09-23T07:40:33Z</time>
      </trkpt>
      <trkpt lat="42.92602" lon="0.19344">
        <ele>1395.97</ele>
        <time>2014-09-23T07:40:48Z</time>
      </trkpt>
      <trkpt lat="42.92589" lon="0.19341">
        <ele>1398.86</ele>
        <time>2014-09-23T07:41:06Z</time>
      </trkpt>
      <trkpt lat="42.9258" lon="0.19333">
        <ele>1401.74</ele>
        <time>2014-09-23T07:41:23Z</time>
      </trkpt>
      <trkpt lat="42.92573" lon="0.19329">
        <ele>1404.62</ele>
        <time>2014-09-23T07:41:36Z</time>
      </trkpt>
      <trkpt lat="42.92561" lon="0.19323">
        <ele>1407.99</ele>
        <time>2014-09-23T07:41:52Z</time>
      </trkpt>
      <trkpt lat="42.92556" lon="0.1931">
        <ele>1411.83</ele>
        <time>2014-09-23T07:42:09Z</time>
      </trkpt>
      <trkpt lat="42.92545" lon="0.19301">
        <ele>1413.28</ele>
        <time>2014-09-23T07:42:27Z</time>
      </trkpt>
      <trkpt lat="42.92537" lon="0.19292">
        <ele>1414.24</ele>
        <time>2014-09-23T07:42:37Z</time>
      </trkpt>
      <trkpt lat="42.92538" lon="0.19275">
        <ele>1415.68</ele>
        <time>2014-09-23T07:42:52Z</time>
      </trkpt>
      <trkpt lat="42.92537" lon="0.19264">
        <ele>1416.64</ele>
        <time>2014-09-23T07:43:04Z</time>
      </trkpt>
      <trkpt lat="42.92538" lon="0.19258">
        <ele>1420</ele>
        <time>2014-09-23T07:43:19Z</time>
      </trkpt>
      <trkpt lat="42.92539" lon="0.19258">
        <ele>1416.64</ele>
        <time>2014-09-23T07:43:20Z</time>
      </trkpt>
      <trkpt lat="42.92537" lon="0.19258">
        <ele>1417.12</ele>
        <time>2014-09-23T07:43:44Z</time>
      </trkpt>
      <trkpt lat="42.92543" lon="0.1925">
        <ele>1419.52</ele>
        <time>2014-09-23T07:43:58Z</time>
      </trkpt>
      <trkpt lat="42.92544" lon="0.19247">
        <ele>1417.6</ele>
        <time>2014-09-23T07:44:00Z</time>
      </trkpt>
      <trkpt lat="42.92545" lon="0.19225">
        <ele>1420</ele>
        <time>2014-09-23T07:44:16Z</time>
      </trkpt>
      <trkpt lat="42.92549" lon="0.19202">
        <ele>1421.45</ele>
        <time>2014-09-23T07:44:34Z</time>
      </trkpt>
      <trkpt lat="42.9255" lon="0.19195">
        <ele>1421.93</ele>
        <time>2014-09-23T07:44:39Z</time>
      </trkpt>
      <trkpt lat="42.92557" lon="0.19178">
        <ele>1423.85</ele>
        <time>2014-09-23T07:44:55Z</time>
      </trkpt>
      <trkpt lat="42.92562" lon="0.19158">
        <ele>1425.77</ele>
        <time>2014-09-23T07:45:10Z</time>
      </trkpt>
      <trkpt lat="42.92569" lon="0.1914">
        <ele>1427.7</ele>
        <time>2014-09-23T07:45:27Z</time>
      </trkpt>
      <trkpt lat="42.92573" lon="0.19123">
        <ele>1429.62</ele>
        <time>2014-09-23T07:45:41Z</time>
      </trkpt>
      <trkpt lat="42.92578" lon="0.19107">
        <ele>1431.06</ele>
        <time>2014-09-23T07:45:55Z</time>
      </trkpt>
      <trkpt lat="42.92583" lon="0.1909">
        <ele>1432.02</ele>
        <time>2014-09-23T07:46:09Z</time>
      </trkpt>
      <trkpt lat="42.92585" lon="0.19072">
        <ele>1433.94</ele>
        <time>2014-09-23T07:46:24Z</time>
      </trkpt>
      <trkpt lat="42.9259" lon="0.19057">
        <ele>1435.87</ele>
        <time>2014-09-23T07:46:38Z</time>
      </trkpt>
      <trkpt lat="42.92595" lon="0.19043">
        <ele>1438.27</ele>
        <time>2014-09-23T07:46:53Z</time>
      </trkpt>
      <trkpt lat="42.92595" lon="0.19028">
        <ele>1440.67</ele>
        <time>2014-09-23T07:47:06Z</time>
      </trkpt>
      <trkpt lat="42.926" lon="0.19012">
        <ele>1442.6</ele>
        <time>2014-09-23T07:47:22Z</time>
      </trkpt>
      <trkpt lat="42.92605" lon="0.18995">
        <ele>1445</ele>
        <time>2014-09-23T07:47:37Z</time>
      </trkpt>
      <trkpt lat="42.92605" lon="0.18978">
        <ele>1447.4</ele>
        <time>2014-09-23T07:47:52Z</time>
      </trkpt>
      <trkpt lat="42.92606" lon="0.18961">
        <ele>1449.81</ele>
        <time>2014-09-23T07:48:08Z</time>
      </trkpt>
      <trkpt lat="42.92609" lon="0.18944">
        <ele>1451.73</ele>
        <time>2014-09-23T07:48:23Z</time>
      </trkpt>
      <trkpt lat="42.92611" lon="0.18926">
        <ele>1453.65</ele>
        <time>2014-09-23T07:48:39Z</time>
      </trkpt>
      <trkpt lat="42.9261" lon="0.18909">
        <ele>1455.57</ele>
        <time>2014-09-23T07:48:55Z</time>
      </trkpt>
      <trkpt lat="42.92609" lon="0.18903">
        <ele>1456.05</ele>
        <time>2014-09-23T07:49:00Z</time>
      </trkpt>
      <trkpt lat="42.92605" lon="0.18883">
        <ele>1457.98</ele>
        <time>2014-09-23T07:49:17Z</time>
      </trkpt>
      <trkpt lat="42.92598" lon="0.18866">
        <ele>1460.38</ele>
        <time>2014-09-23T07:49:33Z</time>
      </trkpt>
      <trkpt lat="42.92592" lon="0.18851">
        <ele>1462.78</ele>
        <time>2014-09-23T07:49:49Z</time>
      </trkpt>
      <trkpt lat="42.92591" lon="0.18839">
        <ele>1465.19</ele>
        <time>2014-09-23T07:50:02Z</time>
      </trkpt>
      <trkpt lat="42.9259" lon="0.1882">
        <ele>1467.59</ele>
        <time>2014-09-23T07:50:19Z</time>
      </trkpt>
      <trkpt lat="42.9259" lon="0.18807">
        <ele>1470.47</ele>
        <time>2014-09-23T07:50:34Z</time>
      </trkpt>
      <trkpt lat="42.9259" lon="0.18794">
        <ele>1473.36</ele>
        <time>2014-09-23T07:50:49Z</time>
      </trkpt>
      <trkpt lat="42.92586" lon="0.18781">
        <ele>1475.28</ele>
        <time>2014-09-23T07:51:03Z</time>
      </trkpt>
      <trkpt lat="42.92586" lon="0.18764">
        <ele>1477.68</ele>
        <time>2014-09-23T07:51:18Z</time>
      </trkpt>
      <trkpt lat="42.92588" lon="0.18756">
        <ele>1478.65</ele>
        <time>2014-09-23T07:51:26Z</time>
      </trkpt>
      <trkpt lat="42.92592" lon="0.18746">
        <ele>1480.09</ele>
        <time>2014-09-23T07:51:36Z</time>
      </trkpt>
      <trkpt lat="42.92595" lon="0.18731">
        <ele>1482.01</ele>
        <time>2014-09-23T07:51:50Z</time>
      </trkpt>
      <trkpt lat="42.92596" lon="0.18713">
        <ele>1483.93</ele>
        <time>2014-09-23T07:52:06Z</time>
      </trkpt>
      <trkpt lat="42.92596" lon="0.18698">
        <ele>1484.89</ele>
        <time>2014-09-23T07:52:19Z</time>
      </trkpt>
      <trkpt lat="42.92596" lon="0.18689">
        <ele>1485.85</ele>
        <time>2014-09-23T07:52:27Z</time>
      </trkpt>
      <trkpt lat="42.926" lon="0.1867">
        <ele>1486.82</ele>
        <time>2014-09-23T07:52:41Z</time>
      </trkpt>
      <trkpt lat="42.92604" lon="0.1866">
        <ele>1489.22</ele>
        <time>2014-09-23T07:52:53Z</time>
      </trkpt>
      <trkpt lat="42.92604" lon="0.18646">
        <ele>1492.1</ele>
        <time>2014-09-23T07:53:07Z</time>
      </trkpt>
      <trkpt lat="42.92606" lon="0.18634">
        <ele>1494.03</ele>
        <time>2014-09-23T07:53:20Z</time>
      </trkpt>
      <trkpt lat="42.92607" lon="0.18618">
        <ele>1496.43</ele>
        <time>2014-09-23T07:53:35Z</time>
      </trkpt>
      <trkpt lat="42.92609" lon="0.18603">
        <ele>1498.35</ele>
        <time>2014-09-23T07:53:51Z</time>
      </trkpt>
      <trkpt lat="42.92611" lon="0.18594">
        <ele>1499.31</ele>
        <time>2014-09-23T07:54:02Z</time>
      </trkpt>
      <trkpt lat="42.92611" lon="0.18579">
        <ele>1501.72</ele>
        <time>2014-09-23T07:54:18Z</time>
      </trkpt>
      <trkpt lat="42.92613" lon="0.18567">
        <ele>1503.64</ele>
        <time>2014-09-23T07:54:31Z</time>
      </trkpt>
      <trkpt lat="42.92616" lon="0.18557">
        <ele>1505.08</ele>
        <time>2014-09-23T07:54:43Z</time>
      </trkpt>
      <trkpt lat="42.92624" lon="0.18546">
        <ele>1507</ele>
        <time>2014-09-23T07:54:58Z</time>
      </trkpt>
      <trkpt lat="42.9263" lon="0.18534">
        <ele>1508.93</ele>
        <time>2014-09-23T07:55:12Z</time>
      </trkpt>
      <trkpt lat="42.92638" lon="0.18516">
        <ele>1510.37</ele>
        <time>2014-09-23T07:55:30Z</time>
      </trkpt>
      <trkpt lat="42.92647" lon="0.18504">
        <ele>1513.73</ele>
        <time>2014-09-23T07:55:45Z</time>
      </trkpt>
      <trkpt lat="42.92657" lon="0.18493">
        <ele>1515.66</ele>
        <time>2014-09-23T07:56:01Z</time>
      </trkpt>
      <trkpt lat="42.92668" lon="0.18483">
        <ele>1517.58</ele>
        <time>2014-09-23T07:56:15Z</time>
      </trkpt>
      <trkpt lat="42.92676" lon="0.1847">
        <ele>1519.02</ele>
        <time>2014-09-23T07:56:29Z</time>
      </trkpt>
      <trkpt lat="42.92682" lon="0.18461">
        <ele>1519.98</ele>
        <time>2014-09-23T07:56:39Z</time>
      </trkpt>
      <trkpt lat="42.92684" lon="0.1846">
        <ele>1519.98</ele>
        <time>2014-09-23T07:56:41Z</time>
      </trkpt>
      <trkpt lat="42.92695" lon="0.18454">
        <ele>1520.94</ele>
        <time>2014-09-23T07:56:51Z</time>
      </trkpt>
      <trkpt lat="42.92712" lon="0.18444">
        <ele>1523.35</ele>
        <time>2014-09-23T07:57:09Z</time>
      </trkpt>
      <trkpt lat="42.92726" lon="0.1844">
        <ele>1524.79</ele>
        <time>2014-09-23T07:57:21Z</time>
      </trkpt>
      <trkpt lat="42.9274" lon="0.18437">
        <ele>1526.23</ele>
        <time>2014-09-23T07:57:33Z</time>
      </trkpt>
      <trkpt lat="42.92753" lon="0.18427">
        <ele>1528.15</ele>
        <time>2014-09-23T07:57:48Z</time>
      </trkpt>
      <trkpt lat="42.92764" lon="0.18415">
        <ele>1530.08</ele>
        <time>2014-09-23T07:58:03Z</time>
      </trkpt>
      <trkpt lat="42.92772" lon="0.18406">
        <ele>1531.52</ele>
        <time>2014-09-23T07:58:15Z</time>
      </trkpt>
      <trkpt lat="42.92782" lon="0.18394">
        <ele>1533.92</ele>
        <time>2014-09-23T07:58:33Z</time>
      </trkpt>
      <trkpt lat="42.92789" lon="0.18371">
        <ele>1536.8</ele>
        <time>2014-09-23T07:58:56Z</time>
      </trkpt>
      <trkpt lat="42.92795" lon="0.18349">
        <ele>1539.69</ele>
        <time>2014-09-23T07:59:16Z</time>
      </trkpt>
      <trkpt lat="42.92796" lon="0.18318">
        <ele>1542.09</ele>
        <time>2014-09-23T07:59:41Z</time>
      </trkpt>
      <trkpt lat="42.92795" lon="0.18297">
        <ele>1545.46</ele>
        <time>2014-09-23T08:00:01Z</time>
      </trkpt>
      <trkpt lat="42.92796" lon="0.18291">
        <ele>1546.42</ele>
        <time>2014-09-23T08:00:11Z</time>
      </trkpt>
      <trkpt lat="42.92806" lon="0.1827">
        <ele>1547.86</ele>
        <time>2014-09-23T08:00:27Z</time>
      </trkpt>
      <trkpt lat="42.92814" lon="0.18258">
        <ele>1549.78</ele>
        <time>2014-09-23T08:00:42Z</time>
      </trkpt>
      <trkpt lat="42.92828" lon="0.18258">
        <ele>1549.3</ele>
        <time>2014-09-23T08:01:01Z</time>
      </trkpt>
      <trkpt lat="42.92828" lon="0.18249">
        <ele>1549.3</ele>
        <time>2014-09-23T08:01:18Z</time>
      </trkpt>
      <trkpt lat="42.92829" lon="0.18249">
        <ele>1549.3</ele>
        <time>2014-09-23T08:01:25Z</time>
      </trkpt>
      <trkpt lat="42.92833" lon="0.18224">
        <ele>1548.82</ele>
        <time>2014-09-23T08:01:41Z</time>
      </trkpt>
      <trkpt lat="42.92833" lon="0.18223">
        <ele>1549.3</ele>
        <time>2014-09-23T08:01:42Z</time>
      </trkpt>
      <trkpt lat="42.92844" lon="0.18195">
        <ele>1548.34</ele>
        <time>2014-09-23T08:02:00Z</time>
      </trkpt>
      <trkpt lat="42.92852" lon="0.18178">
        <ele>1548.82</ele>
        <time>2014-09-23T08:02:14Z</time>
      </trkpt>
      <trkpt lat="42.92848" lon="0.18174">
        <ele>1548.82</ele>
        <time>2014-09-23T08:02:26Z</time>
      </trkpt>
      <trkpt lat="42.92846" lon="0.18175">
        <ele>1548.34</ele>
        <time>2014-09-23T08:02:39Z</time>
      </trkpt>
      <trkpt lat="42.92848" lon="0.18171">
        <ele>1551.22</ele>
        <time>2014-09-23T08:02:41Z</time>
      </trkpt>
      <trkpt lat="42.92848" lon="0.18168">
        <ele>1549.3</ele>
        <time>2014-09-23T08:02:43Z</time>
      </trkpt>
      <trkpt lat="42.92847" lon="0.18154">
        <ele>1551.71</ele>
        <time>2014-09-23T08:02:54Z</time>
      </trkpt>
      <trkpt lat="42.92845" lon="0.18141">
        <ele>1553.15</ele>
        <time>2014-09-23T08:03:07Z</time>
      </trkpt>
      <trkpt lat="42.92843" lon="0.18135">
        <ele>1555.07</ele>
        <time>2014-09-23T08:03:18Z</time>
      </trkpt>
      <trkpt lat="42.92841" lon="0.18123">
        <ele>1557.95</ele>
        <time>2014-09-23T08:03:31Z</time>
      </trkpt>
      <trkpt lat="42.92842" lon="0.18103">
        <ele>1560.36</ele>
        <time>2014-09-23T08:03:45Z</time>
      </trkpt>
      <trkpt lat="42.92838" lon="0.18082">
        <ele>1562.76</ele>
        <time>2014-09-23T08:04:00Z</time>
      </trkpt>
      <trkpt lat="42.9284" lon="0.18067">
        <ele>1564.68</ele>
        <time>2014-09-23T08:04:14Z</time>
      </trkpt>
      <trkpt lat="42.92837" lon="0.18052">
        <ele>1566.61</ele>
        <time>2014-09-23T08:04:28Z</time>
      </trkpt>
      <trkpt lat="42.92837" lon="0.18047">
        <ele>1567.09</ele>
        <time>2014-09-23T08:04:33Z</time>
      </trkpt>
      <trkpt lat="42.92838" lon="0.18045">
        <ele>1567.57</ele>
        <time>2014-09-23T08:04:35Z</time>
      </trkpt>
      <trkpt lat="42.92844" lon="0.18028">
        <ele>1570.45</ele>
        <time>2014-09-23T08:04:51Z</time>
      </trkpt>
      <trkpt lat="42.92848" lon="0.18013">
        <ele>1571.89</ele>
        <time>2014-09-23T08:05:05Z</time>
      </trkpt>
      <trkpt lat="42.92855" lon="0.18001">
        <ele>1574.3</ele>
        <time>2014-09-23T08:05:19Z</time>
      </trkpt>
      <trkpt lat="42.9285" lon="0.17985">
        <ele>1575.26</ele>
        <time>2014-09-23T08:05:35Z</time>
      </trkpt>
      <trkpt lat="42.92852" lon="0.17983">
        <ele>1576.7</ele>
        <time>2014-09-23T08:05:37Z</time>
      </trkpt>
      <trkpt lat="42.92855" lon="0.17977">
        <ele>1577.18</ele>
        <time>2014-09-23T08:05:43Z</time>
      </trkpt>
      <trkpt lat="42.92855" lon="0.17961">
        <ele>1578.62</ele>
        <time>2014-09-23T08:05:54Z</time>
      </trkpt>
      <trkpt lat="42.92854" lon="0.1794">
        <ele>1581.03</ele>
        <time>2014-09-23T08:06:08Z</time>
      </trkpt>
      <trkpt lat="42.92847" lon="0.17925">
        <ele>1582.47</ele>
        <time>2014-09-23T08:06:18Z</time>
      </trkpt>
      <trkpt lat="42.9285" lon="0.17919">
        <ele>1583.43</ele>
        <time>2014-09-23T08:06:24Z</time>
      </trkpt>
      <trkpt lat="42.92846" lon="0.17902">
        <ele>1585.35</ele>
        <time>2014-09-23T08:06:38Z</time>
      </trkpt>
      <trkpt lat="42.92846" lon="0.17895">
        <ele>1586.31</ele>
        <time>2014-09-23T08:06:45Z</time>
      </trkpt>
      <trkpt lat="42.92849" lon="0.17878">
        <ele>1587.75</ele>
        <time>2014-09-23T08:07:00Z</time>
      </trkpt>
      <trkpt lat="42.92854" lon="0.17864">
        <ele>1589.68</ele>
        <time>2014-09-23T08:07:13Z</time>
      </trkpt>
      <trkpt lat="42.92857" lon="0.1786">
        <ele>1590.16</ele>
        <time>2014-09-23T08:07:18Z</time>
      </trkpt>
      <trkpt lat="42.92866" lon="0.17842">
        <ele>1592.56</ele>
        <time>2014-09-23T08:07:35Z</time>
      </trkpt>
      <trkpt lat="42.92869" lon="0.17824">
        <ele>1594.48</ele>
        <time>2014-09-23T08:07:51Z</time>
      </trkpt>
      <trkpt lat="42.92873" lon="0.17806">
        <ele>1596.89</ele>
        <time>2014-09-23T08:08:07Z</time>
      </trkpt>
      <trkpt lat="42.92879" lon="0.1779">
        <ele>1599.77</ele>
        <time>2014-09-23T08:08:23Z</time>
      </trkpt>
      <trkpt lat="42.92877" lon="0.17774">
        <ele>1603.14</ele>
        <time>2014-09-23T08:08:39Z</time>
      </trkpt>
      <trkpt lat="42.92875" lon="0.17767">
        <ele>1604.1</ele>
        <time>2014-09-23T08:08:45Z</time>
      </trkpt>
      <trkpt lat="42.92878" lon="0.1776">
        <ele>1604.58</ele>
        <time>2014-09-23T08:08:51Z</time>
      </trkpt>
      <trkpt lat="42.92891" lon="0.17743">
        <ele>1606.5</ele>
        <time>2014-09-23T08:09:08Z</time>
      </trkpt>
      <trkpt lat="42.92901" lon="0.17729">
        <ele>1609.38</ele>
        <time>2014-09-23T08:09:23Z</time>
      </trkpt>
      <trkpt lat="42.92904" lon="0.17711">
        <ele>1611.79</ele>
        <time>2014-09-23T08:09:38Z</time>
      </trkpt>
      <trkpt lat="42.92904" lon="0.17691">
        <ele>1613.71</ele>
        <time>2014-09-23T08:09:53Z</time>
      </trkpt>
      <trkpt lat="42.92906" lon="0.17682">
        <ele>1614.67</ele>
        <time>2014-09-23T08:09:59Z</time>
      </trkpt>
      <trkpt lat="42.92903" lon="0.17663">
        <ele>1616.59</ele>
        <time>2014-09-23T08:10:14Z</time>
      </trkpt>
      <trkpt lat="42.92902" lon="0.17649">
        <ele>1617.56</ele>
        <time>2014-09-23T08:10:23Z</time>
      </trkpt>
      <trkpt lat="42.92903" lon="0.17633">
        <ele>1620.44</ele>
        <time>2014-09-23T08:10:39Z</time>
      </trkpt>
      <trkpt lat="42.92904" lon="0.1763">
        <ele>1620.92</ele>
        <time>2014-09-23T08:10:42Z</time>
      </trkpt>
      <trkpt lat="42.92903" lon="0.17609">
        <ele>1623.8</ele>
        <time>2014-09-23T08:10:59Z</time>
      </trkpt>
      <trkpt lat="42.9293" lon="0.17596">
        <ele>1626.21</ele>
        <time>2014-09-23T08:11:15Z</time>
      </trkpt>
      <trkpt lat="42.92933" lon="0.17582">
        <ele>1628.61</ele>
        <time>2014-09-23T08:11:31Z</time>
      </trkpt>
      <trkpt lat="42.92937" lon="0.17565">
        <ele>1631.49</ele>
        <time>2014-09-23T08:11:48Z</time>
      </trkpt>
      <trkpt lat="42.92942" lon="0.17548">
        <ele>1633.42</ele>
        <time>2014-09-23T08:12:02Z</time>
      </trkpt>
      <trkpt lat="42.92947" lon="0.1753">
        <ele>1635.82</ele>
        <time>2014-09-23T08:12:17Z</time>
      </trkpt>
      <trkpt lat="42.92949" lon="0.17521">
        <ele>1637.26</ele>
        <time>2014-09-23T08:12:23Z</time>
      </trkpt>
      <trkpt lat="42.92951" lon="0.17514">
        <ele>1637.74</ele>
        <time>2014-09-23T08:12:29Z</time>
      </trkpt>
      <trkpt lat="42.92963" lon="0.17493">
        <ele>1639.19</ele>
        <time>2014-09-23T08:12:46Z</time>
      </trkpt>
      <trkpt lat="42.92965" lon="0.17485">
        <ele>1640.15</ele>
        <time>2014-09-23T08:12:52Z</time>
      </trkpt>
      <trkpt lat="42.92972" lon="0.17467">
        <ele>1643.51</ele>
        <time>2014-09-23T08:13:10Z</time>
      </trkpt>
      <trkpt lat="42.92986" lon="0.17447">
        <ele>1646.4</ele>
        <time>2014-09-23T08:13:27Z</time>
      </trkpt>
      <trkpt lat="42.9299" lon="0.17441">
        <ele>1647.36</ele>
        <time>2014-09-23T08:13:33Z</time>
      </trkpt>
      <trkpt lat="42.93033" lon="0.1744">
        <ele>1647.84</ele>
        <time>2014-09-23T08:13:49Z</time>
      </trkpt>
      <trkpt lat="42.9306" lon="0.17441">
        <ele>1647.84</ele>
        <time>2014-09-23T08:14:04Z</time>
      </trkpt>
      <trkpt lat="42.93055" lon="0.17435">
        <ele>1648.32</ele>
        <time>2014-09-23T08:14:25Z</time>
      </trkpt>
      <trkpt lat="42.9306" lon="0.17427">
        <ele>1650.72</ele>
        <time>2014-09-23T08:14:42Z</time>
      </trkpt>
      <trkpt lat="42.93064" lon="0.17424">
        <ele>1651.2</ele>
        <time>2014-09-23T08:14:46Z</time>
      </trkpt>
      <trkpt lat="42.93072" lon="0.17415">
        <ele>1653.6</ele>
        <time>2014-09-23T08:14:59Z</time>
      </trkpt>
      <trkpt lat="42.93071" lon="0.17401">
        <ele>1654.57</ele>
        <time>2014-09-23T08:15:14Z</time>
      </trkpt>
      <trkpt lat="42.93073" lon="0.17392">
        <ele>1655.53</ele>
        <time>2014-09-23T08:15:25Z</time>
      </trkpt>
      <trkpt lat="42.93077" lon="0.17374">
        <ele>1657.93</ele>
        <time>2014-09-23T08:15:40Z</time>
      </trkpt>
      <trkpt lat="42.93078" lon="0.17371">
        <ele>1658.41</ele>
        <time>2014-09-23T08:15:43Z</time>
      </trkpt>
      <trkpt lat="42.93088" lon="0.17354">
        <ele>1661.3</ele>
        <time>2014-09-23T08:16:00Z</time>
      </trkpt>
      <trkpt lat="42.93085" lon="0.17344">
        <ele>1662.26</ele>
        <time>2014-09-23T08:16:07Z</time>
      </trkpt>
      <trkpt lat="42.93082" lon="0.17325">
        <ele>1664.66</ele>
        <time>2014-09-23T08:16:22Z</time>
      </trkpt>
      <trkpt lat="42.93079" lon="0.17311">
        <ele>1666.58</ele>
        <time>2014-09-23T08:16:34Z</time>
      </trkpt>
      <trkpt lat="42.93075" lon="0.17298">
        <ele>1668.02</ele>
        <time>2014-09-23T08:16:46Z</time>
      </trkpt>
      <trkpt lat="42.93075" lon="0.17289">
        <ele>1669.47</ele>
        <time>2014-09-23T08:16:54Z</time>
      </trkpt>
      <trkpt lat="42.93074" lon="0.17286">
        <ele>1669.47</ele>
        <time>2014-09-23T08:16:56Z</time>
      </trkpt>
      <trkpt lat="42.9307" lon="0.17277">
        <ele>1670.43</ele>
        <time>2014-09-23T08:17:02Z</time>
      </trkpt>
      <trkpt lat="42.93064" lon="0.1727">
        <ele>1671.87</ele>
        <time>2014-09-23T08:17:09Z</time>
      </trkpt>
      <trkpt lat="42.93064" lon="0.17252">
        <ele>1673.79</ele>
        <time>2014-09-23T08:17:23Z</time>
      </trkpt>
      <trkpt lat="42.93061" lon="0.17243">
        <ele>1676.2</ele>
        <time>2014-09-23T08:17:37Z</time>
      </trkpt>
      <trkpt lat="42.9306" lon="0.17241">
        <ele>1676.68</ele>
        <time>2014-09-23T08:17:39Z</time>
      </trkpt>
      <trkpt lat="42.93056" lon="0.17235">
        <ele>1677.16</ele>
        <time>2014-09-23T08:17:46Z</time>
      </trkpt>
      <trkpt lat="42.93054" lon="0.17234">
        <ele>1676.68</ele>
        <time>2014-09-23T08:17:49Z</time>
      </trkpt>
      <trkpt lat="42.93024" lon="0.1723">
        <ele>1676.2</ele>
        <time>2014-09-23T08:18:10Z</time>
      </trkpt>
      <trkpt lat="42.93022" lon="0.1723">
        <ele>1675.72</ele>
        <time>2014-09-23T08:18:30Z</time>
      </trkpt>
      <trkpt lat="42.92998" lon="0.17226">
        <ele>1676.2</ele>
        <time>2014-09-23T08:18:54Z</time>
      </trkpt>
      <trkpt lat="42.93006" lon="0.17227">
        <ele>1675.72</ele>
        <time>2014-09-23T08:19:20Z</time>
      </trkpt>
      <trkpt lat="42.93" lon="0.17228">
        <ele>1675.72</ele>
        <time>2014-09-23T08:19:42Z</time>
      </trkpt>
      <trkpt lat="42.92992" lon="0.17229">
        <ele>1676.2</ele>
        <time>2014-09-23T08:20:05Z</time>
      </trkpt>
      <trkpt lat="42.92982" lon="0.17226">
        <ele>1676.68</ele>
        <time>2014-09-23T08:20:20Z</time>
      </trkpt>
      <trkpt lat="42.92989" lon="0.17226">
        <ele>1676.68</ele>
        <time>2014-09-23T08:20:45Z</time>
      </trkpt>
      <trkpt lat="42.92977" lon="0.17227">
        <ele>1676.68</ele>
        <time>2014-09-23T08:21:05Z</time>
      </trkpt>
      <trkpt lat="42.92969" lon="0.17223">
        <ele>1676.68</ele>
        <time>2014-09-23T08:21:21Z</time>
      </trkpt>
      <trkpt lat="42.92967" lon="0.17218">
        <ele>1676.68</ele>
        <time>2014-09-23T08:21:37Z</time>
      </trkpt>
      <trkpt lat="42.92963" lon="0.17216">
        <ele>1677.64</ele>
        <time>2014-09-23T08:21:46Z</time>
      </trkpt>
      <trkpt lat="42.92958" lon="0.17205">
        <ele>1679.56</ele>
        <time>2014-09-23T08:21:57Z</time>
      </trkpt>
      <trkpt lat="42.92958" lon="0.17185">
        <ele>1682.44</ele>
        <time>2014-09-23T08:22:13Z</time>
      </trkpt>
      <trkpt lat="42.92963" lon="0.17176">
        <ele>1683.89</ele>
        <time>2014-09-23T08:22:20Z</time>
      </trkpt>
      <trkpt lat="42.92968" lon="0.17156">
        <ele>1686.29</ele>
        <time>2014-09-23T08:22:37Z</time>
      </trkpt>
      <trkpt lat="42.92969" lon="0.17145">
        <ele>1687.25</ele>
        <time>2014-09-23T08:22:45Z</time>
      </trkpt>
      <trkpt lat="42.92968" lon="0.17127">
        <ele>1689.65</ele>
        <time>2014-09-23T08:23:01Z</time>
      </trkpt>
      <trkpt lat="42.92969" lon="0.17112">
        <ele>1691.58</ele>
        <time>2014-09-23T08:23:17Z</time>
      </trkpt>
      <trkpt lat="42.92969" lon="0.17094">
        <ele>1693.5</ele>
        <time>2014-09-23T08:23:33Z</time>
      </trkpt>
      <trkpt lat="42.9297" lon="0.17082">
        <ele>1696.38</ele>
        <time>2014-09-23T08:23:49Z</time>
      </trkpt>
      <trkpt lat="42.92967" lon="0.17064">
        <ele>1698.79</ele>
        <time>2014-09-23T08:24:04Z</time>
      </trkpt>
      <trkpt lat="42.92965" lon="0.17049">
        <ele>1701.19</ele>
        <time>2014-09-23T08:24:18Z</time>
      </trkpt>
      <trkpt lat="42.92966" lon="0.17031">
        <ele>1703.11</ele>
        <time>2014-09-23T08:24:32Z</time>
      </trkpt>
      <trkpt lat="42.92963" lon="0.17012">
        <ele>1705.04</ele>
        <time>2014-09-23T08:24:46Z</time>
      </trkpt>
      <trkpt lat="42.92966" lon="0.16996">
        <ele>1707.92</ele>
        <time>2014-09-23T08:25:01Z</time>
      </trkpt>
      <trkpt lat="42.92963" lon="0.16981">
        <ele>1710.32</ele>
        <time>2014-09-23T08:25:16Z</time>
      </trkpt>
      <trkpt lat="42.92966" lon="0.16972">
        <ele>1712.25</ele>
        <time>2014-09-23T08:25:28Z</time>
      </trkpt>
      <trkpt lat="42.9297" lon="0.16953">
        <ele>1715.13</ele>
        <time>2014-09-23T08:25:45Z</time>
      </trkpt>
      <trkpt lat="42.9297" lon="0.1695">
        <ele>1715.61</ele>
        <time>2014-09-23T08:25:47Z</time>
      </trkpt>
      <trkpt lat="42.92971" lon="0.16932">
        <ele>1717.05</ele>
        <time>2014-09-23T08:26:02Z</time>
      </trkpt>
      <trkpt lat="42.92972" lon="0.16917">
        <ele>1719.46</ele>
        <time>2014-09-23T08:26:16Z</time>
      </trkpt>
      <trkpt lat="42.92974" lon="0.169">
        <ele>1721.86</ele>
        <time>2014-09-23T08:26:31Z</time>
      </trkpt>
      <trkpt lat="42.92974" lon="0.16884">
        <ele>1724.26</ele>
        <time>2014-09-23T08:26:46Z</time>
      </trkpt>
      <trkpt lat="42.92974" lon="0.16871">
        <ele>1726.67</ele>
        <time>2014-09-23T08:26:58Z</time>
      </trkpt>
      <trkpt lat="42.92971" lon="0.16856">
        <ele>1729.07</ele>
        <time>2014-09-23T08:27:14Z</time>
      </trkpt>
      <trkpt lat="42.92971" lon="0.16843">
        <ele>1731.95</ele>
        <time>2014-09-23T08:27:27Z</time>
      </trkpt>
      <trkpt lat="42.92969" lon="0.16828">
        <ele>1733.88</ele>
        <time>2014-09-23T08:27:41Z</time>
      </trkpt>
      <trkpt lat="42.92968" lon="0.16814">
        <ele>1736.76</ele>
        <time>2014-09-23T08:27:56Z</time>
      </trkpt>
      <trkpt lat="42.92968" lon="0.16802">
        <ele>1739.16</ele>
        <time>2014-09-23T08:28:09Z</time>
      </trkpt>
      <trkpt lat="42.92961" lon="0.1679">
        <ele>1742.05</ele>
        <time>2014-09-23T08:28:25Z</time>
      </trkpt>
      <trkpt lat="42.92938" lon="0.16783">
        <ele>1743.97</ele>
        <time>2014-09-23T08:28:41Z</time>
      </trkpt>
      <trkpt lat="42.92923" lon="0.16774">
        <ele>1745.41</ele>
        <time>2014-09-23T08:28:53Z</time>
      </trkpt>
      <trkpt lat="42.92915" lon="0.16759">
        <ele>1747.81</ele>
        <time>2014-09-23T08:29:08Z</time>
      </trkpt>
      <trkpt lat="42.9291" lon="0.1674">
        <ele>1751.18</ele>
        <time>2014-09-23T08:29:26Z</time>
      </trkpt>
      <trkpt lat="42.92897" lon="0.16726">
        <ele>1754.06</ele>
        <time>2014-09-23T08:29:42Z</time>
      </trkpt>
      <trkpt lat="42.92895" lon="0.16726">
        <ele>1754.54</ele>
        <time>2014-09-23T08:29:44Z</time>
      </trkpt>
      <trkpt lat="42.92893" lon="0.16724">
        <ele>1755.02</ele>
        <time>2014-09-23T08:29:46Z</time>
      </trkpt>
      <trkpt lat="42.92881" lon="0.16715">
        <ele>1757.91</ele>
        <time>2014-09-23T08:30:01Z</time>
      </trkpt>
      <trkpt lat="42.92871" lon="0.16705">
        <ele>1761.27</ele>
        <time>2014-09-23T08:30:14Z</time>
      </trkpt>
      <trkpt lat="42.92862" lon="0.16696">
        <ele>1764.64</ele>
        <time>2014-09-23T08:30:29Z</time>
      </trkpt>
      <trkpt lat="42.92858" lon="0.1669">
        <ele>1765.12</ele>
        <time>2014-09-23T08:30:35Z</time>
      </trkpt>
      <trkpt lat="42.92851" lon="0.16673">
        <ele>1767.04</ele>
        <time>2014-09-23T08:30:52Z</time>
      </trkpt>
      <trkpt lat="42.92846" lon="0.16663">
        <ele>1769.92</ele>
        <time>2014-09-23T08:31:07Z</time>
      </trkpt>
      <trkpt lat="42.92837" lon="0.16647">
        <ele>1771.85</ele>
        <time>2014-09-23T08:31:22Z</time>
      </trkpt>
      <trkpt lat="42.92827" lon="0.1663">
        <ele>1774.73</ele>
        <time>2014-09-23T08:31:38Z</time>
      </trkpt>
      <trkpt lat="42.92822" lon="0.16617">
        <ele>1777.13</ele>
        <time>2014-09-23T08:31:52Z</time>
      </trkpt>
      <trkpt lat="42.92817" lon="0.16604">
        <ele>1780.5</ele>
        <time>2014-09-23T08:32:07Z</time>
      </trkpt>
      <trkpt lat="42.92811" lon="0.16592">
        <ele>1783.38</ele>
        <time>2014-09-23T08:32:22Z</time>
      </trkpt>
      <trkpt lat="42.92808" lon="0.1658">
        <ele>1785.79</ele>
        <time>2014-09-23T08:32:36Z</time>
      </trkpt>
      <trkpt lat="42.92803" lon="0.16571">
        <ele>1788.67</ele>
        <time>2014-09-23T08:32:49Z</time>
      </trkpt>
      <trkpt lat="42.928" lon="0.1656">
        <ele>1791.55</ele>
        <time>2014-09-23T08:33:03Z</time>
      </trkpt>
      <trkpt lat="42.92798" lon="0.16543">
        <ele>1793.96</ele>
        <time>2014-09-23T08:33:21Z</time>
      </trkpt>
      <trkpt lat="42.92803" lon="0.1653">
        <ele>1796.84</ele>
        <time>2014-09-23T08:33:40Z</time>
      </trkpt>
      <trkpt lat="42.92808" lon="0.1652">
        <ele>1799.73</ele>
        <time>2014-09-23T08:33:58Z</time>
      </trkpt>
      <trkpt lat="42.9282" lon="0.16522">
        <ele>1799.24</ele>
        <time>2014-09-23T08:34:08Z</time>
      </trkpt>
      <trkpt lat="42.92835" lon="0.16527">
        <ele>1799.24</ele>
        <time>2014-09-23T08:34:17Z</time>
      </trkpt>
      <trkpt lat="42.92842" lon="0.16528">
        <ele>1800.21</ele>
        <time>2014-09-23T08:34:22Z</time>
      </trkpt>
      <trkpt lat="42.92851" lon="0.16526">
        <ele>1800.69</ele>
        <time>2014-09-23T08:34:37Z</time>
      </trkpt>
      <trkpt lat="42.92848" lon="0.16523">
        <ele>1800.21</ele>
        <time>2014-09-23T08:34:47Z</time>
      </trkpt>
      <trkpt lat="42.92849" lon="0.1652">
        <ele>1801.65</ele>
        <time>2014-09-23T08:34:49Z</time>
      </trkpt>
      <trkpt lat="42.92852" lon="0.16509">
        <ele>1801.65</ele>
        <time>2014-09-23T08:34:56Z</time>
      </trkpt>
      <trkpt lat="42.92862" lon="0.16503">
        <ele>1803.57</ele>
        <time>2014-09-23T08:35:11Z</time>
      </trkpt>
      <trkpt lat="42.92865" lon="0.16486">
        <ele>1806.45</ele>
        <time>2014-09-23T08:35:27Z</time>
      </trkpt>
      <trkpt lat="42.92859" lon="0.16475">
        <ele>1808.86</ele>
        <time>2014-09-23T08:35:47Z</time>
      </trkpt>
      <trkpt lat="42.92856" lon="0.1647">
        <ele>1808.86</ele>
        <time>2014-09-23T08:35:53Z</time>
      </trkpt>
      <trkpt lat="42.92855" lon="0.16468">
        <ele>1811.26</ele>
        <time>2014-09-23T08:35:56Z</time>
      </trkpt>
      <trkpt lat="42.92842" lon="0.16458">
        <ele>1814.15</ele>
        <time>2014-09-23T08:36:13Z</time>
      </trkpt>
      <trkpt lat="42.92841" lon="0.16452">
        <ele>1815.11</ele>
        <time>2014-09-23T08:36:18Z</time>
      </trkpt>
      <trkpt lat="42.92838" lon="0.16449">
        <ele>1815.59</ele>
        <time>2014-09-23T08:36:21Z</time>
      </trkpt>
      <trkpt lat="42.9283" lon="0.16434">
        <ele>1817.51</ele>
        <time>2014-09-23T08:36:36Z</time>
      </trkpt>
      <trkpt lat="42.92833" lon="0.16431">
        <ele>1817.51</ele>
        <time>2014-09-23T08:36:40Z</time>
      </trkpt>
      <trkpt lat="42.92847" lon="0.16416">
        <ele>1818.47</ele>
        <time>2014-09-23T08:36:58Z</time>
      </trkpt>
      <trkpt lat="42.92851" lon="0.16402">
        <ele>1821.35</ele>
        <time>2014-09-23T08:37:14Z</time>
      </trkpt>
      <trkpt lat="42.92849" lon="0.16401">
        <ele>1821.84</ele>
        <time>2014-09-23T08:37:16Z</time>
      </trkpt>
      <trkpt lat="42.9285" lon="0.16396">
        <ele>1821.84</ele>
        <time>2014-09-23T08:37:21Z</time>
      </trkpt>
      <trkpt lat="42.9285" lon="0.16389">
        <ele>1822.32</ele>
        <time>2014-09-23T08:37:32Z</time>
      </trkpt>
      <trkpt lat="42.92849" lon="0.16384">
        <ele>1822.8</ele>
        <time>2014-09-23T08:37:35Z</time>
      </trkpt>
      <trkpt lat="42.92851" lon="0.16368">
        <ele>1823.76</ele>
        <time>2014-09-23T08:37:46Z</time>
      </trkpt>
      <trkpt lat="42.92854" lon="0.16362">
        <ele>1824.24</ele>
        <time>2014-09-23T08:37:51Z</time>
      </trkpt>
      <trkpt lat="42.92871" lon="0.1635">
        <ele>1825.68</ele>
        <time>2014-09-23T08:38:08Z</time>
      </trkpt>
      <trkpt lat="42.92879" lon="0.16339">
        <ele>1827.12</ele>
        <time>2014-09-23T08:38:21Z</time>
      </trkpt>
      <trkpt lat="42.92895" lon="0.16322">
        <ele>1828.08</ele>
        <time>2014-09-23T08:38:36Z</time>
      </trkpt>
      <trkpt lat="42.92902" lon="0.16322">
        <ele>1828.56</ele>
        <time>2014-09-23T08:38:43Z</time>
      </trkpt>
      <trkpt lat="42.92909" lon="0.16319">
        <ele>1829.05</ele>
        <time>2014-09-23T08:38:51Z</time>
      </trkpt>
      <trkpt lat="42.92924" lon="0.16314">
        <ele>1830.49</ele>
        <time>2014-09-23T08:39:08Z</time>
      </trkpt>
      <trkpt lat="42.92936" lon="0.16303">
        <ele>1832.41</ele>
        <time>2014-09-23T08:39:24Z</time>
      </trkpt>
      <trkpt lat="42.92951" lon="0.16301">
        <ele>1832.41</ele>
        <time>2014-09-23T08:39:38Z</time>
      </trkpt>
      <trkpt lat="42.92958" lon="0.16299">
        <ele>1833.37</ele>
        <time>2014-09-23T08:39:46Z</time>
      </trkpt>
      <trkpt lat="42.92975" lon="0.16295">
        <ele>1835.29</ele>
        <time>2014-09-23T08:40:02Z</time>
      </trkpt>
      <trkpt lat="42.92989" lon="0.16293">
        <ele>1834.81</ele>
        <time>2014-09-23T08:40:18Z</time>
      </trkpt>
      <trkpt lat="42.93003" lon="0.16285">
        <ele>1836.26</ele>
        <time>2014-09-23T08:40:33Z</time>
      </trkpt>
      <trkpt lat="42.93018" lon="0.16282">
        <ele>1836.74</ele>
        <time>2014-09-23T08:40:48Z</time>
      </trkpt>
      <trkpt lat="42.93033" lon="0.1628">
        <ele>1836.74</ele>
        <time>2014-09-23T08:41:05Z</time>
      </trkpt>
      <trkpt lat="42.93049" lon="0.16277">
        <ele>1837.22</ele>
        <time>2014-09-23T08:41:22Z</time>
      </trkpt>
      <trkpt lat="42.93063" lon="0.16274">
        <ele>1840.58</ele>
        <time>2014-09-23T08:41:36Z</time>
      </trkpt>
      <trkpt lat="42.93076" lon="0.16265">
        <ele>1841.54</ele>
        <time>2014-09-23T08:41:52Z</time>
      </trkpt>
      <trkpt lat="42.93077" lon="0.16264">
        <ele>1841.54</ele>
        <time>2014-09-23T08:41:54Z</time>
      </trkpt>
      <trkpt lat="42.93087" lon="0.16254">
        <ele>1842.98</ele>
        <time>2014-09-23T08:42:09Z</time>
      </trkpt>
      <trkpt lat="42.93093" lon="0.16242">
        <ele>1843.95</ele>
        <time>2014-09-23T08:42:23Z</time>
      </trkpt>
      <trkpt lat="42.93102" lon="0.16229">
        <ele>1846.83</ele>
        <time>2014-09-23T08:42:37Z</time>
      </trkpt>
      <trkpt lat="42.93112" lon="0.16225">
        <ele>1848.75</ele>
        <time>2014-09-23T08:42:50Z</time>
      </trkpt>
      <trkpt lat="42.93126" lon="0.16215">
        <ele>1850.19</ele>
        <time>2014-09-23T08:43:07Z</time>
      </trkpt>
      <trkpt lat="42.93139" lon="0.16207">
        <ele>1852.6</ele>
        <time>2014-09-23T08:43:23Z</time>
      </trkpt>
      <trkpt lat="42.93149" lon="0.16199">
        <ele>1854.52</ele>
        <time>2014-09-23T08:43:37Z</time>
      </trkpt>
      <trkpt lat="42.93152" lon="0.16195">
        <ele>1855.48</ele>
        <time>2014-09-23T08:43:44Z</time>
      </trkpt>
      <trkpt lat="42.93161" lon="0.16178">
        <ele>1858.37</ele>
        <time>2014-09-23T08:44:02Z</time>
      </trkpt>
      <trkpt lat="42.93166" lon="0.16172">
        <ele>1858.85</ele>
        <time>2014-09-23T08:44:10Z</time>
      </trkpt>
      <trkpt lat="42.93169" lon="0.16167">
        <ele>1859.33</ele>
        <time>2014-09-23T08:44:15Z</time>
      </trkpt>
      <trkpt lat="42.93178" lon="0.16152">
        <ele>1860.77</ele>
        <time>2014-09-23T08:44:32Z</time>
      </trkpt>
      <trkpt lat="42.93189" lon="0.16135">
        <ele>1862.21</ele>
        <time>2014-09-23T08:44:49Z</time>
      </trkpt>
      <trkpt lat="42.93198" lon="0.16124">
        <ele>1864.13</ele>
        <time>2014-09-23T08:45:05Z</time>
      </trkpt>
      <trkpt lat="42.93205" lon="0.16111">
        <ele>1866.54</ele>
        <time>2014-09-23T08:45:20Z</time>
      </trkpt>
      <trkpt lat="42.93213" lon="0.161">
        <ele>1868.46</ele>
        <time>2014-09-23T08:45:35Z</time>
      </trkpt>
      <trkpt lat="42.93213" lon="0.161">
        <ele>1868.46</ele>
        <time>2014-09-23T08:45:40Z</time>
      </trkpt>
      <trkpt lat="42.93214" lon="0.16097">
        <ele>1867.98</ele>
        <time>2014-09-23T08:45:42Z</time>
      </trkpt>
      <trkpt lat="42.93214" lon="0.16094">
        <ele>1869.9</ele>
        <time>2014-09-23T08:45:45Z</time>
      </trkpt>
      <trkpt lat="42.93214" lon="0.16093">
        <ele>1869.9</ele>
        <time>2014-09-23T08:45:46Z</time>
      </trkpt>
      <trkpt lat="42.93218" lon="0.16076">
        <ele>1870.86</ele>
        <time>2014-09-23T08:46:03Z</time>
      </trkpt>
      <trkpt lat="42.93219" lon="0.16073">
        <ele>1871.34</ele>
        <time>2014-09-23T08:46:06Z</time>
      </trkpt>
      <trkpt lat="42.93224" lon="0.16058">
        <ele>1873.75</ele>
        <time>2014-09-23T08:46:20Z</time>
      </trkpt>
      <trkpt lat="42.93224" lon="0.16057">
        <ele>1874.23</ele>
        <time>2014-09-23T08:46:22Z</time>
      </trkpt>
      <trkpt lat="42.93226" lon="0.16039">
        <ele>1876.63</ele>
        <time>2014-09-23T08:46:39Z</time>
      </trkpt>
      <trkpt lat="42.93234" lon="0.16028">
        <ele>1878.07</ele>
        <time>2014-09-23T08:46:55Z</time>
      </trkpt>
      <trkpt lat="42.93238" lon="0.16031">
        <ele>1878.55</ele>
        <time>2014-09-23T08:47:09Z</time>
      </trkpt>
      <trkpt lat="42.93243" lon="0.1602">
        <ele>1880</ele>
        <time>2014-09-23T08:47:24Z</time>
      </trkpt>
      <trkpt lat="42.93242" lon="0.16008">
        <ele>1881.44</ele>
        <time>2014-09-23T08:47:40Z</time>
      </trkpt>
      <trkpt lat="42.93235" lon="0.16004">
        <ele>1884.8</ele>
        <time>2014-09-23T08:47:54Z</time>
      </trkpt>
      <trkpt lat="42.93225" lon="0.16004">
        <ele>1886.24</ele>
        <time>2014-09-23T08:48:08Z</time>
      </trkpt>
      <trkpt lat="42.93219" lon="0.16007">
        <ele>1887.69</ele>
        <time>2014-09-23T08:48:19Z</time>
      </trkpt>
      <trkpt lat="42.93209" lon="0.16014">
        <ele>1889.61</ele>
        <time>2014-09-23T08:48:33Z</time>
      </trkpt>
      <trkpt lat="42.93207" lon="0.16008">
        <ele>1890.57</ele>
        <time>2014-09-23T08:48:39Z</time>
      </trkpt>
      <trkpt lat="42.93204" lon="0.1599">
        <ele>1891.53</ele>
        <time>2014-09-23T08:48:59Z</time>
      </trkpt>
      <trkpt lat="42.93203" lon="0.15971">
        <ele>1893.93</ele>
        <time>2014-09-23T08:49:14Z</time>
      </trkpt>
      <trkpt lat="42.93206" lon="0.1596">
        <ele>1896.82</ele>
        <time>2014-09-23T08:49:28Z</time>
      </trkpt>
      <trkpt lat="42.93198" lon="0.15953">
        <ele>1899.22</ele>
        <time>2014-09-23T08:49:43Z</time>
      </trkpt>
      <trkpt lat="42.93192" lon="0.15946">
        <ele>1901.14</ele>
        <time>2014-09-23T08:49:57Z</time>
      </trkpt>
      <trkpt lat="42.93187" lon="0.15934">
        <ele>1904.03</ele>
        <time>2014-09-23T08:50:12Z</time>
      </trkpt>
      <trkpt lat="42.9319" lon="0.15925">
        <ele>1906.91</ele>
        <time>2014-09-23T08:50:25Z</time>
      </trkpt>
      <trkpt lat="42.93199" lon="0.15921">
        <ele>1909.32</ele>
        <time>2014-09-23T08:50:40Z</time>
      </trkpt>
      <trkpt lat="42.9321" lon="0.15926">
        <ele>1911.24</ele>
        <time>2014-09-23T08:50:55Z</time>
      </trkpt>
      <trkpt lat="42.93218" lon="0.1593">
        <ele>1913.16</ele>
        <time>2014-09-23T08:51:06Z</time>
      </trkpt>
      <trkpt lat="42.93225" lon="0.15931">
        <ele>1914.6</ele>
        <time>2014-09-23T08:51:18Z</time>
      </trkpt>
      <trkpt lat="42.93225" lon="0.15923">
        <ele>1915.08</ele>
        <time>2014-09-23T08:51:24Z</time>
      </trkpt>
      <trkpt lat="42.93223" lon="0.15907">
        <ele>1916.53</ele>
        <time>2014-09-23T08:51:39Z</time>
      </trkpt>
      <trkpt lat="42.93215" lon="0.15899">
        <ele>1918.93</ele>
        <time>2014-09-23T08:51:53Z</time>
      </trkpt>
      <trkpt lat="42.93211" lon="0.15884">
        <ele>1921.81</ele>
        <time>2014-09-23T08:52:07Z</time>
      </trkpt>
      <trkpt lat="42.93207" lon="0.15878">
        <ele>1925.66</ele>
        <time>2014-09-23T08:52:19Z</time>
      </trkpt>
      <trkpt lat="42.93207" lon="0.15877">
        <ele>1922.29</ele>
        <time>2014-09-23T08:52:20Z</time>
      </trkpt>
      <trkpt lat="42.932" lon="0.15876">
        <ele>1924.7</ele>
        <time>2014-09-23T08:52:31Z</time>
      </trkpt>
      <trkpt lat="42.93191" lon="0.15875">
        <ele>1926.62</ele>
        <time>2014-09-23T08:52:42Z</time>
      </trkpt>
      <trkpt lat="42.93178" lon="0.15886">
        <ele>1928.54</ele>
        <time>2014-09-23T08:52:57Z</time>
      </trkpt>
      <trkpt lat="42.93174" lon="0.15894">
        <ele>1929.5</ele>
        <time>2014-09-23T08:53:08Z</time>
      </trkpt>
      <trkpt lat="42.93165" lon="0.15907">
        <ele>1930.95</ele>
        <time>2014-09-23T08:53:20Z</time>
      </trkpt>
      <trkpt lat="42.93155" lon="0.15918">
        <ele>1932.39</ele>
        <time>2014-09-23T08:53:32Z</time>
      </trkpt>
      <trkpt lat="42.93152" lon="0.15914">
        <ele>1933.35</ele>
        <time>2014-09-23T08:53:37Z</time>
      </trkpt>
      <trkpt lat="42.93153" lon="0.1591">
        <ele>1934.31</ele>
        <time>2014-09-23T08:53:40Z</time>
      </trkpt>
      <trkpt lat="42.9316" lon="0.1589">
        <ele>1936.71</ele>
        <time>2014-09-23T08:53:56Z</time>
      </trkpt>
      <trkpt lat="42.93166" lon="0.15873">
        <ele>1939.12</ele>
        <time>2014-09-23T08:54:10Z</time>
      </trkpt>
      <trkpt lat="42.93175" lon="0.15848">
        <ele>1942</ele>
        <time>2014-09-23T08:54:29Z</time>
      </trkpt>
      <trkpt lat="42.93177" lon="0.15829">
        <ele>1943.92</ele>
        <time>2014-09-23T08:54:43Z</time>
      </trkpt>
      <trkpt lat="42.93176" lon="0.1581">
        <ele>1946.33</ele>
        <time>2014-09-23T08:54:58Z</time>
      </trkpt>
      <trkpt lat="42.93172" lon="0.1579">
        <ele>1949.21</ele>
        <time>2014-09-23T08:55:13Z</time>
      </trkpt>
      <trkpt lat="42.93166" lon="0.15772">
        <ele>1952.09</ele>
        <time>2014-09-23T08:55:28Z</time>
      </trkpt>
      <trkpt lat="42.93161" lon="0.15754">
        <ele>1954.98</ele>
        <time>2014-09-23T08:55:45Z</time>
      </trkpt>
      <trkpt lat="42.93154" lon="0.15741">
        <ele>1957.38</ele>
        <time>2014-09-23T08:56:00Z</time>
      </trkpt>
      <trkpt lat="42.93151" lon="0.15724">
        <ele>1959.78</ele>
        <time>2014-09-23T08:56:16Z</time>
      </trkpt>
      <trkpt lat="42.93145" lon="0.1571">
        <ele>1961.71</ele>
        <time>2014-09-23T08:56:31Z</time>
      </trkpt>
      <trkpt lat="42.93152" lon="0.15703">
        <ele>1963.15</ele>
        <time>2014-09-23T08:56:47Z</time>
      </trkpt>
      <trkpt lat="42.93157" lon="0.15706">
        <ele>1962.19</ele>
        <time>2014-09-23T08:56:51Z</time>
      </trkpt>
      <trkpt lat="42.93165" lon="0.15694">
        <ele>1964.11</ele>
        <time>2014-09-23T08:57:05Z</time>
      </trkpt>
      <trkpt lat="42.93167" lon="0.1568">
        <ele>1966.03</ele>
        <time>2014-09-23T08:57:19Z</time>
      </trkpt>
      <trkpt lat="42.93168" lon="0.1568">
        <ele>1966.03</ele>
        <time>2014-09-23T08:57:20Z</time>
      </trkpt>
      <trkpt lat="42.93179" lon="0.15663">
        <ele>1967.96</ele>
        <time>2014-09-23T08:57:37Z</time>
      </trkpt>
      <trkpt lat="42.9319" lon="0.15648">
        <ele>1969.88</ele>
        <time>2014-09-23T08:57:54Z</time>
      </trkpt>
      <trkpt lat="42.93195" lon="0.15645">
        <ele>1971.32</ele>
        <time>2014-09-23T08:58:10Z</time>
      </trkpt>
      <trkpt lat="42.93203" lon="0.15646">
        <ele>1973.24</ele>
        <time>2014-09-23T08:58:18Z</time>
      </trkpt>
      <trkpt lat="42.93218" lon="0.15642">
        <ele>1974.2</ele>
        <time>2014-09-23T08:58:31Z</time>
      </trkpt>
      <trkpt lat="42.93207" lon="0.15638">
        <ele>1976.13</ele>
        <time>2014-09-23T08:58:42Z</time>
      </trkpt>
      <trkpt lat="42.93192" lon="0.15625">
        <ele>1979.01</ele>
        <time>2014-09-23T08:59:00Z</time>
      </trkpt>
      <trkpt lat="42.93181" lon="0.15618">
        <ele>1980.93</ele>
        <time>2014-09-23T08:59:14Z</time>
      </trkpt>
      <trkpt lat="42.93178" lon="0.15617">
        <ele>1981.41</ele>
        <time>2014-09-23T08:59:17Z</time>
      </trkpt>
      <trkpt lat="42.93169" lon="0.1561">
        <ele>1983.34</ele>
        <time>2014-09-23T08:59:31Z</time>
      </trkpt>
      <trkpt lat="42.93159" lon="0.15606">
        <ele>1985.26</ele>
        <time>2014-09-23T08:59:46Z</time>
      </trkpt>
      <trkpt lat="42.93151" lon="0.15603">
        <ele>1986.7</ele>
        <time>2014-09-23T08:59:57Z</time>
      </trkpt>
      <trkpt lat="42.93139" lon="0.15605">
        <ele>1988.62</ele>
        <time>2014-09-23T09:00:10Z</time>
      </trkpt>
      <trkpt lat="42.93125" lon="0.156">
        <ele>1991.03</ele>
        <time>2014-09-23T09:00:25Z</time>
      </trkpt>
      <trkpt lat="42.93116" lon="0.15588">
        <ele>1993.91</ele>
        <time>2014-09-23T09:00:40Z</time>
      </trkpt>
      <trkpt lat="42.93111" lon="0.15576">
        <ele>1997.28</ele>
        <time>2014-09-23T09:00:56Z</time>
      </trkpt>
      <trkpt lat="42.93122" lon="0.15574">
        <ele>1999.2</ele>
        <time>2014-09-23T09:01:11Z</time>
      </trkpt>
      <trkpt lat="42.93116" lon="0.15565">
        <ele>2001.6</ele>
        <time>2014-09-23T09:01:25Z</time>
      </trkpt>
      <trkpt lat="42.9311" lon="0.15554">
        <ele>2004.01</ele>
        <time>2014-09-23T09:01:40Z</time>
      </trkpt>
      <trkpt lat="42.9311" lon="0.15551">
        <ele>2004.97</ele>
        <time>2014-09-23T09:01:43Z</time>
      </trkpt>
      <trkpt lat="42.93118" lon="0.15546">
        <ele>2007.37</ele>
        <time>2014-09-23T09:01:57Z</time>
      </trkpt>
      <trkpt lat="42.93123" lon="0.15537">
        <ele>2009.77</ele>
        <time>2014-09-23T09:02:10Z</time>
      </trkpt>
      <trkpt lat="42.93118" lon="0.15532">
        <ele>2011.7</ele>
        <time>2014-09-23T09:02:24Z</time>
      </trkpt>
      <trkpt lat="42.9311" lon="0.15524">
        <ele>2014.58</ele>
        <time>2014-09-23T09:02:39Z</time>
      </trkpt>
      <trkpt lat="42.93103" lon="0.15512">
        <ele>2016.98</ele>
        <time>2014-09-23T09:02:55Z</time>
      </trkpt>
      <trkpt lat="42.93097" lon="0.15499">
        <ele>2019.39</ele>
        <time>2014-09-23T09:03:11Z</time>
      </trkpt>
      <trkpt lat="42.93096" lon="0.15485">
        <ele>2022.27</ele>
        <time>2014-09-23T09:03:26Z</time>
      </trkpt>
      <trkpt lat="42.93094" lon="0.15473">
        <ele>2024.67</ele>
        <time>2014-09-23T09:03:44Z</time>
      </trkpt>
      <trkpt lat="42.93094" lon="0.15467">
        <ele>2025.64</ele>
        <time>2014-09-23T09:03:51Z</time>
      </trkpt>
      <trkpt lat="42.93096" lon="0.15453">
        <ele>2028.52</ele>
        <time>2014-09-23T09:04:05Z</time>
      </trkpt>
      <trkpt lat="42.93092" lon="0.15441">
        <ele>2031.4</ele>
        <time>2014-09-23T09:04:20Z</time>
      </trkpt>
      <trkpt lat="42.93095" lon="0.15434">
        <ele>2034.29</ele>
        <time>2014-09-23T09:04:33Z</time>
      </trkpt>
      <trkpt lat="42.93093" lon="0.15424">
        <ele>2036.21</ele>
        <time>2014-09-23T09:04:47Z</time>
      </trkpt>
      <trkpt lat="42.93093" lon="0.15416">
        <ele>2037.17</ele>
        <time>2014-09-23T09:04:55Z</time>
      </trkpt>
      <trkpt lat="42.93089" lon="0.154">
        <ele>2038.13</ele>
        <time>2014-09-23T09:05:11Z</time>
      </trkpt>
      <trkpt lat="42.93088" lon="0.15393">
        <ele>2038.61</ele>
        <time>2014-09-23T09:05:25Z</time>
      </trkpt>
      <trkpt lat="42.93089" lon="0.15398">
        <ele>2038.61</ele>
        <time>2014-09-23T09:05:42Z</time>
      </trkpt>
      <trkpt lat="42.93086" lon="0.15402">
        <ele>2038.13</ele>
        <time>2014-09-23T09:06:11Z</time>
      </trkpt>
      <trkpt lat="42.93087" lon="0.15404">
        <ele>2038.61</ele>
        <time>2014-09-23T09:06:39Z</time>
      </trkpt>
      <trkpt lat="42.93089" lon="0.15389">
        <ele>2038.61</ele>
        <time>2014-09-23T09:07:13Z</time>
      </trkpt>
      <trkpt lat="42.93088" lon="0.15397">
        <ele>2038.61</ele>
        <time>2014-09-23T09:07:41Z</time>
      </trkpt>
      <trkpt lat="42.93087" lon="0.154">
        <ele>2039.57</ele>
        <time>2014-09-23T09:07:56Z</time>
      </trkpt>
      <trkpt lat="42.93087" lon="0.15398">
        <ele>2039.57</ele>
        <time>2014-09-23T09:08:21Z</time>
      </trkpt>
      <trkpt lat="42.9309" lon="0.15403">
        <ele>2039.57</ele>
        <time>2014-09-23T09:08:38Z</time>
      </trkpt>
      <trkpt lat="42.93088" lon="0.154">
        <ele>2039.57</ele>
        <time>2014-09-23T09:08:50Z</time>
      </trkpt>
      <trkpt lat="42.93086" lon="0.15395">
        <ele>2040.05</ele>
        <time>2014-09-23T09:09:06Z</time>
      </trkpt>
      <trkpt lat="42.93084" lon="0.15383">
        <ele>2042.46</ele>
        <time>2014-09-23T09:09:19Z</time>
      </trkpt>
      <trkpt lat="42.93082" lon="0.15366">
        <ele>2045.34</ele>
        <time>2014-09-23T09:09:36Z</time>
      </trkpt>
      <trkpt lat="42.93082" lon="0.15361">
        <ele>2046.3</ele>
        <time>2014-09-23T09:09:41Z</time>
      </trkpt>
      <trkpt lat="42.93083" lon="0.15346">
        <ele>2049.19</ele>
        <time>2014-09-23T09:09:55Z</time>
      </trkpt>
      <trkpt lat="42.93079" lon="0.15333">
        <ele>2052.07</ele>
        <time>2014-09-23T09:10:11Z</time>
      </trkpt>
      <trkpt lat="42.93071" lon="0.15327">
        <ele>2053.99</ele>
        <time>2014-09-23T09:10:24Z</time>
      </trkpt>
      <trkpt lat="42.93059" lon="0.15326">
        <ele>2055.92</ele>
        <time>2014-09-23T09:10:39Z</time>
      </trkpt>
      <trkpt lat="42.93049" lon="0.15321">
        <ele>2057.84</ele>
        <time>2014-09-23T09:10:52Z</time>
      </trkpt>
      <trkpt lat="42.9304" lon="0.15312">
        <ele>2059.28</ele>
        <time>2014-09-23T09:11:06Z</time>
      </trkpt>
      <trkpt lat="42.93039" lon="0.15313">
        <ele>2059.28</ele>
        <time>2014-09-23T09:11:08Z</time>
      </trkpt>
      <trkpt lat="42.93031" lon="0.15327">
        <ele>2060.72</ele>
        <time>2014-09-23T09:11:23Z</time>
      </trkpt>
      <trkpt lat="42.93024" lon="0.15345">
        <ele>2062.65</ele>
        <time>2014-09-23T09:11:38Z</time>
      </trkpt>
      <trkpt lat="42.93016" lon="0.15358">
        <ele>2064.57</ele>
        <time>2014-09-23T09:11:51Z</time>
      </trkpt>
      <trkpt lat="42.9301" lon="0.15377">
        <ele>2066.01</ele>
        <time>2014-09-23T09:12:06Z</time>
      </trkpt>
      <trkpt lat="42.93004" lon="0.1539">
        <ele>2068.41</ele>
        <time>2014-09-23T09:12:21Z</time>
      </trkpt>
      <trkpt lat="42.92997" lon="0.15403">
        <ele>2070.34</ele>
        <time>2014-09-23T09:12:34Z</time>
      </trkpt>
      <trkpt lat="42.92994" lon="0.15414">
        <ele>2071.78</ele>
        <time>2014-09-23T09:12:45Z</time>
      </trkpt>
      <trkpt lat="42.9299" lon="0.15399">
        <ele>2074.66</ele>
        <time>2014-09-23T09:13:00Z</time>
      </trkpt>
      <trkpt lat="42.92989" lon="0.1539">
        <ele>2076.59</ele>
        <time>2014-09-23T09:13:10Z</time>
      </trkpt>
      <trkpt lat="42.92989" lon="0.15375">
        <ele>2078.51</ele>
        <time>2014-09-23T09:13:24Z</time>
      </trkpt>
      <trkpt lat="42.92986" lon="0.1536">
        <ele>2080.91</ele>
        <time>2014-09-23T09:13:39Z</time>
      </trkpt>
      <trkpt lat="42.92982" lon="0.15344">
        <ele>2083.31</ele>
        <time>2014-09-23T09:13:54Z</time>
      </trkpt>
      <trkpt lat="42.92982" lon="0.15326">
        <ele>2085.24</ele>
        <time>2014-09-23T09:14:10Z</time>
      </trkpt>
      <trkpt lat="42.92983" lon="0.15317">
        <ele>2086.68</ele>
        <time>2014-09-23T09:14:19Z</time>
      </trkpt>
      <trkpt lat="42.92988" lon="0.15295">
        <ele>2088.12</ele>
        <time>2014-09-23T09:14:35Z</time>
      </trkpt>
      <trkpt lat="42.9299" lon="0.15277">
        <ele>2090.52</ele>
        <time>2014-09-23T09:14:51Z</time>
      </trkpt>
      <trkpt lat="42.9299" lon="0.15263">
        <ele>2093.41</ele>
        <time>2014-09-23T09:15:06Z</time>
      </trkpt>
      <trkpt lat="42.92991" lon="0.15247">
        <ele>2095.81</ele>
        <time>2014-09-23T09:15:22Z</time>
      </trkpt>
      <trkpt lat="42.92999" lon="0.15232">
        <ele>2097.25</ele>
        <time>2014-09-23T09:15:38Z</time>
      </trkpt>
      <trkpt lat="42.93004" lon="0.15218">
        <ele>2100.14</ele>
        <time>2014-09-23T09:15:54Z</time>
      </trkpt>
      <trkpt lat="42.93006" lon="0.15205">
        <ele>2103.02</ele>
        <time>2014-09-23T09:16:10Z</time>
      </trkpt>
      <trkpt lat="42.93007" lon="0.15188">
        <ele>2104.94</ele>
        <time>2014-09-23T09:16:27Z</time>
      </trkpt>
      <trkpt lat="42.93014" lon="0.15177">
        <ele>2106.87</ele>
        <time>2014-09-23T09:16:41Z</time>
      </trkpt>
      <trkpt lat="42.9302" lon="0.15162">
        <ele>2108.31</ele>
        <time>2014-09-23T09:16:57Z</time>
      </trkpt>
      <trkpt lat="42.9302" lon="0.15159">
        <ele>2109.75</ele>
        <time>2014-09-23T09:17:12Z</time>
      </trkpt>
      <trkpt lat="42.93017" lon="0.15147">
        <ele>2110.71</ele>
        <time>2014-09-23T09:17:28Z</time>
      </trkpt>
      <trkpt lat="42.93015" lon="0.1513">
        <ele>2113.6</ele>
        <time>2014-09-23T09:17:43Z</time>
      </trkpt>
      <trkpt lat="42.9301" lon="0.15113">
        <ele>2116</ele>
        <time>2014-09-23T09:17:59Z</time>
      </trkpt>
      <trkpt lat="42.93008" lon="0.15098">
        <ele>2118.4</ele>
        <time>2014-09-23T09:18:15Z</time>
      </trkpt>
      <trkpt lat="42.93005" lon="0.15082">
        <ele>2120.32</ele>
        <time>2014-09-23T09:18:29Z</time>
      </trkpt>
      <trkpt lat="42.93009" lon="0.15073">
        <ele>2122.73</ele>
        <time>2014-09-23T09:18:45Z</time>
      </trkpt>
      <trkpt lat="42.93006" lon="0.15057">
        <ele>2125.13</ele>
        <time>2014-09-23T09:18:59Z</time>
      </trkpt>
      <trkpt lat="42.93002" lon="0.15048">
        <ele>2127.53</ele>
        <time>2014-09-23T09:19:16Z</time>
      </trkpt>
      <trkpt lat="42.92997" lon="0.15033">
        <ele>2129.46</ele>
        <time>2014-09-23T09:19:32Z</time>
      </trkpt>
      <trkpt lat="42.92995" lon="0.15018">
        <ele>2131.38</ele>
        <time>2014-09-23T09:19:47Z</time>
      </trkpt>
      <trkpt lat="42.92994" lon="0.15005">
        <ele>2133.78</ele>
        <time>2014-09-23T09:20:02Z</time>
      </trkpt>
      <trkpt lat="42.92993" lon="0.14994">
        <ele>2135.71</ele>
        <time>2014-09-23T09:20:16Z</time>
      </trkpt>
      <trkpt lat="42.92987" lon="0.14984">
        <ele>2137.63</ele>
        <time>2014-09-23T09:20:30Z</time>
      </trkpt>
      <trkpt lat="42.92981" lon="0.14989">
        <ele>2140.03</ele>
        <time>2014-09-23T09:20:44Z</time>
      </trkpt>
      <trkpt lat="42.92974" lon="0.14993">
        <ele>2140.99</ele>
        <time>2014-09-23T09:20:55Z</time>
      </trkpt>
      <trkpt lat="42.92965" lon="0.1498">
        <ele>2143.4</ele>
        <time>2014-09-23T09:21:12Z</time>
      </trkpt>
      <trkpt lat="42.92962" lon="0.14972">
        <ele>2144.84</ele>
        <time>2014-09-23T09:21:23Z</time>
      </trkpt>
      <trkpt lat="42.92958" lon="0.14962">
        <ele>2148.2</ele>
        <time>2014-09-23T09:21:39Z</time>
      </trkpt>
      <trkpt lat="42.92956" lon="0.14948">
        <ele>2150.13</ele>
        <time>2014-09-23T09:21:55Z</time>
      </trkpt>
      <trkpt lat="42.92954" lon="0.14937">
        <ele>2153.49</ele>
        <time>2014-09-23T09:22:12Z</time>
      </trkpt>
      <trkpt lat="42.92954" lon="0.14925">
        <ele>2155.41</ele>
        <time>2014-09-23T09:22:27Z</time>
      </trkpt>
      <trkpt lat="42.9296" lon="0.14913">
        <ele>2158.3</ele>
        <time>2014-09-23T09:22:42Z</time>
      </trkpt>
      <trkpt lat="42.92958" lon="0.14899">
        <ele>2160.22</ele>
        <time>2014-09-23T09:22:59Z</time>
      </trkpt>
      <trkpt lat="42.92956" lon="0.14885">
        <ele>2161.66</ele>
        <time>2014-09-23T09:23:16Z</time>
      </trkpt>
      <trkpt lat="42.92958" lon="0.1487">
        <ele>2164.06</ele>
        <time>2014-09-23T09:23:31Z</time>
      </trkpt>
      <trkpt lat="42.92956" lon="0.1486">
        <ele>2165.51</ele>
        <time>2014-09-23T09:23:42Z</time>
      </trkpt>
      <trkpt lat="42.92953" lon="0.14859">
        <ele>2165.99</ele>
        <time>2014-09-23T09:23:47Z</time>
      </trkpt>
      <trkpt lat="42.92948" lon="0.1485">
        <ele>2167.91</ele>
        <time>2014-09-23T09:24:00Z</time>
      </trkpt>
      <trkpt lat="42.92945" lon="0.14837">
        <ele>2170.31</ele>
        <time>2014-09-23T09:24:13Z</time>
      </trkpt>
      <trkpt lat="42.92944" lon="0.14833">
        <ele>2171.27</ele>
        <time>2014-09-23T09:24:24Z</time>
      </trkpt>
      <trkpt lat="42.92942" lon="0.14819">
        <ele>2172.72</ele>
        <time>2014-09-23T09:24:39Z</time>
      </trkpt>
      <trkpt lat="42.92933" lon="0.14812">
        <ele>2175.12</ele>
        <time>2014-09-23T09:24:52Z</time>
      </trkpt>
      <trkpt lat="42.92921" lon="0.14807">
        <ele>2175.6</ele>
        <time>2014-09-23T09:25:06Z</time>
      </trkpt>
      <trkpt lat="42.92913" lon="0.14795">
        <ele>2178</ele>
        <time>2014-09-23T09:25:20Z</time>
      </trkpt>
      <trkpt lat="42.92908" lon="0.14783">
        <ele>2179.93</ele>
        <time>2014-09-23T09:25:36Z</time>
      </trkpt>
      <trkpt lat="42.92901" lon="0.14775">
        <ele>2181.37</ele>
        <time>2014-09-23T09:25:49Z</time>
      </trkpt>
      <trkpt lat="42.92891" lon="0.1477">
        <ele>2183.77</ele>
        <time>2014-09-23T09:26:04Z</time>
      </trkpt>
      <trkpt lat="42.92887" lon="0.14769">
        <ele>2185.21</ele>
        <time>2014-09-23T09:26:14Z</time>
      </trkpt>
      <trkpt lat="42.92883" lon="0.14764">
        <ele>2186.18</ele>
        <time>2014-09-23T09:26:27Z</time>
      </trkpt>
      <trkpt lat="42.92883" lon="0.14761">
        <ele>2186.66</ele>
        <time>2014-09-23T09:26:40Z</time>
      </trkpt>
      <trkpt lat="42.92874" lon="0.14754">
        <ele>2188.58</ele>
        <time>2014-09-23T09:26:55Z</time>
      </trkpt>
      <trkpt lat="42.9287" lon="0.14748">
        <ele>2189.54</ele>
        <time>2014-09-23T09:27:09Z</time>
      </trkpt>
      <trkpt lat="42.9287" lon="0.14749">
        <ele>2189.54</ele>
        <time>2014-09-23T09:27:10Z</time>
      </trkpt>
      <trkpt lat="42.92864" lon="0.14741">
        <ele>2190.98</ele>
        <time>2014-09-23T09:27:23Z</time>
      </trkpt>
      <trkpt lat="42.92856" lon="0.14733">
        <ele>2192.9</ele>
        <time>2014-09-23T09:27:37Z</time>
      </trkpt>
      <trkpt lat="42.92849" lon="0.14722">
        <ele>2194.83</ele>
        <time>2014-09-23T09:27:51Z</time>
      </trkpt>
      <trkpt lat="42.92845" lon="0.14717">
        <ele>2195.79</ele>
        <time>2014-09-23T09:27:58Z</time>
      </trkpt>
      <trkpt lat="42.92839" lon="0.14708">
        <ele>2197.71</ele>
        <time>2014-09-23T09:28:08Z</time>
      </trkpt>
      <trkpt lat="42.92834" lon="0.14695">
        <ele>2199.63</ele>
        <time>2014-09-23T09:28:23Z</time>
      </trkpt>
      <trkpt lat="42.92831" lon="0.14685">
        <ele>2202.04</ele>
        <time>2014-09-23T09:28:36Z</time>
      </trkpt>
      <trkpt lat="42.9283" lon="0.1467">
        <ele>2204.44</ele>
        <time>2014-09-23T09:28:52Z</time>
      </trkpt>
      <trkpt lat="42.92828" lon="0.14665">
        <ele>2204.92</ele>
        <time>2014-09-23T09:28:58Z</time>
      </trkpt>
      <trkpt lat="42.92819" lon="0.14658">
        <ele>2206.84</ele>
        <time>2014-09-23T09:29:11Z</time>
      </trkpt>
      <trkpt lat="42.92812" lon="0.14646">
        <ele>2208.29</ele>
        <time>2014-09-23T09:29:25Z</time>
      </trkpt>
      <trkpt lat="42.92808" lon="0.14636">
        <ele>2209.73</ele>
        <time>2014-09-23T09:29:36Z</time>
      </trkpt>
      <trkpt lat="42.92809" lon="0.1462">
        <ele>2211.17</ele>
        <time>2014-09-23T09:29:50Z</time>
      </trkpt>
      <trkpt lat="42.9281" lon="0.14606">
        <ele>2213.09</ele>
        <time>2014-09-23T09:30:04Z</time>
      </trkpt>
      <trkpt lat="42.9281" lon="0.14594">
        <ele>2214.53</ele>
        <time>2014-09-23T09:30:14Z</time>
      </trkpt>
      <trkpt lat="42.9281" lon="0.14578">
        <ele>2216.46</ele>
        <time>2014-09-23T09:30:28Z</time>
      </trkpt>
      <trkpt lat="42.92808" lon="0.14571">
        <ele>2217.42</ele>
        <time>2014-09-23T09:30:35Z</time>
      </trkpt>
      <trkpt lat="42.92799" lon="0.14559">
        <ele>2219.34</ele>
        <time>2014-09-23T09:30:50Z</time>
      </trkpt>
      <trkpt lat="42.92793" lon="0.14548">
        <ele>2221.74</ele>
        <time>2014-09-23T09:31:04Z</time>
      </trkpt>
      <trkpt lat="42.92791" lon="0.14537">
        <ele>2223.67</ele>
        <time>2014-09-23T09:31:18Z</time>
      </trkpt>
      <trkpt lat="42.92785" lon="0.14525">
        <ele>2225.59</ele>
        <time>2014-09-23T09:31:31Z</time>
      </trkpt>
      <trkpt lat="42.92782" lon="0.14516">
        <ele>2227.51</ele>
        <time>2014-09-23T09:31:41Z</time>
      </trkpt>
      <trkpt lat="42.9278" lon="0.145">
        <ele>2229.43</ele>
        <time>2014-09-23T09:31:56Z</time>
      </trkpt>
      <trkpt lat="42.92778" lon="0.14486">
        <ele>2230.88</ele>
        <time>2014-09-23T09:32:09Z</time>
      </trkpt>
      <trkpt lat="42.92778" lon="0.14485">
        <ele>2230.88</ele>
        <time>2014-09-23T09:32:10Z</time>
      </trkpt>
      <trkpt lat="42.92774" lon="0.14477">
        <ele>2232.32</ele>
        <time>2014-09-23T09:32:22Z</time>
      </trkpt>
      <trkpt lat="42.92774" lon="0.14474">
        <ele>2232.8</ele>
        <time>2014-09-23T09:32:40Z</time>
      </trkpt>
      <trkpt lat="42.92775" lon="0.14459">
        <ele>2234.72</ele>
        <time>2014-09-23T09:32:55Z</time>
      </trkpt>
      <trkpt lat="42.9278" lon="0.1445">
        <ele>2236.16</ele>
        <time>2014-09-23T09:33:08Z</time>
      </trkpt>
      <trkpt lat="42.92781" lon="0.14447">
        <ele>2236.16</ele>
        <time>2014-09-23T09:33:11Z</time>
      </trkpt>
      <trkpt lat="42.92785" lon="0.14439">
        <ele>2237.61</ele>
        <time>2014-09-23T09:33:24Z</time>
      </trkpt>
      <trkpt lat="42.92789" lon="0.14423">
        <ele>2239.53</ele>
        <time>2014-09-23T09:33:38Z</time>
      </trkpt>
      <trkpt lat="42.92795" lon="0.14405">
        <ele>2242.41</ele>
        <time>2014-09-23T09:33:53Z</time>
      </trkpt>
      <trkpt lat="42.92799" lon="0.14399">
        <ele>2243.37</ele>
        <time>2014-09-23T09:34:07Z</time>
      </trkpt>
      <trkpt lat="42.92802" lon="0.14383">
        <ele>2245.3</ele>
        <time>2014-09-23T09:34:20Z</time>
      </trkpt>
      <trkpt lat="42.92804" lon="0.14368">
        <ele>2247.22</ele>
        <time>2014-09-23T09:34:33Z</time>
      </trkpt>
      <trkpt lat="42.92806" lon="0.14352">
        <ele>2249.14</ele>
        <time>2014-09-23T09:34:47Z</time>
      </trkpt>
      <trkpt lat="42.92812" lon="0.14339">
        <ele>2251.06</ele>
        <time>2014-09-23T09:35:02Z</time>
      </trkpt>
      <trkpt lat="42.92821" lon="0.14329">
        <ele>2253.95</ele>
        <time>2014-09-23T09:35:18Z</time>
      </trkpt>
      <trkpt lat="42.92832" lon="0.14328">
        <ele>2255.39</ele>
        <time>2014-09-23T09:35:32Z</time>
      </trkpt>
      <trkpt lat="42.92839" lon="0.14322">
        <ele>2256.35</ele>
        <time>2014-09-23T09:35:46Z</time>
      </trkpt>
      <trkpt lat="42.92845" lon="0.14323">
        <ele>2256.83</ele>
        <time>2014-09-23T09:35:53Z</time>
      </trkpt>
      <trkpt lat="42.92859" lon="0.14325">
        <ele>2258.75</ele>
        <time>2014-09-23T09:36:10Z</time>
      </trkpt>
      <trkpt lat="42.92869" lon="0.14313">
        <ele>2260.68</ele>
        <time>2014-09-23T09:36:25Z</time>
      </trkpt>
      <trkpt lat="42.92876" lon="0.14311">
        <ele>2262.12</ele>
        <time>2014-09-23T09:36:40Z</time>
      </trkpt>
      <trkpt lat="42.92889" lon="0.14297">
        <ele>2264.52</ele>
        <time>2014-09-23T09:36:57Z</time>
      </trkpt>
      <trkpt lat="42.92902" lon="0.14293">
        <ele>2266.45</ele>
        <time>2014-09-23T09:37:12Z</time>
      </trkpt>
      <trkpt lat="42.92914" lon="0.14298">
        <ele>2268.85</ele>
        <time>2014-09-23T09:37:26Z</time>
      </trkpt>
      <trkpt lat="42.92927" lon="0.14299">
        <ele>2271.25</ele>
        <time>2014-09-23T09:37:43Z</time>
      </trkpt>
      <trkpt lat="42.92933" lon="0.14286">
        <ele>2273.17</ele>
        <time>2014-09-23T09:37:58Z</time>
      </trkpt>
      <trkpt lat="42.9294" lon="0.14276">
        <ele>2276.06</ele>
        <time>2014-09-23T09:38:13Z</time>
      </trkpt>
      <trkpt lat="42.92942" lon="0.14273">
        <ele>2277.5</ele>
        <time>2014-09-23T09:38:27Z</time>
      </trkpt>
      <trkpt lat="42.92948" lon="0.14272">
        <ele>2276.06</ele>
        <time>2014-09-23T09:38:33Z</time>
      </trkpt>
      <trkpt lat="42.92949" lon="0.14272">
        <ele>2277.02</ele>
        <time>2014-09-23T09:38:34Z</time>
      </trkpt>
      <trkpt lat="42.92954" lon="0.1428">
        <ele>2277.02</ele>
        <time>2014-09-23T09:38:41Z</time>
      </trkpt>
      <trkpt lat="42.92962" lon="0.14292">
        <ele>2279.42</ele>
        <time>2014-09-23T09:38:55Z</time>
      </trkpt>
      <trkpt lat="42.92974" lon="0.14298">
        <ele>2281.35</ele>
        <time>2014-09-23T09:39:10Z</time>
      </trkpt>
      <trkpt lat="42.92984" lon="0.1431">
        <ele>2282.79</ele>
        <time>2014-09-23T09:39:24Z</time>
      </trkpt>
      <trkpt lat="42.92987" lon="0.14309">
        <ele>2284.23</ele>
        <time>2014-09-23T09:39:37Z</time>
      </trkpt>
      <trkpt lat="42.92987" lon="0.1429">
        <ele>2287.11</ele>
        <time>2014-09-23T09:39:53Z</time>
      </trkpt>
      <trkpt lat="42.92981" lon="0.14277">
        <ele>2289.52</ele>
        <time>2014-09-23T09:40:10Z</time>
      </trkpt>
      <trkpt lat="42.92988" lon="0.14276">
        <ele>2292.4</ele>
        <time>2014-09-23T09:40:25Z</time>
      </trkpt>
      <trkpt lat="42.92989" lon="0.14267">
        <ele>2295.77</ele>
        <time>2014-09-23T09:40:41Z</time>
      </trkpt>
      <trkpt lat="42.92986" lon="0.14262">
        <ele>2298.17</ele>
        <time>2014-09-23T09:40:57Z</time>
      </trkpt>
      <trkpt lat="42.92981" lon="0.14255">
        <ele>2301.05</ele>
        <time>2014-09-23T09:41:14Z</time>
      </trkpt>
      <trkpt lat="42.92983" lon="0.14246">
        <ele>2302.01</ele>
        <time>2014-09-23T09:41:23Z</time>
      </trkpt>
      <trkpt lat="42.92987" lon="0.14244">
        <ele>2302.49</ele>
        <time>2014-09-23T09:41:36Z</time>
      </trkpt>
      <trkpt lat="42.92989" lon="0.14237">
        <ele>2303.46</ele>
        <time>2014-09-23T09:41:44Z</time>
      </trkpt>
      <trkpt lat="42.92995" lon="0.14223">
        <ele>2305.38</ele>
        <time>2014-09-23T09:41:58Z</time>
      </trkpt>
      <trkpt lat="42.92998" lon="0.14212">
        <ele>2308.26</ele>
        <time>2014-09-23T09:42:11Z</time>
      </trkpt>
      <trkpt lat="42.93001" lon="0.14201">
        <ele>2310.67</ele>
        <time>2014-09-23T09:42:25Z</time>
      </trkpt>
      <trkpt lat="42.93003" lon="0.14186">
        <ele>2313.55</ele>
        <time>2014-09-23T09:42:41Z</time>
      </trkpt>
      <trkpt lat="42.93004" lon="0.14173">
        <ele>2315.47</ele>
        <time>2014-09-23T09:42:53Z</time>
      </trkpt>
      <trkpt lat="42.93005" lon="0.14155">
        <ele>2316.91</ele>
        <time>2014-09-23T09:43:08Z</time>
      </trkpt>
      <trkpt lat="42.93005" lon="0.1414">
        <ele>2319.8</ele>
        <time>2014-09-23T09:43:22Z</time>
      </trkpt>
      <trkpt lat="42.9301" lon="0.14122">
        <ele>2323.16</ele>
        <time>2014-09-23T09:43:39Z</time>
      </trkpt>
      <trkpt lat="42.93014" lon="0.14109">
        <ele>2325.57</ele>
        <time>2014-09-23T09:43:54Z</time>
      </trkpt>
      <trkpt lat="42.93017" lon="0.14096">
        <ele>2327.97</ele>
        <time>2014-09-23T09:44:07Z</time>
      </trkpt>
      <trkpt lat="42.93018" lon="0.14092">
        <ele>2328.45</ele>
        <time>2014-09-23T09:44:10Z</time>
      </trkpt>
      <trkpt lat="42.93022" lon="0.14078">
        <ele>2330.85</ele>
        <time>2014-09-23T09:44:25Z</time>
      </trkpt>
      <trkpt lat="42.93027" lon="0.14068">
        <ele>2333.26</ele>
        <time>2014-09-23T09:44:38Z</time>
      </trkpt>
      <trkpt lat="42.93028" lon="0.14059">
        <ele>2334.7</ele>
        <time>2014-09-23T09:44:47Z</time>
      </trkpt>
      <trkpt lat="42.93032" lon="0.14047">
        <ele>2337.58</ele>
        <time>2014-09-23T09:45:01Z</time>
      </trkpt>
      <trkpt lat="42.93037" lon="0.14038">
        <ele>2340.95</ele>
        <time>2014-09-23T09:45:14Z</time>
      </trkpt>
      <trkpt lat="42.93041" lon="0.14027">
        <ele>2343.83</ele>
        <time>2014-09-23T09:45:29Z</time>
      </trkpt>
      <trkpt lat="42.9304" lon="0.1401">
        <ele>2346.23</ele>
        <time>2014-09-23T09:45:43Z</time>
      </trkpt>
      <trkpt lat="42.93041" lon="0.13995">
        <ele>2349.12</ele>
        <time>2014-09-23T09:45:58Z</time>
      </trkpt>
      <trkpt lat="42.93045" lon="0.13988">
        <ele>2350.08</ele>
        <time>2014-09-23T09:46:11Z</time>
      </trkpt>
      <trkpt lat="42.93046" lon="0.13985">
        <ele>2351.04</ele>
        <time>2014-09-23T09:46:24Z</time>
      </trkpt>
      <trkpt lat="42.93051" lon="0.13978">
        <ele>2352</ele>
        <time>2014-09-23T09:46:36Z</time>
      </trkpt>
      <trkpt lat="42.93053" lon="0.13976">
        <ele>2352.48</ele>
        <time>2014-09-23T09:46:39Z</time>
      </trkpt>
      <trkpt lat="42.93056" lon="0.1397">
        <ele>2353.44</ele>
        <time>2014-09-23T09:46:46Z</time>
      </trkpt>
      <trkpt lat="42.9306" lon="0.13953">
        <ele>2356.33</ele>
        <time>2014-09-23T09:47:01Z</time>
      </trkpt>
      <trkpt lat="42.93063" lon="0.13952">
        <ele>2357.29</ele>
        <time>2014-09-23T09:47:15Z</time>
      </trkpt>
      <trkpt lat="42.93061" lon="0.13957">
        <ele>2357.29</ele>
        <time>2014-09-23T09:47:40Z</time>
      </trkpt>
      <trkpt lat="42.93062" lon="0.13957">
        <ele>2357.29</ele>
        <time>2014-09-23T09:48:05Z</time>
      </trkpt>
      <trkpt lat="42.9306" lon="0.13954">
        <ele>2357.29</ele>
        <time>2014-09-23T09:48:31Z</time>
      </trkpt>
      <trkpt lat="42.93062" lon="0.13948">
        <ele>2357.77</ele>
        <time>2014-09-23T09:48:48Z</time>
      </trkpt>
      <trkpt lat="42.93062" lon="0.13937">
        <ele>2358.25</ele>
        <time>2014-09-23T09:49:02Z</time>
      </trkpt>
      <trkpt lat="42.93063" lon="0.13928">
        <ele>2359.21</ele>
        <time>2014-09-23T09:49:17Z</time>
      </trkpt>
      <trkpt lat="42.93064" lon="0.13917">
        <ele>2360.65</ele>
        <time>2014-09-23T09:49:36Z</time>
      </trkpt>
      <trkpt lat="42.93064" lon="0.13916">
        <ele>2360.65</ele>
        <time>2014-09-23T09:49:37Z</time>
      </trkpt>
      <trkpt lat="42.93068" lon="0.13906">
        <ele>2362.58</ele>
        <time>2014-09-23T09:49:47Z</time>
      </trkpt>
      <trkpt lat="42.9308" lon="0.13894">
        <ele>2365.46</ele>
        <time>2014-09-23T09:50:04Z</time>
      </trkpt>
      <trkpt lat="42.93082" lon="0.13884">
        <ele>2367.86</ele>
        <time>2014-09-23T09:50:18Z</time>
      </trkpt>
      <trkpt lat="42.93086" lon="0.13868">
        <ele>2369.31</ele>
        <time>2014-09-23T09:50:32Z</time>
      </trkpt>
      <trkpt lat="42.93091" lon="0.13862">
        <ele>2368.83</ele>
        <time>2014-09-23T09:50:46Z</time>
      </trkpt>
      <trkpt lat="42.93095" lon="0.13857">
        <ele>2368.83</ele>
        <time>2014-09-23T09:50:51Z</time>
      </trkpt>
      <trkpt lat="42.93101" lon="0.13832">
        <ele>2367.38</ele>
        <time>2014-09-23T09:51:10Z</time>
      </trkpt>
      <trkpt lat="42.93102" lon="0.13831">
        <ele>2367.86</ele>
        <time>2014-09-23T09:51:11Z</time>
      </trkpt>
      <trkpt lat="42.93104" lon="0.13829">
        <ele>2367.86</ele>
        <time>2014-09-23T09:51:28Z</time>
      </trkpt>
      <trkpt lat="42.93104" lon="0.13834">
        <ele>2367.38</ele>
        <time>2014-09-23T09:51:41Z</time>
      </trkpt>
      <trkpt lat="42.93104" lon="0.13835">
        <ele>2366.42</ele>
        <time>2014-09-23T09:51:42Z</time>
      </trkpt>
      <trkpt lat="42.931" lon="0.13843">
        <ele>2367.86</ele>
        <time>2014-09-23T09:51:48Z</time>
      </trkpt>
      <trkpt lat="42.93098" lon="0.13863">
        <ele>2369.31</ele>
        <time>2014-09-23T09:52:01Z</time>
      </trkpt>
      <trkpt lat="42.93103" lon="0.13887">
        <ele>2371.23</ele>
        <time>2014-09-23T09:52:19Z</time>
      </trkpt>
      <trkpt lat="42.93103" lon="0.13889">
        <ele>2371.23</ele>
        <time>2014-09-23T09:52:21Z</time>
      </trkpt>
      <trkpt lat="42.93102" lon="0.13892">
        <ele>2371.71</ele>
        <time>2014-09-23T09:52:23Z</time>
      </trkpt>
      <trkpt lat="42.93105" lon="0.13906">
        <ele>2373.15</ele>
        <time>2014-09-23T09:52:33Z</time>
      </trkpt>
      <trkpt lat="42.93109" lon="0.13912">
        <ele>2373.63</ele>
        <time>2014-09-23T09:52:38Z</time>
      </trkpt>
      <trkpt lat="42.9311" lon="0.13916">
        <ele>2374.11</ele>
        <time>2014-09-23T09:52:41Z</time>
      </trkpt>
      <trkpt lat="42.93117" lon="0.13925">
        <ele>2375.07</ele>
        <time>2014-09-23T09:52:50Z</time>
      </trkpt>
      <trkpt lat="42.93117" lon="0.13928">
        <ele>2375.55</ele>
        <time>2014-09-23T09:52:52Z</time>
      </trkpt>
      <trkpt lat="42.93124" lon="0.13939">
        <ele>2377</ele>
        <time>2014-09-23T09:53:04Z</time>
      </trkpt>
      <trkpt lat="42.93127" lon="0.13962">
        <ele>2378.92</ele>
        <time>2014-09-23T09:53:21Z</time>
      </trkpt>
      <trkpt lat="42.93132" lon="0.13985">
        <ele>2381.8</ele>
        <time>2014-09-23T09:53:38Z</time>
      </trkpt>
      <trkpt lat="42.93138" lon="0.14002">
        <ele>2383.73</ele>
        <time>2014-09-23T09:53:53Z</time>
      </trkpt>
      <trkpt lat="42.93138" lon="0.14005">
        <ele>2384.21</ele>
        <time>2014-09-23T09:53:55Z</time>
      </trkpt>
      <trkpt lat="42.93141" lon="0.14022">
        <ele>2385.65</ele>
        <time>2014-09-23T09:54:08Z</time>
      </trkpt>
      <trkpt lat="42.93144" lon="0.14043">
        <ele>2388.05</ele>
        <time>2014-09-23T09:54:24Z</time>
      </trkpt>
      <trkpt lat="42.93151" lon="0.14065">
        <ele>2389.97</ele>
        <time>2014-09-23T09:54:41Z</time>
      </trkpt>
      <trkpt lat="42.9316" lon="0.14084">
        <ele>2392.38</ele>
        <time>2014-09-23T09:54:56Z</time>
      </trkpt>
      <trkpt lat="42.93168" lon="0.14101">
        <ele>2394.78</ele>
        <time>2014-09-23T09:55:11Z</time>
      </trkpt>
      <trkpt lat="42.93171" lon="0.14112">
        <ele>2396.22</ele>
        <time>2014-09-23T09:55:20Z</time>
      </trkpt>
      <trkpt lat="42.93175" lon="0.14137">
        <ele>2398.63</ele>
        <time>2014-09-23T09:55:37Z</time>
      </trkpt>
      <trkpt lat="42.93177" lon="0.14156">
        <ele>2400.07</ele>
        <time>2014-09-23T09:55:51Z</time>
      </trkpt>
      <trkpt lat="42.9318" lon="0.14177">
        <ele>2401.99</ele>
        <time>2014-09-23T09:56:07Z</time>
      </trkpt>
      <trkpt lat="42.93184" lon="0.14197">
        <ele>2404.88</ele>
        <time>2014-09-23T09:56:25Z</time>
      </trkpt>
      <trkpt lat="42.93185" lon="0.14222">
        <ele>2406.8</ele>
        <time>2014-09-23T09:56:42Z</time>
      </trkpt>
      <trkpt lat="42.93181" lon="0.14241">
        <ele>2409.2</ele>
        <time>2014-09-23T09:56:59Z</time>
      </trkpt>
      <trkpt lat="42.9318" lon="0.14251">
        <ele>2410.16</ele>
        <time>2014-09-23T09:57:07Z</time>
      </trkpt>
      <trkpt lat="42.9318" lon="0.14269">
        <ele>2412.09</ele>
        <time>2014-09-23T09:57:21Z</time>
      </trkpt>
      <trkpt lat="42.93176" lon="0.14283">
        <ele>2411.12</ele>
        <time>2014-09-23T09:57:34Z</time>
      </trkpt>
      <trkpt lat="42.93177" lon="0.14296">
        <ele>2414.49</ele>
        <time>2014-09-23T09:57:45Z</time>
      </trkpt>
      <trkpt lat="42.93178" lon="0.14297">
        <ele>2414.49</ele>
        <time>2014-09-23T09:57:46Z</time>
      </trkpt>
      <trkpt lat="42.93181" lon="0.143">
        <ele>2414.97</ele>
        <time>2014-09-23T09:57:50Z</time>
      </trkpt>
      <trkpt lat="42.93193" lon="0.14289">
        <ele>2417.37</ele>
        <time>2014-09-23T09:58:05Z</time>
      </trkpt>
      <trkpt lat="42.93194" lon="0.14277">
        <ele>2418.33</ele>
        <time>2014-09-23T09:58:13Z</time>
      </trkpt>
      <trkpt lat="42.93194" lon="0.14271">
        <ele>2418.81</ele>
        <time>2014-09-23T09:58:17Z</time>
      </trkpt>
      <trkpt lat="42.93198" lon="0.14242">
        <ele>2420.74</ele>
        <time>2014-09-23T09:58:38Z</time>
      </trkpt>
      <trkpt lat="42.932" lon="0.14228">
        <ele>2422.18</ele>
        <time>2014-09-23T09:58:50Z</time>
      </trkpt>
      <trkpt lat="42.93203" lon="0.14211">
        <ele>2423.62</ele>
        <time>2014-09-23T09:59:04Z</time>
      </trkpt>
      <trkpt lat="42.93204" lon="0.1419">
        <ele>2426.02</ele>
        <time>2014-09-23T09:59:20Z</time>
      </trkpt>
      <trkpt lat="42.93208" lon="0.14174">
        <ele>2427.95</ele>
        <time>2014-09-23T09:59:34Z</time>
      </trkpt>
      <trkpt lat="42.93212" lon="0.14159">
        <ele>2429.87</ele>
        <time>2014-09-23T09:59:48Z</time>
      </trkpt>
      <trkpt lat="42.93215" lon="0.14139">
        <ele>2431.31</ele>
        <time>2014-09-23T10:00:03Z</time>
      </trkpt>
      <trkpt lat="42.93216" lon="0.1412">
        <ele>2433.23</ele>
        <time>2014-09-23T10:00:19Z</time>
      </trkpt>
      <trkpt lat="42.93216" lon="0.141">
        <ele>2435.64</ele>
        <time>2014-09-23T10:00:35Z</time>
      </trkpt>
      <trkpt lat="42.93216" lon="0.14082">
        <ele>2437.56</ele>
        <time>2014-09-23T10:00:51Z</time>
      </trkpt>
      <trkpt lat="42.93216" lon="0.14076">
        <ele>2438.52</ele>
        <time>2014-09-23T10:00:56Z</time>
      </trkpt>
      <trkpt lat="42.93216" lon="0.14054">
        <ele>2439.96</ele>
        <time>2014-09-23T10:01:13Z</time>
      </trkpt>
      <trkpt lat="42.93218" lon="0.14037">
        <ele>2442.37</ele>
        <time>2014-09-23T10:01:27Z</time>
      </trkpt>
      <trkpt lat="42.93218" lon="0.1402">
        <ele>2443.33</ele>
        <time>2014-09-23T10:01:41Z</time>
      </trkpt>
      <trkpt lat="42.93219" lon="0.14">
        <ele>2445.25</ele>
        <time>2014-09-23T10:01:56Z</time>
      </trkpt>
      <trkpt lat="42.93225" lon="0.13982">
        <ele>2446.69</ele>
        <time>2014-09-23T10:02:11Z</time>
      </trkpt>
      <trkpt lat="42.93233" lon="0.13966">
        <ele>2448.62</ele>
        <time>2014-09-23T10:02:27Z</time>
      </trkpt>
      <trkpt lat="42.93237" lon="0.13949">
        <ele>2450.06</ele>
        <time>2014-09-23T10:02:41Z</time>
      </trkpt>
      <trkpt lat="42.93241" lon="0.13933">
        <ele>2451.98</ele>
        <time>2014-09-23T10:02:54Z</time>
      </trkpt>
      <trkpt lat="42.93244" lon="0.13915">
        <ele>2453.42</ele>
        <time>2014-09-23T10:03:09Z</time>
      </trkpt>
      <trkpt lat="42.93246" lon="0.13895">
        <ele>2455.82</ele>
        <time>2014-09-23T10:03:23Z</time>
      </trkpt>
      <trkpt lat="42.93252" lon="0.13879">
        <ele>2457.75</ele>
        <time>2014-09-23T10:03:38Z</time>
      </trkpt>
      <trkpt lat="42.93252" lon="0.13875">
        <ele>2456.79</ele>
        <time>2014-09-23T10:03:55Z</time>
      </trkpt>
      <trkpt lat="42.93253" lon="0.13874">
        <ele>2460.63</ele>
        <time>2014-09-23T10:03:56Z</time>
      </trkpt>
      <trkpt lat="42.93253" lon="0.13874">
        <ele>2458.71</ele>
        <time>2014-09-23T10:03:57Z</time>
      </trkpt>
      <trkpt lat="42.93261" lon="0.13854">
        <ele>2460.63</ele>
        <time>2014-09-23T10:04:13Z</time>
      </trkpt>
      <trkpt lat="42.93262" lon="0.13854">
        <ele>2461.11</ele>
        <time>2014-09-23T10:04:15Z</time>
      </trkpt>
      <trkpt lat="42.93263" lon="0.13852">
        <ele>2461.11</ele>
        <time>2014-09-23T10:04:17Z</time>
      </trkpt>
      <trkpt lat="42.93269" lon="0.13836">
        <ele>2463.04</ele>
        <time>2014-09-23T10:04:32Z</time>
      </trkpt>
      <trkpt lat="42.93273" lon="0.13821">
        <ele>2464.96</ele>
        <time>2014-09-23T10:04:44Z</time>
      </trkpt>
      <trkpt lat="42.93274" lon="0.1382">
        <ele>2464.96</ele>
        <time>2014-09-23T10:04:45Z</time>
      </trkpt>
      <trkpt lat="42.93275" lon="0.13818">
        <ele>2464.96</ele>
        <time>2014-09-23T10:04:47Z</time>
      </trkpt>
      <trkpt lat="42.93276" lon="0.13816">
        <ele>2465.44</ele>
        <time>2014-09-23T10:04:49Z</time>
      </trkpt>
      <trkpt lat="42.93278" lon="0.13808">
        <ele>2466.4</ele>
        <time>2014-09-23T10:04:55Z</time>
      </trkpt>
      <trkpt lat="42.93283" lon="0.13788">
        <ele>2468.8</ele>
        <time>2014-09-23T10:05:11Z</time>
      </trkpt>
      <trkpt lat="42.93283" lon="0.13766">
        <ele>2470.73</ele>
        <time>2014-09-23T10:05:26Z</time>
      </trkpt>
      <trkpt lat="42.9328" lon="0.13746">
        <ele>2472.65</ele>
        <time>2014-09-23T10:05:41Z</time>
      </trkpt>
      <trkpt lat="42.9328" lon="0.13744">
        <ele>2472.65</ele>
        <time>2014-09-23T10:05:42Z</time>
      </trkpt>
      <trkpt lat="42.93282" lon="0.13738">
        <ele>2473.61</ele>
        <time>2014-09-23T10:05:48Z</time>
      </trkpt>
      <trkpt lat="42.93295" lon="0.13737">
        <ele>2475.05</ele>
        <time>2014-09-23T10:06:03Z</time>
      </trkpt>
      <trkpt lat="42.93296" lon="0.1374">
        <ele>2475.05</ele>
        <time>2014-09-23T10:06:05Z</time>
      </trkpt>
      <trkpt lat="42.93294" lon="0.1375">
        <ele>2475.53</ele>
        <time>2014-09-23T10:06:11Z</time>
      </trkpt>
      <trkpt lat="42.93293" lon="0.13773">
        <ele>2477.45</ele>
        <time>2014-09-23T10:06:27Z</time>
      </trkpt>
      <trkpt lat="42.93294" lon="0.13775">
        <ele>2477.45</ele>
        <time>2014-09-23T10:06:29Z</time>
      </trkpt>
      <trkpt lat="42.93296" lon="0.13802">
        <ele>2479.86</ele>
        <time>2014-09-23T10:06:46Z</time>
      </trkpt>
      <trkpt lat="42.93297" lon="0.13827">
        <ele>2482.26</ele>
        <time>2014-09-23T10:07:02Z</time>
      </trkpt>
      <trkpt lat="42.93298" lon="0.13846">
        <ele>2484.18</ele>
        <time>2014-09-23T10:07:14Z</time>
      </trkpt>
      <trkpt lat="42.933" lon="0.13868">
        <ele>2485.63</ele>
        <time>2014-09-23T10:07:29Z</time>
      </trkpt>
      <trkpt lat="42.933" lon="0.13887">
        <ele>2487.55</ele>
        <time>2014-09-23T10:07:42Z</time>
      </trkpt>
      <trkpt lat="42.93302" lon="0.13914">
        <ele>2490.43</ele>
        <time>2014-09-23T10:07:59Z</time>
      </trkpt>
      <trkpt lat="42.93303" lon="0.13936">
        <ele>2492.84</ele>
        <time>2014-09-23T10:08:15Z</time>
      </trkpt>
      <trkpt lat="42.93303" lon="0.13957">
        <ele>2495.24</ele>
        <time>2014-09-23T10:08:30Z</time>
      </trkpt>
      <trkpt lat="42.93301" lon="0.13982">
        <ele>2497.64</ele>
        <time>2014-09-23T10:08:48Z</time>
      </trkpt>
      <trkpt lat="42.93301" lon="0.14005">
        <ele>2499.57</ele>
        <time>2014-09-23T10:09:03Z</time>
      </trkpt>
      <trkpt lat="42.93301" lon="0.1403">
        <ele>2502.45</ele>
        <time>2014-09-23T10:09:20Z</time>
      </trkpt>
      <trkpt lat="42.93298" lon="0.14056">
        <ele>2504.37</ele>
        <time>2014-09-23T10:09:36Z</time>
      </trkpt>
      <trkpt lat="42.93291" lon="0.14068">
        <ele>2506.77</ele>
        <time>2014-09-23T10:09:47Z</time>
      </trkpt>
      <trkpt lat="42.93293" lon="0.14076">
        <ele>2507.26</ele>
        <time>2014-09-23T10:09:52Z</time>
      </trkpt>
      <trkpt lat="42.93304" lon="0.14086">
        <ele>2509.66</ele>
        <time>2014-09-23T10:10:07Z</time>
      </trkpt>
      <trkpt lat="42.9331" lon="0.14064">
        <ele>2511.58</ele>
        <time>2014-09-23T10:10:22Z</time>
      </trkpt>
      <trkpt lat="42.93314" lon="0.14042">
        <ele>2513.5</ele>
        <time>2014-09-23T10:10:37Z</time>
      </trkpt>
      <trkpt lat="42.93319" lon="0.14019">
        <ele>2515.43</ele>
        <time>2014-09-23T10:10:52Z</time>
      </trkpt>
      <trkpt lat="42.93325" lon="0.14001">
        <ele>2517.83</ele>
        <time>2014-09-23T10:11:04Z</time>
      </trkpt>
      <trkpt lat="42.93332" lon="0.1398">
        <ele>2519.75</ele>
        <time>2014-09-23T10:11:19Z</time>
      </trkpt>
      <trkpt lat="42.93338" lon="0.1396">
        <ele>2521.68</ele>
        <time>2014-09-23T10:11:33Z</time>
      </trkpt>
      <trkpt lat="42.93345" lon="0.1394">
        <ele>2524.56</ele>
        <time>2014-09-23T10:11:48Z</time>
      </trkpt>
      <trkpt lat="42.93348" lon="0.13921">
        <ele>2526.48</ele>
        <time>2014-09-23T10:12:01Z</time>
      </trkpt>
      <trkpt lat="42.93349" lon="0.13899">
        <ele>2528.89</ele>
        <time>2014-09-23T10:12:17Z</time>
      </trkpt>
      <trkpt lat="42.93353" lon="0.13878">
        <ele>2530.81</ele>
        <time>2014-09-23T10:12:32Z</time>
      </trkpt>
      <trkpt lat="42.93356" lon="0.13857">
        <ele>2532.73</ele>
        <time>2014-09-23T10:12:46Z</time>
      </trkpt>
      <trkpt lat="42.93359" lon="0.13839">
        <ele>2534.65</ele>
        <time>2014-09-23T10:12:59Z</time>
      </trkpt>
      <trkpt lat="42.93363" lon="0.13816">
        <ele>2537.06</ele>
        <time>2014-09-23T10:13:15Z</time>
      </trkpt>
      <trkpt lat="42.93368" lon="0.13795">
        <ele>2538.5</ele>
        <time>2014-09-23T10:13:29Z</time>
      </trkpt>
      <trkpt lat="42.9337" lon="0.13773">
        <ele>2540.42</ele>
        <time>2014-09-23T10:13:44Z</time>
      </trkpt>
      <trkpt lat="42.9337" lon="0.13754">
        <ele>2542.34</ele>
        <time>2014-09-23T10:13:57Z</time>
      </trkpt>
      <trkpt lat="42.93368" lon="0.13732">
        <ele>2544.75</ele>
        <time>2014-09-23T10:14:11Z</time>
      </trkpt>
      <trkpt lat="42.93368" lon="0.13711">
        <ele>2546.67</ele>
        <time>2014-09-23T10:14:25Z</time>
      </trkpt>
      <trkpt lat="42.93369" lon="0.13691">
        <ele>2548.59</ele>
        <time>2014-09-23T10:14:38Z</time>
      </trkpt>
      <trkpt lat="42.93377" lon="0.13674">
        <ele>2550.51</ele>
        <time>2014-09-23T10:14:52Z</time>
      </trkpt>
      <trkpt lat="42.93383" lon="0.13658">
        <ele>2552.44</ele>
        <time>2014-09-23T10:15:04Z</time>
      </trkpt>
      <trkpt lat="42.93387" lon="0.13638">
        <ele>2554.84</ele>
        <time>2014-09-23T10:15:19Z</time>
      </trkpt>
      <trkpt lat="42.9339" lon="0.13615">
        <ele>2556.76</ele>
        <time>2014-09-23T10:15:34Z</time>
      </trkpt>
      <trkpt lat="42.93393" lon="0.13595">
        <ele>2558.69</ele>
        <time>2014-09-23T10:15:48Z</time>
      </trkpt>
      <trkpt lat="42.93391" lon="0.13579">
        <ele>2560.13</ele>
        <time>2014-09-23T10:15:59Z</time>
      </trkpt>
      <trkpt lat="42.93391" lon="0.13575">
        <ele>2560.61</ele>
        <time>2014-09-23T10:16:02Z</time>
      </trkpt>
      <trkpt lat="42.93389" lon="0.13569">
        <ele>2561.09</ele>
        <time>2014-09-23T10:16:06Z</time>
      </trkpt>
      <trkpt lat="42.93389" lon="0.13566">
        <ele>2561.57</ele>
        <time>2014-09-23T10:16:08Z</time>
      </trkpt>
      <trkpt lat="42.93389" lon="0.13561">
        <ele>2562.05</ele>
        <time>2014-09-23T10:16:12Z</time>
      </trkpt>
      <trkpt lat="42.93393" lon="0.13553">
        <ele>2563.01</ele>
        <time>2014-09-23T10:16:20Z</time>
      </trkpt>
      <trkpt lat="42.93393" lon="0.1355">
        <ele>2563.49</ele>
        <time>2014-09-23T10:16:22Z</time>
      </trkpt>
      <trkpt lat="42.93396" lon="0.13534">
        <ele>2565.42</ele>
        <time>2014-09-23T10:16:34Z</time>
      </trkpt>
      <trkpt lat="42.93399" lon="0.13514">
        <ele>2567.34</ele>
        <time>2014-09-23T10:16:48Z</time>
      </trkpt>
      <trkpt lat="42.93398" lon="0.13492">
        <ele>2569.26</ele>
        <time>2014-09-23T10:17:03Z</time>
      </trkpt>
      <trkpt lat="42.93397" lon="0.13477">
        <ele>2570.7</ele>
        <time>2014-09-23T10:17:14Z</time>
      </trkpt>
      <trkpt lat="42.93396" lon="0.13469">
        <ele>2571.66</ele>
        <time>2014-09-23T10:17:20Z</time>
      </trkpt>
      <trkpt lat="42.93397" lon="0.13447">
        <ele>2574.07</ele>
        <time>2014-09-23T10:17:35Z</time>
      </trkpt>
      <trkpt lat="42.93408" lon="0.13436">
        <ele>2575.51</ele>
        <time>2014-09-23T10:17:49Z</time>
      </trkpt>
      <trkpt lat="42.9341" lon="0.13438">
        <ele>2575.51</ele>
        <time>2014-09-23T10:17:51Z</time>
      </trkpt>
      <trkpt lat="42.93416" lon="0.13445">
        <ele>2576.47</ele>
        <time>2014-09-23T10:17:59Z</time>
      </trkpt>
      <trkpt lat="42.93417" lon="0.1345">
        <ele>2576.95</ele>
        <time>2014-09-23T10:18:03Z</time>
      </trkpt>
      <trkpt lat="42.93412" lon="0.13476">
        <ele>2579.35</ele>
        <time>2014-09-23T10:18:21Z</time>
      </trkpt>
      <trkpt lat="42.93412" lon="0.13484">
        <ele>2580.32</ele>
        <time>2014-09-23T10:18:26Z</time>
      </trkpt>
      <trkpt lat="42.93413" lon="0.13493">
        <ele>2580.8</ele>
        <time>2014-09-23T10:18:31Z</time>
      </trkpt>
      <trkpt lat="42.93417" lon="0.13515">
        <ele>2582.72</ele>
        <time>2014-09-23T10:18:47Z</time>
      </trkpt>
      <trkpt lat="42.93415" lon="0.1354">
        <ele>2585.12</ele>
        <time>2014-09-23T10:19:04Z</time>
      </trkpt>
      <trkpt lat="42.93418" lon="0.13569">
        <ele>2588.01</ele>
        <time>2014-09-23T10:19:23Z</time>
      </trkpt>
      <trkpt lat="42.93421" lon="0.13592">
        <ele>2589.93</ele>
        <time>2014-09-23T10:19:39Z</time>
      </trkpt>
      <trkpt lat="42.9342" lon="0.13605">
        <ele>2591.37</ele>
        <time>2014-09-23T10:19:48Z</time>
      </trkpt>
      <trkpt lat="42.93419" lon="0.13612">
        <ele>2592.33</ele>
        <time>2014-09-23T10:19:53Z</time>
      </trkpt>
      <trkpt lat="42.9342" lon="0.13631">
        <ele>2594.25</ele>
        <time>2014-09-23T10:20:05Z</time>
      </trkpt>
      <trkpt lat="42.93423" lon="0.13656">
        <ele>2596.66</ele>
        <time>2014-09-23T10:20:22Z</time>
      </trkpt>
      <trkpt lat="42.93428" lon="0.13673">
        <ele>2598.58</ele>
        <time>2014-09-23T10:20:36Z</time>
      </trkpt>
      <trkpt lat="42.9344" lon="0.13696">
        <ele>2600.98</ele>
        <time>2014-09-23T10:20:55Z</time>
      </trkpt>
      <trkpt lat="42.93451" lon="0.13711">
        <ele>2602.43</ele>
        <time>2014-09-23T10:21:11Z</time>
      </trkpt>
      <trkpt lat="42.93456" lon="0.13705">
        <ele>2603.39</ele>
        <time>2014-09-23T10:21:17Z</time>
      </trkpt>
      <trkpt lat="42.93458" lon="0.13699">
        <ele>2603.39</ele>
        <time>2014-09-23T10:21:22Z</time>
      </trkpt>
      <trkpt lat="42.93456" lon="0.13682">
        <ele>2604.83</ele>
        <time>2014-09-23T10:21:33Z</time>
      </trkpt>
      <trkpt lat="42.93445" lon="0.13671">
        <ele>2605.31</ele>
        <time>2014-09-23T10:21:50Z</time>
      </trkpt>
      <trkpt lat="42.93442" lon="0.13668">
        <ele>2605.31</ele>
        <time>2014-09-23T10:21:54Z</time>
      </trkpt>
      <trkpt lat="42.93441" lon="0.13665">
        <ele>2607.71</ele>
        <time>2014-09-23T10:21:56Z</time>
      </trkpt>
      <trkpt lat="42.9344" lon="0.13665">
        <ele>2607.71</ele>
        <time>2014-09-23T10:21:57Z</time>
      </trkpt>
      <trkpt lat="42.93432" lon="0.13636">
        <ele>2610.12</ele>
        <time>2014-09-23T10:22:15Z</time>
      </trkpt>
      <trkpt lat="42.93436" lon="0.13611">
        <ele>2613</ele>
        <time>2014-09-23T10:22:32Z</time>
      </trkpt>
      <trkpt lat="42.93438" lon="0.13605">
        <ele>2613.48</ele>
        <time>2014-09-23T10:22:37Z</time>
      </trkpt>
      <trkpt lat="42.93441" lon="0.13586">
        <ele>2615.4</ele>
        <time>2014-09-23T10:22:51Z</time>
      </trkpt>
      <trkpt lat="42.93448" lon="0.13569">
        <ele>2617.81</ele>
        <time>2014-09-23T10:23:06Z</time>
      </trkpt>
      <trkpt lat="42.9345" lon="0.13566">
        <ele>2618.29</ele>
        <time>2014-09-23T10:23:09Z</time>
      </trkpt>
      <trkpt lat="42.93459" lon="0.13558">
        <ele>2619.73</ele>
        <time>2014-09-23T10:23:20Z</time>
      </trkpt>
      <trkpt lat="42.93472" lon="0.13557">
        <ele>2621.17</ele>
        <time>2014-09-23T10:23:32Z</time>
      </trkpt>
      <trkpt lat="42.93479" lon="0.13555">
        <ele>2622.13</ele>
        <time>2014-09-23T10:23:39Z</time>
      </trkpt>
      <trkpt lat="42.93481" lon="0.13554">
        <ele>2622.13</ele>
        <time>2014-09-23T10:23:41Z</time>
      </trkpt>
      <trkpt lat="42.93494" lon="0.13542">
        <ele>2625.02</ele>
        <time>2014-09-23T10:23:57Z</time>
      </trkpt>
      <trkpt lat="42.93509" lon="0.13534">
        <ele>2627.42</ele>
        <time>2014-09-23T10:24:12Z</time>
      </trkpt>
      <trkpt lat="42.93512" lon="0.13532">
        <ele>2627.9</ele>
        <time>2014-09-23T10:24:15Z</time>
      </trkpt>
      <trkpt lat="42.93517" lon="0.13529">
        <ele>2628.38</ele>
        <time>2014-09-23T10:24:20Z</time>
      </trkpt>
      <trkpt lat="42.93524" lon="0.1352">
        <ele>2628.86</ele>
        <time>2014-09-23T10:24:28Z</time>
      </trkpt>
      <trkpt lat="42.93534" lon="0.13512">
        <ele>2630.3</ele>
        <time>2014-09-23T10:24:38Z</time>
      </trkpt>
      <trkpt lat="42.93547" lon="0.13506">
        <ele>2632.23</ele>
        <time>2014-09-23T10:24:52Z</time>
      </trkpt>
      <trkpt lat="42.93553" lon="0.13507">
        <ele>2633.19</ele>
        <time>2014-09-23T10:24:58Z</time>
      </trkpt>
      <trkpt lat="42.93564" lon="0.13523">
        <ele>2636.07</ele>
        <time>2014-09-23T10:25:13Z</time>
      </trkpt>
      <trkpt lat="42.93566" lon="0.13542">
        <ele>2637.99</ele>
        <time>2014-09-23T10:25:27Z</time>
      </trkpt>
      <trkpt lat="42.93567" lon="0.13549">
        <ele>2637.99</ele>
        <time>2014-09-23T10:25:33Z</time>
      </trkpt>
      <trkpt lat="42.93574" lon="0.13567">
        <ele>2640.4</ele>
        <time>2014-09-23T10:25:49Z</time>
      </trkpt>
      <trkpt lat="42.9358" lon="0.13575">
        <ele>2643.28</ele>
        <time>2014-09-23T10:26:02Z</time>
      </trkpt>
      <trkpt lat="42.93584" lon="0.13587">
        <ele>2646.65</ele>
        <time>2014-09-23T10:26:17Z</time>
      </trkpt>
      <trkpt lat="42.93591" lon="0.13593">
        <ele>2649.53</ele>
        <time>2014-09-23T10:26:32Z</time>
      </trkpt>
      <trkpt lat="42.93595" lon="0.13602">
        <ele>2652.42</ele>
        <time>2014-09-23T10:26:46Z</time>
      </trkpt>
      <trkpt lat="42.93599" lon="0.13608">
        <ele>2655.78</ele>
        <time>2014-09-23T10:27:02Z</time>
      </trkpt>
      <trkpt lat="42.93605" lon="0.13606">
        <ele>2657.7</ele>
        <time>2014-09-23T10:27:16Z</time>
      </trkpt>
      <trkpt lat="42.93613" lon="0.13605">
        <ele>2661.07</ele>
        <time>2014-09-23T10:27:31Z</time>
      </trkpt>
      <trkpt lat="42.93616" lon="0.13613">
        <ele>2663.47</ele>
        <time>2014-09-23T10:27:45Z</time>
      </trkpt>
      <trkpt lat="42.93619" lon="0.13623">
        <ele>2666.35</ele>
        <time>2014-09-23T10:27:59Z</time>
      </trkpt>
      <trkpt lat="42.93622" lon="0.13631">
        <ele>2669.72</ele>
        <time>2014-09-23T10:28:15Z</time>
      </trkpt>
      <trkpt lat="42.93624" lon="0.1364">
        <ele>2672.6</ele>
        <time>2014-09-23T10:28:30Z</time>
      </trkpt>
      <trkpt lat="42.93626" lon="0.13632">
        <ele>2673.08</ele>
        <time>2014-09-23T10:28:48Z</time>
      </trkpt>
      <trkpt lat="42.93634" lon="0.13629">
        <ele>2675.49</ele>
        <time>2014-09-23T10:29:01Z</time>
      </trkpt>
      <trkpt lat="42.93637" lon="0.13646">
        <ele>2677.89</ele>
        <time>2014-09-23T10:29:15Z</time>
      </trkpt>
      <trkpt lat="42.93635" lon="0.1366">
        <ele>2681.25</ele>
        <time>2014-09-23T10:29:30Z</time>
      </trkpt>
      <trkpt lat="42.93636" lon="0.13672">
        <ele>2684.62</ele>
        <time>2014-09-23T10:29:45Z</time>
      </trkpt>
      <trkpt lat="42.93634" lon="0.13688">
        <ele>2687.5</ele>
        <time>2014-09-23T10:30:02Z</time>
      </trkpt>
      <trkpt lat="42.93631" lon="0.13701">
        <ele>2690.39</ele>
        <time>2014-09-23T10:30:17Z</time>
      </trkpt>
      <trkpt lat="42.93631" lon="0.13713">
        <ele>2693.75</ele>
        <time>2014-09-23T10:30:32Z</time>
      </trkpt>
      <trkpt lat="42.93628" lon="0.13724">
        <ele>2695.67</ele>
        <time>2014-09-23T10:30:45Z</time>
      </trkpt>
      <trkpt lat="42.93627" lon="0.13738">
        <ele>2698.56</ele>
        <time>2014-09-23T10:31:01Z</time>
      </trkpt>
      <trkpt lat="42.93627" lon="0.13749">
        <ele>2700.48</ele>
        <time>2014-09-23T10:31:16Z</time>
      </trkpt>
      <trkpt lat="42.93628" lon="0.13759">
        <ele>2703.36</ele>
        <time>2014-09-23T10:31:28Z</time>
      </trkpt>
      <trkpt lat="42.93627" lon="0.13771">
        <ele>2706.25</ele>
        <time>2014-09-23T10:31:43Z</time>
      </trkpt>
      <trkpt lat="42.93627" lon="0.13784">
        <ele>2709.13</ele>
        <time>2014-09-23T10:31:59Z</time>
      </trkpt>
      <trkpt lat="42.93627" lon="0.13795">
        <ele>2712.5</ele>
        <time>2014-09-23T10:32:13Z</time>
      </trkpt>
      <trkpt lat="42.93628" lon="0.13805">
        <ele>2715.38</ele>
        <time>2014-09-23T10:32:29Z</time>
      </trkpt>
      <trkpt lat="42.93638" lon="0.13795">
        <ele>2717.3</ele>
        <time>2014-09-23T10:32:43Z</time>
      </trkpt>
      <trkpt lat="42.93647" lon="0.13787">
        <ele>2720.19</ele>
        <time>2014-09-23T10:32:59Z</time>
      </trkpt>
      <trkpt lat="42.93656" lon="0.13778">
        <ele>2722.59</ele>
        <time>2014-09-23T10:33:13Z</time>
      </trkpt>
      <trkpt lat="42.93666" lon="0.13771">
        <ele>2724.99</ele>
        <time>2014-09-23T10:33:28Z</time>
      </trkpt>
      <trkpt lat="42.93667" lon="0.13785">
        <ele>2727.4</ele>
        <time>2014-09-23T10:33:41Z</time>
      </trkpt>
      <trkpt lat="42.93665" lon="0.13789">
        <ele>2728.36</ele>
        <time>2014-09-23T10:33:46Z</time>
      </trkpt>
      <trkpt lat="42.9366" lon="0.13804">
        <ele>2730.28</ele>
        <time>2014-09-23T10:34:00Z</time>
      </trkpt>
      <trkpt lat="42.93656" lon="0.13818">
        <ele>2732.2</ele>
        <time>2014-09-23T10:34:14Z</time>
      </trkpt>
      <trkpt lat="42.93653" lon="0.13829">
        <ele>2734.61</ele>
        <time>2014-09-23T10:34:27Z</time>
      </trkpt>
      <trkpt lat="42.93659" lon="0.13834">
        <ele>2736.05</ele>
        <time>2014-09-23T10:34:41Z</time>
      </trkpt>
      <trkpt lat="42.93666" lon="0.13827">
        <ele>2738.45</ele>
        <time>2014-09-23T10:34:53Z</time>
      </trkpt>
      <trkpt lat="42.93676" lon="0.13821">
        <ele>2740.86</ele>
        <time>2014-09-23T10:35:08Z</time>
      </trkpt>
      <trkpt lat="42.93684" lon="0.13811">
        <ele>2743.26</ele>
        <time>2014-09-23T10:35:22Z</time>
      </trkpt>
      <trkpt lat="42.93689" lon="0.13821">
        <ele>2745.66</ele>
        <time>2014-09-23T10:35:35Z</time>
      </trkpt>
      <trkpt lat="42.93683" lon="0.13834">
        <ele>2748.55</ele>
        <time>2014-09-23T10:35:51Z</time>
      </trkpt>
      <trkpt lat="42.9368" lon="0.13844">
        <ele>2749.99</ele>
        <time>2014-09-23T10:36:05Z</time>
      </trkpt>
      <trkpt lat="42.93675" lon="0.1386">
        <ele>2752.87</ele>
        <time>2014-09-23T10:36:23Z</time>
      </trkpt>
      <trkpt lat="42.93669" lon="0.13873">
        <ele>2754.8</ele>
        <time>2014-09-23T10:36:37Z</time>
      </trkpt>
      <trkpt lat="42.93668" lon="0.13888">
        <ele>2757.2</ele>
        <time>2014-09-23T10:36:52Z</time>
      </trkpt>
      <trkpt lat="42.93665" lon="0.13903">
        <ele>2759.12</ele>
        <time>2014-09-23T10:37:06Z</time>
      </trkpt>
      <trkpt lat="42.9366" lon="0.13919">
        <ele>2761.52</ele>
        <time>2014-09-23T10:37:21Z</time>
      </trkpt>
      <trkpt lat="42.93656" lon="0.13936">
        <ele>2764.89</ele>
        <time>2014-09-23T10:37:37Z</time>
      </trkpt>
      <trkpt lat="42.93654" lon="0.13948">
        <ele>2766.33</ele>
        <time>2014-09-23T10:37:50Z</time>
      </trkpt>
      <trkpt lat="42.93652" lon="0.13959">
        <ele>2769.7</ele>
        <time>2014-09-23T10:38:04Z</time>
      </trkpt>
      <trkpt lat="42.93652" lon="0.13969">
        <ele>2772.58</ele>
        <time>2014-09-23T10:38:20Z</time>
      </trkpt>
      <trkpt lat="42.9366" lon="0.13964">
        <ele>2774.5</ele>
        <time>2014-09-23T10:38:32Z</time>
      </trkpt>
      <trkpt lat="42.93667" lon="0.13954">
        <ele>2776.42</ele>
        <time>2014-09-23T10:38:46Z</time>
      </trkpt>
      <trkpt lat="42.93673" lon="0.13946">
        <ele>2777.87</ele>
        <time>2014-09-23T10:38:59Z</time>
      </trkpt>
      <trkpt lat="42.93681" lon="0.13939">
        <ele>2780.75</ele>
        <time>2014-09-23T10:39:15Z</time>
      </trkpt>
      <trkpt lat="42.93687" lon="0.13931">
        <ele>2782.19</ele>
        <time>2014-09-23T10:39:29Z</time>
      </trkpt>
      <trkpt lat="42.93694" lon="0.13926">
        <ele>2784.6</ele>
        <time>2014-09-23T10:39:43Z</time>
      </trkpt>
      <trkpt lat="42.93696" lon="0.13923">
        <ele>2785.08</ele>
        <time>2014-09-23T10:39:47Z</time>
      </trkpt>
      <trkpt lat="42.93704" lon="0.13927">
        <ele>2787.48</ele>
        <time>2014-09-23T10:40:01Z</time>
      </trkpt>
      <trkpt lat="42.93702" lon="0.13943">
        <ele>2789.88</ele>
        <time>2014-09-23T10:40:16Z</time>
      </trkpt>
      <trkpt lat="42.937" lon="0.13955">
        <ele>2793.25</ele>
        <time>2014-09-23T10:40:32Z</time>
      </trkpt>
      <trkpt lat="42.93697" lon="0.13963">
        <ele>2795.17</ele>
        <time>2014-09-23T10:40:46Z</time>
      </trkpt>
      <trkpt lat="42.93698" lon="0.13972">
        <ele>2797.09</ele>
        <time>2014-09-23T10:41:00Z</time>
      </trkpt>
      <trkpt lat="42.937" lon="0.1398">
        <ele>2799.5</ele>
        <time>2014-09-23T10:41:14Z</time>
      </trkpt>
      <trkpt lat="42.93696" lon="0.1399">
        <ele>2801.9</ele>
        <time>2014-09-23T10:41:29Z</time>
      </trkpt>
      <trkpt lat="42.93694" lon="0.13999">
        <ele>2804.3</ele>
        <time>2014-09-23T10:41:44Z</time>
      </trkpt>
      <trkpt lat="42.93693" lon="0.14007">
        <ele>2806.71</ele>
        <time>2014-09-23T10:42:02Z</time>
      </trkpt>
      <trkpt lat="42.93694" lon="0.14008">
        <ele>2807.19</ele>
        <time>2014-09-23T10:42:08Z</time>
      </trkpt>
      <trkpt lat="42.93704" lon="0.14">
        <ele>2809.59</ele>
        <time>2014-09-23T10:42:22Z</time>
      </trkpt>
      <trkpt lat="42.93711" lon="0.13996">
        <ele>2811.51</ele>
        <time>2014-09-23T10:42:34Z</time>
      </trkpt>
      <trkpt lat="42.93717" lon="0.13991">
        <ele>2813.92</ele>
        <time>2014-09-23T10:42:48Z</time>
      </trkpt>
      <trkpt lat="42.93719" lon="0.13998">
        <ele>2815.84</ele>
        <time>2014-09-23T10:43:02Z</time>
      </trkpt>
      <trkpt lat="42.93714" lon="0.14008">
        <ele>2818.72</ele>
        <time>2014-09-23T10:43:18Z</time>
      </trkpt>
      <trkpt lat="42.93711" lon="0.14018">
        <ele>2821.13</ele>
        <time>2014-09-23T10:43:33Z</time>
      </trkpt>
      <trkpt lat="42.9371" lon="0.14025">
        <ele>2823.53</ele>
        <time>2014-09-23T10:43:46Z</time>
      </trkpt>
      <trkpt lat="42.93709" lon="0.14033">
        <ele>2825.45</ele>
        <time>2014-09-23T10:44:00Z</time>
      </trkpt>
      <trkpt lat="42.9371" lon="0.14037">
        <ele>2826.89</ele>
        <time>2014-09-23T10:44:15Z</time>
      </trkpt>
      <trkpt lat="42.93715" lon="0.1404">
        <ele>2828.34</ele>
        <time>2014-09-23T10:44:31Z</time>
      </trkpt>
      <trkpt lat="42.93722" lon="0.14027">
        <ele>2829.78</ele>
        <time>2014-09-23T10:44:43Z</time>
      </trkpt>
      <trkpt lat="42.93728" lon="0.14019">
        <ele>2829.3</ele>
        <time>2014-09-23T10:44:56Z</time>
      </trkpt>
      <trkpt lat="42.93735" lon="0.14013">
        <ele>2829.78</ele>
        <time>2014-09-23T10:45:08Z</time>
      </trkpt>
      <trkpt lat="42.93741" lon="0.14014">
        <ele>2829.3</ele>
        <time>2014-09-23T10:45:19Z</time>
      </trkpt>
      <trkpt lat="42.93741" lon="0.14">
        <ele>2830.74</ele>
        <time>2014-09-23T10:45:30Z</time>
      </trkpt>
      <trkpt lat="42.93745" lon="0.13985">
        <ele>2829.3</ele>
        <time>2014-09-23T10:45:42Z</time>
      </trkpt>
      <trkpt lat="42.93752" lon="0.13971">
        <ele>2829.3</ele>
        <time>2014-09-23T10:45:59Z</time>
      </trkpt>
      <trkpt lat="42.93748" lon="0.13974">
        <ele>2829.78</ele>
        <time>2014-09-23T10:46:13Z</time>
      </trkpt>
      <trkpt lat="42.93749" lon="0.13975">
        <ele>2829.78</ele>
        <time>2014-09-23T10:46:32Z</time>
      </trkpt>
      <trkpt lat="42.93747" lon="0.1398">
        <ele>2829.78</ele>
        <time>2014-09-23T10:46:36Z</time>
      </trkpt>
      <trkpt lat="42.93736" lon="0.14002">
        <ele>2830.26</ele>
        <time>2014-09-23T10:46:52Z</time>
      </trkpt>
      <trkpt lat="42.93725" lon="0.1402">
        <ele>2830.26</ele>
        <time>2014-09-23T10:47:06Z</time>
      </trkpt>
      <trkpt lat="42.93723" lon="0.14022">
        <ele>2829.78</ele>
        <time>2014-09-23T10:47:09Z</time>
      </trkpt>
      <trkpt lat="42.93719" lon="0.1403">
        <ele>2830.26</ele>
        <time>2014-09-23T10:47:15Z</time>
      </trkpt>
      <trkpt lat="42.93717" lon="0.14031">
        <ele>2829.78</ele>
        <time>2014-09-23T10:47:17Z</time>
      </trkpt>
      <trkpt lat="42.93713" lon="0.14035">
        <ele>2829.78</ele>
        <time>2014-09-23T10:47:22Z</time>
      </trkpt>
      <trkpt lat="42.93707" lon="0.1405">
        <ele>2832.66</ele>
        <time>2014-09-23T10:47:37Z</time>
      </trkpt>
      <trkpt lat="42.93707" lon="0.14061">
        <ele>2835.55</ele>
        <time>2014-09-23T10:47:49Z</time>
      </trkpt>
      <trkpt lat="42.93703" lon="0.14063">
        <ele>2836.99</ele>
        <time>2014-09-23T10:48:03Z</time>
      </trkpt>
      <trkpt lat="42.93701" lon="0.14068">
        <ele>2838.43</ele>
        <time>2014-09-23T10:48:17Z</time>
      </trkpt>
      <trkpt lat="42.93698" lon="0.14077">
        <ele>2840.83</ele>
        <time>2014-09-23T10:48:31Z</time>
      </trkpt>
      <trkpt lat="42.93702" lon="0.14087">
        <ele>2843.72</ele>
        <time>2014-09-23T10:48:46Z</time>
      </trkpt>
      <trkpt lat="42.93699" lon="0.14092">
        <ele>2845.16</ele>
        <time>2014-09-23T10:48:59Z</time>
      </trkpt>
      <trkpt lat="42.93696" lon="0.14099">
        <ele>2848.04</ele>
        <time>2014-09-23T10:49:14Z</time>
      </trkpt>
      <trkpt lat="42.93691" lon="0.14099">
        <ele>2849.97</ele>
        <time>2014-09-23T10:49:29Z</time>
      </trkpt>
      <trkpt lat="42.93688" lon="0.14105">
        <ele>2851.41</ele>
        <time>2014-09-23T10:49:43Z</time>
      </trkpt>
      <trkpt lat="42.93688" lon="0.14116">
        <ele>2854.29</ele>
        <time>2014-09-23T10:49:58Z</time>
      </trkpt>
      <trkpt lat="42.93685" lon="0.14123">
        <ele>2857.18</ele>
        <time>2014-09-23T10:50:13Z</time>
      </trkpt>
      <trkpt lat="42.93682" lon="0.14129">
        <ele>2857.66</ele>
        <time>2014-09-23T10:50:26Z</time>
      </trkpt>
      <trkpt lat="42.93681" lon="0.14126">
        <ele>2858.14</ele>
        <time>2014-09-23T10:50:39Z</time>
      </trkpt>
      <trkpt lat="42.93681" lon="0.14126">
        <ele>2858.14</ele>
        <time>2014-09-23T10:50:41Z</time>
      </trkpt>
      <trkpt lat="42.93684" lon="0.14122">
        <ele>2857.18</ele>
        <time>2014-09-23T10:50:51Z</time>
      </trkpt>
      <trkpt lat="42.93692" lon="0.14125">
        <ele>2857.18</ele>
        <time>2014-09-23T10:51:29Z</time>
      </trkpt>
      <trkpt lat="42.93689" lon="0.14125">
        <ele>2857.18</ele>
        <time>2014-09-23T10:51:44Z</time>
      </trkpt>
      <trkpt lat="42.93685" lon="0.14125">
        <ele>2857.18</ele>
        <time>2014-09-23T10:52:25Z</time>
      </trkpt>
      <trkpt lat="42.9369" lon="0.14124">
        <ele>2857.18</ele>
        <time>2014-09-23T10:52:51Z</time>
      </trkpt>
      <trkpt lat="42.93685" lon="0.14125">
        <ele>2857.66</ele>
        <time>2014-09-23T10:53:09Z</time>
      </trkpt>
      <trkpt lat="42.93685" lon="0.14127">
        <ele>2858.62</ele>
        <time>2014-09-23T10:53:33Z</time>
      </trkpt>
      <trkpt lat="42.93686" lon="0.14131">
        <ele>2858.62</ele>
        <time>2014-09-23T10:53:46Z</time>
      </trkpt>
      <trkpt lat="42.93684" lon="0.14128">
        <ele>2856.21</ele>
        <time>2014-09-23T10:53:57Z</time>
      </trkpt>
      <trkpt lat="42.93685" lon="0.1413">
        <ele>2857.18</ele>
        <time>2014-09-23T10:54:18Z</time>
      </trkpt>
      <trkpt lat="42.93684" lon="0.14131">
        <ele>2857.18</ele>
        <time>2014-09-23T10:54:51Z</time>
      </trkpt>
      <trkpt lat="42.93683" lon="0.14129">
        <ele>2857.18</ele>
        <time>2014-09-23T10:55:38Z</time>
      </trkpt>
      <trkpt lat="42.93682" lon="0.14128">
        <ele>2857.18</ele>
        <time>2014-09-23T10:56:23Z</time>
      </trkpt>
      <trkpt lat="42.93684" lon="0.14128">
        <ele>2857.18</ele>
        <time>2014-09-23T10:57:11Z</time>
      </trkpt>
      <trkpt lat="42.93684" lon="0.14126">
        <ele>2857.66</ele>
        <time>2014-09-23T10:57:57Z</time>
      </trkpt>
      <trkpt lat="42.93685" lon="0.14126">
        <ele>2857.66</ele>
        <time>2014-09-23T10:58:42Z</time>
      </trkpt>
      <trkpt lat="42.93684" lon="0.14128">
        <ele>2857.66</ele>
        <time>2014-09-23T10:59:29Z</time>
      </trkpt>
      <trkpt lat="42.93685" lon="0.14129">
        <ele>2857.66</ele>
        <time>2014-09-23T11:00:14Z</time>
      </trkpt>
      <trkpt lat="42.93684" lon="0.14128">
        <ele>2858.14</ele>
        <time>2014-09-23T11:00:58Z</time>
      </trkpt>
      <trkpt lat="42.93684" lon="0.1413">
        <ele>2858.62</ele>
        <time>2014-09-23T11:01:47Z</time>
      </trkpt>
      <trkpt lat="42.93684" lon="0.14131">
        <ele>2859.1</ele>
        <time>2014-09-23T11:02:30Z</time>
      </trkpt>
      <trkpt lat="42.93686" lon="0.1413">
        <ele>2859.1</ele>
        <time>2014-09-23T11:03:16Z</time>
      </trkpt>
      <trkpt lat="42.93685" lon="0.14131">
        <ele>2859.1</ele>
        <time>2014-09-23T11:04:05Z</time>
      </trkpt>
      <trkpt lat="42.93684" lon="0.14128">
        <ele>2859.1</ele>
        <time>2014-09-23T11:05:01Z</time>
      </trkpt>
      <trkpt lat="42.93683" lon="0.14129">
        <ele>2859.58</ele>
        <time>2014-09-23T11:05:43Z</time>
      </trkpt>
      <trkpt lat="42.93684" lon="0.14129">
        <ele>2859.1</ele>
        <time>2014-09-23T11:06:25Z</time>
      </trkpt>
      <trkpt lat="42.93686" lon="0.1413">
        <ele>2859.58</ele>
        <time>2014-09-23T11:07:12Z</time>
      </trkpt>
      <trkpt lat="42.93686" lon="0.14128">
        <ele>2859.58</ele>
        <time>2014-09-23T11:07:56Z</time>
      </trkpt>
      <trkpt lat="42.93684" lon="0.14129">
        <ele>2859.58</ele>
        <time>2014-09-23T11:08:38Z</time>
      </trkpt>
      <trkpt lat="42.93684" lon="0.14128">
        <ele>2859.58</ele>
        <time>2014-09-23T11:09:24Z</time>
      </trkpt>
      <trkpt lat="42.93684" lon="0.14128">
        <ele>2859.58</ele>
        <time>2014-09-23T11:10:06Z</time>
      </trkpt>
      <trkpt lat="42.93683" lon="0.14129">
        <ele>2859.58</ele>
        <time>2014-09-23T11:10:44Z</time>
      </trkpt>
      <trkpt lat="42.93684" lon="0.1413">
        <ele>2860.54</ele>
        <time>2014-09-23T11:11:23Z</time>
      </trkpt>
      <trkpt lat="42.93683" lon="0.14131">
        <ele>2860.06</ele>
        <time>2014-09-23T11:11:56Z</time>
      </trkpt>
      <trkpt lat="42.93684" lon="0.14129">
        <ele>2860.54</ele>
        <time>2014-09-23T11:12:36Z</time>
      </trkpt>
      <trkpt lat="42.93683" lon="0.1413">
        <ele>2860.06</ele>
        <time>2014-09-23T11:13:12Z</time>
      </trkpt>
      <trkpt lat="42.93683" lon="0.14132">
        <ele>2860.06</ele>
        <time>2014-09-23T11:14:01Z</time>
      </trkpt>
      <trkpt lat="42.93681" lon="0.14131">
        <ele>2860.54</ele>
        <time>2014-09-23T11:14:43Z</time>
      </trkpt>
      <trkpt lat="42.93681" lon="0.14131">
        <ele>2860.06</ele>
        <time>2014-09-23T11:15:25Z</time>
      </trkpt>
      <trkpt lat="42.93682" lon="0.14131">
        <ele>2860.54</ele>
        <time>2014-09-23T11:15:59Z</time>
      </trkpt>
      <trkpt lat="42.93687" lon="0.14131">
        <ele>2861.5</ele>
        <time>2014-09-23T11:16:23Z</time>
      </trkpt>
      <trkpt lat="42.93683" lon="0.14129">
        <ele>2862.94</ele>
        <time>2014-09-23T11:16:36Z</time>
      </trkpt>
      <trkpt lat="42.93682" lon="0.14131">
        <ele>2862.46</ele>
        <time>2014-09-23T11:16:59Z</time>
      </trkpt>
      <trkpt lat="42.93691" lon="0.14136">
        <ele>2862.46</ele>
        <time>2014-09-23T11:17:11Z</time>
      </trkpt>
      <trkpt lat="42.93688" lon="0.1413">
        <ele>2862.46</ele>
        <time>2014-09-23T11:17:21Z</time>
      </trkpt>
      <trkpt lat="42.9369" lon="0.14135">
        <ele>2862.46</ele>
        <time>2014-09-23T11:17:34Z</time>
      </trkpt>
      <trkpt lat="42.93693" lon="0.14142">
        <ele>2861.5</ele>
        <time>2014-09-23T11:17:47Z</time>
      </trkpt>
      <trkpt lat="42.93691" lon="0.1414">
        <ele>2861.98</ele>
        <time>2014-09-23T11:18:03Z</time>
      </trkpt>
      <trkpt lat="42.93692" lon="0.14141">
        <ele>2861.98</ele>
        <time>2014-09-23T11:18:19Z</time>
      </trkpt>
      <trkpt lat="42.9369" lon="0.14141">
        <ele>2861.5</ele>
        <time>2014-09-23T11:18:40Z</time>
      </trkpt>
      <trkpt lat="42.9369" lon="0.14141">
        <ele>2860.54</ele>
        <time>2014-09-23T11:18:51Z</time>
      </trkpt>
      <trkpt lat="42.93691" lon="0.14138">
        <ele>2861.02</ele>
        <time>2014-09-23T11:19:16Z</time>
      </trkpt>
      <trkpt lat="42.93686" lon="0.14133">
        <ele>2862.46</ele>
        <time>2014-09-23T11:19:31Z</time>
      </trkpt>
      <trkpt lat="42.93682" lon="0.14128">
        <ele>2862.46</ele>
        <time>2014-09-23T11:19:47Z</time>
      </trkpt>
      <trkpt lat="42.93684" lon="0.14125">
        <ele>2862.46</ele>
        <time>2014-09-23T11:19:58Z</time>
      </trkpt>
      <trkpt lat="42.93691" lon="0.14124">
        <ele>2861.02</ele>
        <time>2014-09-23T11:20:08Z</time>
      </trkpt>
      <trkpt lat="42.9369" lon="0.14118">
        <ele>2861.02</ele>
        <time>2014-09-23T11:20:16Z</time>
      </trkpt>
      <trkpt lat="42.93689" lon="0.14112">
        <ele>2859.1</ele>
        <time>2014-09-23T11:20:22Z</time>
      </trkpt>
      <trkpt lat="42.9369" lon="0.14099">
        <ele>2856.21</ele>
        <time>2014-09-23T11:20:32Z</time>
      </trkpt>
      <trkpt lat="42.93695" lon="0.14092">
        <ele>2852.85</ele>
        <time>2014-09-23T11:20:44Z</time>
      </trkpt>
      <trkpt lat="42.93698" lon="0.14088">
        <ele>2851.89</ele>
        <time>2014-09-23T11:20:47Z</time>
      </trkpt>
      <trkpt lat="42.93698" lon="0.1408">
        <ele>2848.04</ele>
        <time>2014-09-23T11:20:56Z</time>
      </trkpt>
      <trkpt lat="42.93698" lon="0.14078">
        <ele>2847.56</ele>
        <time>2014-09-23T11:20:58Z</time>
      </trkpt>
      <trkpt lat="42.93698" lon="0.14074">
        <ele>2846.6</ele>
        <time>2014-09-23T11:21:01Z</time>
      </trkpt>
      <trkpt lat="42.93701" lon="0.14066">
        <ele>2843.24</ele>
        <time>2014-09-23T11:21:10Z</time>
      </trkpt>
      <trkpt lat="42.93708" lon="0.14059">
        <ele>2841.79</ele>
        <time>2014-09-23T11:21:22Z</time>
      </trkpt>
      <trkpt lat="42.93708" lon="0.1405">
        <ele>2838.91</ele>
        <time>2014-09-23T11:21:34Z</time>
      </trkpt>
      <trkpt lat="42.93711" lon="0.14039">
        <ele>2835.55</ele>
        <time>2014-09-23T11:21:46Z</time>
      </trkpt>
      <trkpt lat="42.9371" lon="0.14031">
        <ele>2832.66</ele>
        <time>2014-09-23T11:21:59Z</time>
      </trkpt>
      <trkpt lat="42.93712" lon="0.14023">
        <ele>2829.78</ele>
        <time>2014-09-23T11:22:11Z</time>
      </trkpt>
      <trkpt lat="42.93714" lon="0.14012">
        <ele>2826.41</ele>
        <time>2014-09-23T11:22:23Z</time>
      </trkpt>
      <trkpt lat="42.93719" lon="0.13999">
        <ele>2823.05</ele>
        <time>2014-09-23T11:22:38Z</time>
      </trkpt>
      <trkpt lat="42.93718" lon="0.13992">
        <ele>2821.61</ele>
        <time>2014-09-23T11:22:49Z</time>
      </trkpt>
      <trkpt lat="42.9371" lon="0.13997">
        <ele>2819.68</ele>
        <time>2014-09-23T11:22:59Z</time>
      </trkpt>
      <trkpt lat="42.93701" lon="0.14004">
        <ele>2816.32</ele>
        <time>2014-09-23T11:23:10Z</time>
      </trkpt>
      <trkpt lat="42.93695" lon="0.14004">
        <ele>2813.92</ele>
        <time>2014-09-23T11:23:17Z</time>
      </trkpt>
      <trkpt lat="42.93693" lon="0.14003">
        <ele>2813.44</ele>
        <time>2014-09-23T11:23:20Z</time>
      </trkpt>
      <trkpt lat="42.93694" lon="0.14">
        <ele>2812.47</ele>
        <time>2014-09-23T11:23:22Z</time>
      </trkpt>
      <trkpt lat="42.93696" lon="0.13987">
        <ele>2809.11</ele>
        <time>2014-09-23T11:23:31Z</time>
      </trkpt>
      <trkpt lat="42.93698" lon="0.13985">
        <ele>2808.63</ele>
        <time>2014-09-23T11:23:33Z</time>
      </trkpt>
      <trkpt lat="42.937" lon="0.13979">
        <ele>2807.67</ele>
        <time>2014-09-23T11:23:38Z</time>
      </trkpt>
      <trkpt lat="42.937" lon="0.13977">
        <ele>2807.19</ele>
        <time>2014-09-23T11:23:40Z</time>
      </trkpt>
      <trkpt lat="42.937" lon="0.13971">
        <ele>2805.75</ele>
        <time>2014-09-23T11:23:48Z</time>
      </trkpt>
      <trkpt lat="42.937" lon="0.13956">
        <ele>2801.9</ele>
        <time>2014-09-23T11:24:03Z</time>
      </trkpt>
      <trkpt lat="42.93694" lon="0.13956">
        <ele>2799.02</ele>
        <time>2014-09-23T11:24:14Z</time>
      </trkpt>
      <trkpt lat="42.9369" lon="0.13954">
        <ele>2797.09</ele>
        <time>2014-09-23T11:24:25Z</time>
      </trkpt>
      <trkpt lat="42.93688" lon="0.13948">
        <ele>2794.69</ele>
        <time>2014-09-23T11:24:37Z</time>
      </trkpt>
      <trkpt lat="42.93688" lon="0.13944">
        <ele>2791.81</ele>
        <time>2014-09-23T11:24:50Z</time>
      </trkpt>
      <trkpt lat="42.93686" lon="0.13945">
        <ele>2789.4</ele>
        <time>2014-09-23T11:25:02Z</time>
      </trkpt>
      <trkpt lat="42.93685" lon="0.13943">
        <ele>2788.44</ele>
        <time>2014-09-23T11:25:07Z</time>
      </trkpt>
      <trkpt lat="42.93677" lon="0.13951">
        <ele>2786.52</ele>
        <time>2014-09-23T11:25:17Z</time>
      </trkpt>
      <trkpt lat="42.93673" lon="0.13956">
        <ele>2785.08</ele>
        <time>2014-09-23T11:25:23Z</time>
      </trkpt>
      <trkpt lat="42.93663" lon="0.13969">
        <ele>2781.71</ele>
        <time>2014-09-23T11:25:38Z</time>
      </trkpt>
      <trkpt lat="42.93659" lon="0.13963">
        <ele>2779.31</ele>
        <time>2014-09-23T11:25:52Z</time>
      </trkpt>
      <trkpt lat="42.93661" lon="0.13954">
        <ele>2775.94</ele>
        <time>2014-09-23T11:26:00Z</time>
      </trkpt>
      <trkpt lat="42.93663" lon="0.13947">
        <ele>2774.5</ele>
        <time>2014-09-23T11:26:08Z</time>
      </trkpt>
      <trkpt lat="42.93666" lon="0.1393">
        <ele>2771.14</ele>
        <time>2014-09-23T11:26:22Z</time>
      </trkpt>
      <trkpt lat="42.93669" lon="0.13912">
        <ele>2768.73</ele>
        <time>2014-09-23T11:26:38Z</time>
      </trkpt>
      <trkpt lat="42.9367" lon="0.13912">
        <ele>2767.77</ele>
        <time>2014-09-23T11:26:39Z</time>
      </trkpt>
      <trkpt lat="42.93671" lon="0.13908">
        <ele>2768.25</ele>
        <time>2014-09-23T11:26:42Z</time>
      </trkpt>
      <trkpt lat="42.93674" lon="0.1389">
        <ele>2765.37</ele>
        <time>2014-09-23T11:26:56Z</time>
      </trkpt>
      <trkpt lat="42.9368" lon="0.13871">
        <ele>2762.97</ele>
        <time>2014-09-23T11:27:11Z</time>
      </trkpt>
      <trkpt lat="42.93686" lon="0.13851">
        <ele>2759.6</ele>
        <time>2014-09-23T11:27:27Z</time>
      </trkpt>
      <trkpt lat="42.9369" lon="0.13831">
        <ele>2756.72</ele>
        <time>2014-09-23T11:27:41Z</time>
      </trkpt>
      <trkpt lat="42.93692" lon="0.13822">
        <ele>2755.28</ele>
        <time>2014-09-23T11:27:46Z</time>
      </trkpt>
      <trkpt lat="42.93694" lon="0.13811">
        <ele>2752.39</ele>
        <time>2014-09-23T11:27:54Z</time>
      </trkpt>
      <trkpt lat="42.93694" lon="0.1381">
        <ele>2752.39</ele>
        <time>2014-09-23T11:27:55Z</time>
      </trkpt>
      <trkpt lat="42.93677" lon="0.13824">
        <ele>2750.95</ele>
        <time>2014-09-23T11:28:10Z</time>
      </trkpt>
      <trkpt lat="42.93665" lon="0.13833">
        <ele>2747.59</ele>
        <time>2014-09-23T11:28:22Z</time>
      </trkpt>
      <trkpt lat="42.93658" lon="0.13835">
        <ele>2744.22</ele>
        <time>2014-09-23T11:28:34Z</time>
      </trkpt>
      <trkpt lat="42.93658" lon="0.13828">
        <ele>2743.74</ele>
        <time>2014-09-23T11:28:40Z</time>
      </trkpt>
      <trkpt lat="42.93661" lon="0.13823">
        <ele>2742.78</ele>
        <time>2014-09-23T11:28:44Z</time>
      </trkpt>
      <trkpt lat="42.93666" lon="0.13805">
        <ele>2739.41</ele>
        <time>2014-09-23T11:28:58Z</time>
      </trkpt>
      <trkpt lat="42.93672" lon="0.13784">
        <ele>2737.01</ele>
        <time>2014-09-23T11:29:13Z</time>
      </trkpt>
      <trkpt lat="42.93673" lon="0.13777">
        <ele>2734.61</ele>
        <time>2014-09-23T11:29:18Z</time>
      </trkpt>
      <trkpt lat="42.93661" lon="0.13783">
        <ele>2733.65</ele>
        <time>2014-09-23T11:29:30Z</time>
      </trkpt>
      <trkpt lat="42.93651" lon="0.1379">
        <ele>2730.28</ele>
        <time>2014-09-23T11:29:41Z</time>
      </trkpt>
      <trkpt lat="42.93644" lon="0.13797">
        <ele>2728.84</ele>
        <time>2014-09-23T11:29:49Z</time>
      </trkpt>
      <trkpt lat="42.93638" lon="0.13807">
        <ele>2725.96</ele>
        <time>2014-09-23T11:30:06Z</time>
      </trkpt>
      <trkpt lat="42.93636" lon="0.13808">
        <ele>2726.44</ele>
        <time>2014-09-23T11:30:28Z</time>
      </trkpt>
      <trkpt lat="42.93634" lon="0.13809">
        <ele>2725.96</ele>
        <time>2014-09-23T11:30:48Z</time>
      </trkpt>
      <trkpt lat="42.93632" lon="0.13807">
        <ele>2725.48</ele>
        <time>2014-09-23T11:31:03Z</time>
      </trkpt>
      <trkpt lat="42.93634" lon="0.13801">
        <ele>2724.51</ele>
        <time>2014-09-23T11:31:22Z</time>
      </trkpt>
      <trkpt lat="42.93637" lon="0.13796">
        <ele>2722.11</ele>
        <time>2014-09-23T11:31:33Z</time>
      </trkpt>
      <trkpt lat="42.93636" lon="0.13785">
        <ele>2719.23</ele>
        <time>2014-09-23T11:31:46Z</time>
      </trkpt>
      <trkpt lat="42.93637" lon="0.13776">
        <ele>2715.86</ele>
        <time>2014-09-23T11:31:56Z</time>
      </trkpt>
      <trkpt lat="42.93638" lon="0.13774">
        <ele>2716.82</ele>
        <time>2014-09-23T11:32:13Z</time>
      </trkpt>
      <trkpt lat="42.93637" lon="0.1377">
        <ele>2715.38</ele>
        <time>2014-09-23T11:32:30Z</time>
      </trkpt>
      <trkpt lat="42.93636" lon="0.13758">
        <ele>2712.02</ele>
        <time>2014-09-23T11:32:46Z</time>
      </trkpt>
      <trkpt lat="42.93636" lon="0.13742">
        <ele>2709.13</ele>
        <time>2014-09-23T11:32:58Z</time>
      </trkpt>
      <trkpt lat="42.93636" lon="0.13729">
        <ele>2705.77</ele>
        <time>2014-09-23T11:33:10Z</time>
      </trkpt>
      <trkpt lat="42.93638" lon="0.13708">
        <ele>2702.4</ele>
        <time>2014-09-23T11:33:25Z</time>
      </trkpt>
      <trkpt lat="42.93638" lon="0.13696">
        <ele>2700</ele>
        <time>2014-09-23T11:33:35Z</time>
      </trkpt>
      <trkpt lat="42.9364" lon="0.13681">
        <ele>2696.64</ele>
        <time>2014-09-23T11:33:46Z</time>
      </trkpt>
      <trkpt lat="42.9364" lon="0.13678">
        <ele>2695.67</ele>
        <time>2014-09-23T11:33:48Z</time>
      </trkpt>
      <trkpt lat="42.9364" lon="0.13665">
        <ele>2692.79</ele>
        <time>2014-09-23T11:33:57Z</time>
      </trkpt>
      <trkpt lat="42.93637" lon="0.13654">
        <ele>2690.39</ele>
        <time>2014-09-23T11:34:05Z</time>
      </trkpt>
      <trkpt lat="42.93638" lon="0.13646">
        <ele>2689.43</ele>
        <time>2014-09-23T11:34:12Z</time>
      </trkpt>
      <trkpt lat="42.93638" lon="0.13632">
        <ele>2685.1</ele>
        <time>2014-09-23T11:34:24Z</time>
      </trkpt>
      <trkpt lat="42.93636" lon="0.13631">
        <ele>2686.54</ele>
        <time>2014-09-23T11:34:27Z</time>
      </trkpt>
      <trkpt lat="42.93628" lon="0.13634">
        <ele>2685.1</ele>
        <time>2014-09-23T11:34:36Z</time>
      </trkpt>
      <trkpt lat="42.93621" lon="0.13634">
        <ele>2675.01</ele>
        <time>2014-09-23T11:34:45Z</time>
      </trkpt>
      <trkpt lat="42.93621" lon="0.13633">
        <ele>2682.22</ele>
        <time>2014-09-23T11:34:46Z</time>
      </trkpt>
      <trkpt lat="42.9362" lon="0.13632">
        <ele>2681.25</ele>
        <time>2014-09-23T11:34:47Z</time>
      </trkpt>
      <trkpt lat="42.93621" lon="0.13627">
        <ele>2680.77</ele>
        <time>2014-09-23T11:34:50Z</time>
      </trkpt>
      <trkpt lat="42.9362" lon="0.13624">
        <ele>2679.33</ele>
        <time>2014-09-23T11:34:53Z</time>
      </trkpt>
      <trkpt lat="42.93619" lon="0.13618">
        <ele>2677.41</ele>
        <time>2014-09-23T11:34:58Z</time>
      </trkpt>
      <trkpt lat="42.93616" lon="0.13608">
        <ele>2674.04</ele>
        <time>2014-09-23T11:35:09Z</time>
      </trkpt>
      <trkpt lat="42.93607" lon="0.13604">
        <ele>2671.64</ele>
        <time>2014-09-23T11:35:23Z</time>
      </trkpt>
      <trkpt lat="42.93606" lon="0.13604">
        <ele>2671.16</ele>
        <time>2014-09-23T11:35:24Z</time>
      </trkpt>
      <trkpt lat="42.93599" lon="0.13607">
        <ele>2667.8</ele>
        <time>2014-09-23T11:35:32Z</time>
      </trkpt>
      <trkpt lat="42.93597" lon="0.13608">
        <ele>2666.35</ele>
        <time>2014-09-23T11:35:35Z</time>
      </trkpt>
      <trkpt lat="42.93596" lon="0.13609">
        <ele>2666.35</ele>
        <time>2014-09-23T11:35:36Z</time>
      </trkpt>
      <trkpt lat="42.93595" lon="0.13606">
        <ele>2664.91</ele>
        <time>2014-09-23T11:35:38Z</time>
      </trkpt>
      <trkpt lat="42.93595" lon="0.13602">
        <ele>2664.43</ele>
        <time>2014-09-23T11:35:41Z</time>
      </trkpt>
      <trkpt lat="42.93589" lon="0.1359">
        <ele>2661.07</ele>
        <time>2014-09-23T11:35:50Z</time>
      </trkpt>
      <trkpt lat="42.93583" lon="0.13584">
        <ele>2658.18</ele>
        <time>2014-09-23T11:36:00Z</time>
      </trkpt>
      <trkpt lat="42.93579" lon="0.13574">
        <ele>2654.82</ele>
        <time>2014-09-23T11:36:11Z</time>
      </trkpt>
      <trkpt lat="42.93574" lon="0.13568">
        <ele>2653.38</ele>
        <time>2014-09-23T11:36:20Z</time>
      </trkpt>
      <trkpt lat="42.93569" lon="0.13568">
        <ele>2652.42</ele>
        <time>2014-09-23T11:36:25Z</time>
      </trkpt>
      <trkpt lat="42.93567" lon="0.13565">
        <ele>2651.93</ele>
        <time>2014-09-23T11:36:28Z</time>
      </trkpt>
      <trkpt lat="42.9357" lon="0.13556">
        <ele>2651.93</ele>
        <time>2014-09-23T11:36:45Z</time>
      </trkpt>
      <trkpt lat="42.93568" lon="0.13548">
        <ele>2650.01</ele>
        <time>2014-09-23T11:37:05Z</time>
      </trkpt>
      <trkpt lat="42.93565" lon="0.13535">
        <ele>2648.57</ele>
        <time>2014-09-23T11:37:16Z</time>
      </trkpt>
      <trkpt lat="42.93567" lon="0.13517">
        <ele>2648.09</ele>
        <time>2014-09-23T11:37:31Z</time>
      </trkpt>
      <trkpt lat="42.93569" lon="0.13513">
        <ele>2649.05</ele>
        <time>2014-09-23T11:37:46Z</time>
      </trkpt>
      <trkpt lat="42.93566" lon="0.13512">
        <ele>2646.65</ele>
        <time>2014-09-23T11:37:58Z</time>
      </trkpt>
      <trkpt lat="42.93555" lon="0.13509">
        <ele>2646.17</ele>
        <time>2014-09-23T11:38:07Z</time>
      </trkpt>
      <trkpt lat="42.93533" lon="0.13509">
        <ele>2643.28</ele>
        <time>2014-09-23T11:38:22Z</time>
      </trkpt>
      <trkpt lat="42.93529" lon="0.13509">
        <ele>2642.8</ele>
        <time>2014-09-23T11:38:25Z</time>
      </trkpt>
      <trkpt lat="42.93522" lon="0.13517">
        <ele>2642.32</ele>
        <time>2014-09-23T11:38:31Z</time>
      </trkpt>
      <trkpt lat="42.93503" lon="0.13528">
        <ele>2640.4</ele>
        <time>2014-09-23T11:38:47Z</time>
      </trkpt>
      <trkpt lat="42.93487" lon="0.13542">
        <ele>2637.99</ele>
        <time>2014-09-23T11:39:02Z</time>
      </trkpt>
      <trkpt lat="42.93484" lon="0.13545">
        <ele>2637.51</ele>
        <time>2014-09-23T11:39:05Z</time>
      </trkpt>
      <trkpt lat="42.93478" lon="0.13546">
        <ele>2636.07</ele>
        <time>2014-09-23T11:39:10Z</time>
      </trkpt>
      <trkpt lat="42.93457" lon="0.13554">
        <ele>2633.19</ele>
        <time>2014-09-23T11:39:27Z</time>
      </trkpt>
      <trkpt lat="42.93454" lon="0.13558">
        <ele>2632.23</ele>
        <time>2014-09-23T11:39:36Z</time>
      </trkpt>
      <trkpt lat="42.93452" lon="0.13562">
        <ele>2630.79</ele>
        <time>2014-09-23T11:39:39Z</time>
      </trkpt>
      <trkpt lat="42.9345" lon="0.13564">
        <ele>2635.11</ele>
        <time>2014-09-23T11:39:41Z</time>
      </trkpt>
      <trkpt lat="42.9345" lon="0.13565">
        <ele>2628.86</ele>
        <time>2014-09-23T11:39:42Z</time>
      </trkpt>
      <trkpt lat="42.9345" lon="0.13567">
        <ele>2634.63</ele>
        <time>2014-09-23T11:39:43Z</time>
      </trkpt>
      <trkpt lat="42.9345" lon="0.13568">
        <ele>2631.27</ele>
        <time>2014-09-23T11:39:44Z</time>
      </trkpt>
      <trkpt lat="42.93448" lon="0.1357">
        <ele>2630.3</ele>
        <time>2014-09-23T11:39:46Z</time>
      </trkpt>
      <trkpt lat="42.93447" lon="0.13573">
        <ele>2631.27</ele>
        <time>2014-09-23T11:39:48Z</time>
      </trkpt>
      <trkpt lat="42.93445" lon="0.13577">
        <ele>2634.63</ele>
        <time>2014-09-23T11:39:51Z</time>
      </trkpt>
      <trkpt lat="42.93444" lon="0.1358">
        <ele>2630.3</ele>
        <time>2014-09-23T11:39:53Z</time>
      </trkpt>
      <trkpt lat="42.93444" lon="0.13581">
        <ele>2630.3</ele>
        <time>2014-09-23T11:39:54Z</time>
      </trkpt>
      <trkpt lat="42.93441" lon="0.13602">
        <ele>2627.9</ele>
        <time>2014-09-23T11:40:09Z</time>
      </trkpt>
      <trkpt lat="42.93432" lon="0.13632">
        <ele>2625.02</ele>
        <time>2014-09-23T11:40:27Z</time>
      </trkpt>
      <trkpt lat="42.93438" lon="0.1366">
        <ele>2621.65</ele>
        <time>2014-09-23T11:40:43Z</time>
      </trkpt>
      <trkpt lat="42.93446" lon="0.13669">
        <ele>2621.65</ele>
        <time>2014-09-23T11:40:59Z</time>
      </trkpt>
      <trkpt lat="42.93448" lon="0.13671">
        <ele>2619.73</ele>
        <time>2014-09-23T11:41:01Z</time>
      </trkpt>
      <trkpt lat="42.93452" lon="0.13676">
        <ele>2616.85</ele>
        <time>2014-09-23T11:41:05Z</time>
      </trkpt>
      <trkpt lat="42.93452" lon="0.13677">
        <ele>2621.17</ele>
        <time>2014-09-23T11:41:06Z</time>
      </trkpt>
      <trkpt lat="42.93455" lon="0.13681">
        <ele>2619.25</ele>
        <time>2014-09-23T11:41:09Z</time>
      </trkpt>
      <trkpt lat="42.93458" lon="0.13693">
        <ele>2618.29</ele>
        <time>2014-09-23T11:41:15Z</time>
      </trkpt>
      <trkpt lat="42.93445" lon="0.13707">
        <ele>2617.33</ele>
        <time>2014-09-23T11:41:26Z</time>
      </trkpt>
      <trkpt lat="42.93437" lon="0.13687">
        <ele>2614.44</ele>
        <time>2014-09-23T11:41:38Z</time>
      </trkpt>
      <trkpt lat="42.93436" lon="0.13686">
        <ele>2614.44</ele>
        <time>2014-09-23T11:41:39Z</time>
      </trkpt>
      <trkpt lat="42.93425" lon="0.13655">
        <ele>2612.04</ele>
        <time>2014-09-23T11:41:56Z</time>
      </trkpt>
      <trkpt lat="42.93422" lon="0.13631">
        <ele>2611.08</ele>
        <time>2014-09-23T11:42:07Z</time>
      </trkpt>
      <trkpt lat="42.93423" lon="0.13607">
        <ele>2607.23</ele>
        <time>2014-09-23T11:42:18Z</time>
      </trkpt>
      <trkpt lat="42.93422" lon="0.13587">
        <ele>2604.83</ele>
        <time>2014-09-23T11:42:28Z</time>
      </trkpt>
      <trkpt lat="42.93417" lon="0.1356">
        <ele>2601.46</ele>
        <time>2014-09-23T11:42:43Z</time>
      </trkpt>
      <trkpt lat="42.93415" lon="0.13525">
        <ele>2599.54</ele>
        <time>2014-09-23T11:43:01Z</time>
      </trkpt>
      <trkpt lat="42.93415" lon="0.13523">
        <ele>2599.06</ele>
        <time>2014-09-23T11:43:14Z</time>
      </trkpt>
      <trkpt lat="42.93416" lon="0.13519">
        <ele>2598.58</ele>
        <time>2014-09-23T11:43:18Z</time>
      </trkpt>
      <trkpt lat="42.93412" lon="0.13492">
        <ele>2595.22</ele>
        <time>2014-09-23T11:43:34Z</time>
      </trkpt>
      <trkpt lat="42.93415" lon="0.13462">
        <ele>2593.77</ele>
        <time>2014-09-23T11:43:50Z</time>
      </trkpt>
      <trkpt lat="42.93409" lon="0.13438">
        <ele>2590.89</ele>
        <time>2014-09-23T11:44:09Z</time>
      </trkpt>
      <trkpt lat="42.93395" lon="0.13448">
        <ele>2589.45</ele>
        <time>2014-09-23T11:44:23Z</time>
      </trkpt>
      <trkpt lat="42.93394" lon="0.13449">
        <ele>2588.97</ele>
        <time>2014-09-23T11:44:24Z</time>
      </trkpt>
      <trkpt lat="42.93394" lon="0.13449">
        <ele>2588.49</ele>
        <time>2014-09-23T11:44:49Z</time>
      </trkpt>
      <trkpt lat="42.93397" lon="0.13473">
        <ele>2587.53</ele>
        <time>2014-09-23T11:45:01Z</time>
      </trkpt>
      <trkpt lat="42.93398" lon="0.13477">
        <ele>2587.53</ele>
        <time>2014-09-23T11:45:03Z</time>
      </trkpt>
      <trkpt lat="42.93399" lon="0.13506">
        <ele>2584.16</ele>
        <time>2014-09-23T11:45:14Z</time>
      </trkpt>
      <trkpt lat="42.93396" lon="0.13543">
        <ele>2581.28</ele>
        <time>2014-09-23T11:45:32Z</time>
      </trkpt>
      <trkpt lat="42.9339" lon="0.13571">
        <ele>2577.91</ele>
        <time>2014-09-23T11:45:48Z</time>
      </trkpt>
      <trkpt lat="42.93393" lon="0.13602">
        <ele>2575.03</ele>
        <time>2014-09-23T11:46:03Z</time>
      </trkpt>
      <trkpt lat="42.93389" lon="0.13624">
        <ele>2572.63</ele>
        <time>2014-09-23T11:46:18Z</time>
      </trkpt>
      <trkpt lat="42.93386" lon="0.13656">
        <ele>2569.26</ele>
        <time>2014-09-23T11:46:36Z</time>
      </trkpt>
      <trkpt lat="42.93374" lon="0.13681">
        <ele>2566.86</ele>
        <time>2014-09-23T11:46:52Z</time>
      </trkpt>
      <trkpt lat="42.93366" lon="0.13708">
        <ele>2563.97</ele>
        <time>2014-09-23T11:47:07Z</time>
      </trkpt>
      <trkpt lat="42.93368" lon="0.13734">
        <ele>2561.09</ele>
        <time>2014-09-23T11:47:21Z</time>
      </trkpt>
      <trkpt lat="42.93368" lon="0.13762">
        <ele>2558.69</ele>
        <time>2014-09-23T11:47:39Z</time>
      </trkpt>
      <trkpt lat="42.93368" lon="0.13796">
        <ele>2555.8</ele>
        <time>2014-09-23T11:47:58Z</time>
      </trkpt>
      <trkpt lat="42.93363" lon="0.13812">
        <ele>2554.36</ele>
        <time>2014-09-23T11:48:16Z</time>
      </trkpt>
      <trkpt lat="42.9336" lon="0.1382">
        <ele>2553.88</ele>
        <time>2014-09-23T11:48:30Z</time>
      </trkpt>
      <trkpt lat="42.9336" lon="0.13822">
        <ele>2553.4</ele>
        <time>2014-09-23T11:48:31Z</time>
      </trkpt>
      <trkpt lat="42.93356" lon="0.13851">
        <ele>2550.51</ele>
        <time>2014-09-23T11:48:48Z</time>
      </trkpt>
      <trkpt lat="42.93352" lon="0.13869">
        <ele>2549.07</ele>
        <time>2014-09-23T11:49:01Z</time>
      </trkpt>
      <trkpt lat="42.93349" lon="0.13897">
        <ele>2546.67</ele>
        <time>2014-09-23T11:49:17Z</time>
      </trkpt>
      <trkpt lat="42.93347" lon="0.13926">
        <ele>2543.31</ele>
        <time>2014-09-23T11:49:34Z</time>
      </trkpt>
      <trkpt lat="42.9334" lon="0.13954">
        <ele>2540.42</ele>
        <time>2014-09-23T11:49:51Z</time>
      </trkpt>
      <trkpt lat="42.93331" lon="0.13981">
        <ele>2537.06</ele>
        <time>2014-09-23T11:50:08Z</time>
      </trkpt>
      <trkpt lat="42.93322" lon="0.14006">
        <ele>2534.65</ele>
        <time>2014-09-23T11:50:24Z</time>
      </trkpt>
      <trkpt lat="42.93322" lon="0.1401">
        <ele>2534.17</ele>
        <time>2014-09-23T11:50:38Z</time>
      </trkpt>
      <trkpt lat="42.93322" lon="0.14012">
        <ele>2534.17</ele>
        <time>2014-09-23T11:50:39Z</time>
      </trkpt>
      <trkpt lat="42.93322" lon="0.14014">
        <ele>2533.69</ele>
        <time>2014-09-23T11:50:40Z</time>
      </trkpt>
      <trkpt lat="42.93321" lon="0.14016">
        <ele>2533.69</ele>
        <time>2014-09-23T11:50:41Z</time>
      </trkpt>
      <trkpt lat="42.9332" lon="0.14018">
        <ele>2533.21</ele>
        <time>2014-09-23T11:50:42Z</time>
      </trkpt>
      <trkpt lat="42.9332" lon="0.1402">
        <ele>2533.21</ele>
        <time>2014-09-23T11:50:43Z</time>
      </trkpt>
      <trkpt lat="42.9332" lon="0.14022">
        <ele>2533.21</ele>
        <time>2014-09-23T11:50:44Z</time>
      </trkpt>
      <trkpt lat="42.93319" lon="0.14024">
        <ele>2532.73</ele>
        <time>2014-09-23T11:50:45Z</time>
      </trkpt>
      <trkpt lat="42.93319" lon="0.14026">
        <ele>2532.73</ele>
        <time>2014-09-23T11:50:46Z</time>
      </trkpt>
      <trkpt lat="42.93309" lon="0.14059">
        <ele>2529.85</ele>
        <time>2014-09-23T11:51:05Z</time>
      </trkpt>
      <trkpt lat="42.93301" lon="0.14088">
        <ele>2527.44</ele>
        <time>2014-09-23T11:51:23Z</time>
      </trkpt>
      <trkpt lat="42.93293" lon="0.14083">
        <ele>2526</ele>
        <time>2014-09-23T11:51:31Z</time>
      </trkpt>
      <trkpt lat="42.93293" lon="0.14081">
        <ele>2526</ele>
        <time>2014-09-23T11:51:32Z</time>
      </trkpt>
      <trkpt lat="42.93293" lon="0.14078">
        <ele>2526</ele>
        <time>2014-09-23T11:51:33Z</time>
      </trkpt>
      <trkpt lat="42.93293" lon="0.14076">
        <ele>2526</ele>
        <time>2014-09-23T11:51:34Z</time>
      </trkpt>
      <trkpt lat="42.93293" lon="0.14074">
        <ele>2525.52</ele>
        <time>2014-09-23T11:51:35Z</time>
      </trkpt>
      <trkpt lat="42.93293" lon="0.14073">
        <ele>2525.52</ele>
        <time>2014-09-23T11:51:36Z</time>
      </trkpt>
      <trkpt lat="42.93293" lon="0.14071">
        <ele>2525.52</ele>
        <time>2014-09-23T11:51:37Z</time>
      </trkpt>
      <trkpt lat="42.93301" lon="0.14049">
        <ele>2522.64</ele>
        <time>2014-09-23T11:51:52Z</time>
      </trkpt>
      <trkpt lat="42.93303" lon="0.14021">
        <ele>2520.23</ele>
        <time>2014-09-23T11:52:08Z</time>
      </trkpt>
      <trkpt lat="42.93303" lon="0.13996">
        <ele>2517.35</ele>
        <time>2014-09-23T11:52:20Z</time>
      </trkpt>
      <trkpt lat="42.93305" lon="0.13966">
        <ele>2514.47</ele>
        <time>2014-09-23T11:52:35Z</time>
      </trkpt>
      <trkpt lat="42.93305" lon="0.13937">
        <ele>2511.58</ele>
        <time>2014-09-23T11:52:50Z</time>
      </trkpt>
      <trkpt lat="42.93303" lon="0.13909">
        <ele>2507.74</ele>
        <time>2014-09-23T11:53:04Z</time>
      </trkpt>
      <trkpt lat="42.93302" lon="0.13879">
        <ele>2505.33</ele>
        <time>2014-09-23T11:53:19Z</time>
      </trkpt>
      <trkpt lat="42.93301" lon="0.13859">
        <ele>2503.41</ele>
        <time>2014-09-23T11:53:30Z</time>
      </trkpt>
      <trkpt lat="42.93301" lon="0.13857">
        <ele>2503.41</ele>
        <time>2014-09-23T11:53:31Z</time>
      </trkpt>
      <trkpt lat="42.933" lon="0.13855">
        <ele>2503.41</ele>
        <time>2014-09-23T11:53:32Z</time>
      </trkpt>
      <trkpt lat="42.933" lon="0.13854">
        <ele>2503.41</ele>
        <time>2014-09-23T11:53:33Z</time>
      </trkpt>
      <trkpt lat="42.933" lon="0.13851">
        <ele>2502.93</ele>
        <time>2014-09-23T11:53:34Z</time>
      </trkpt>
      <trkpt lat="42.933" lon="0.13849">
        <ele>2502.93</ele>
        <time>2014-09-23T11:53:35Z</time>
      </trkpt>
      <trkpt lat="42.933" lon="0.13848">
        <ele>2502.45</ele>
        <time>2014-09-23T11:53:36Z</time>
      </trkpt>
      <trkpt lat="42.933" lon="0.13846">
        <ele>2502.45</ele>
        <time>2014-09-23T11:53:37Z</time>
      </trkpt>
      <trkpt lat="42.933" lon="0.13844">
        <ele>2502.45</ele>
        <time>2014-09-23T11:53:38Z</time>
      </trkpt>
      <trkpt lat="42.93297" lon="0.13812">
        <ele>2499.57</ele>
        <time>2014-09-23T11:53:55Z</time>
      </trkpt>
      <trkpt lat="42.93297" lon="0.1381">
        <ele>2499.08</ele>
        <time>2014-09-23T11:53:57Z</time>
      </trkpt>
      <trkpt lat="42.93295" lon="0.13791">
        <ele>2497.64</ele>
        <time>2014-09-23T11:54:09Z</time>
      </trkpt>
      <trkpt lat="42.93296" lon="0.13787">
        <ele>2497.16</ele>
        <time>2014-09-23T11:54:11Z</time>
      </trkpt>
      <trkpt lat="42.93296" lon="0.13756">
        <ele>2494.76</ele>
        <time>2014-09-23T11:54:28Z</time>
      </trkpt>
      <trkpt lat="42.93293" lon="0.13735">
        <ele>2492.84</ele>
        <time>2014-09-23T11:54:44Z</time>
      </trkpt>
      <trkpt lat="42.93285" lon="0.13737">
        <ele>2492.36</ele>
        <time>2014-09-23T11:54:50Z</time>
      </trkpt>
      <trkpt lat="42.93284" lon="0.13739">
        <ele>2491.87</ele>
        <time>2014-09-23T11:54:51Z</time>
      </trkpt>
      <trkpt lat="42.93283" lon="0.1374">
        <ele>2491.87</ele>
        <time>2014-09-23T11:54:52Z</time>
      </trkpt>
      <trkpt lat="42.93282" lon="0.13741">
        <ele>2491.87</ele>
        <time>2014-09-23T11:54:53Z</time>
      </trkpt>
      <trkpt lat="42.93281" lon="0.13742">
        <ele>2491.39</ele>
        <time>2014-09-23T11:54:54Z</time>
      </trkpt>
      <trkpt lat="42.9328" lon="0.13743">
        <ele>2491.39</ele>
        <time>2014-09-23T11:54:55Z</time>
      </trkpt>
      <trkpt lat="42.93279" lon="0.13745">
        <ele>2491.39</ele>
        <time>2014-09-23T11:54:56Z</time>
      </trkpt>
      <trkpt lat="42.93279" lon="0.13746">
        <ele>2491.39</ele>
        <time>2014-09-23T11:54:57Z</time>
      </trkpt>
      <trkpt lat="42.93279" lon="0.13748">
        <ele>2490.91</ele>
        <time>2014-09-23T11:54:58Z</time>
      </trkpt>
      <trkpt lat="42.93284" lon="0.1378">
        <ele>2488.51</ele>
        <time>2014-09-23T11:55:16Z</time>
      </trkpt>
      <trkpt lat="42.93277" lon="0.13813">
        <ele>2485.15</ele>
        <time>2014-09-23T11:55:35Z</time>
      </trkpt>
      <trkpt lat="42.9327" lon="0.1384">
        <ele>2482.26</ele>
        <time>2014-09-23T11:55:50Z</time>
      </trkpt>
      <trkpt lat="42.9326" lon="0.13861">
        <ele>2478.9</ele>
        <time>2014-09-23T11:56:04Z</time>
      </trkpt>
      <trkpt lat="42.93254" lon="0.13876">
        <ele>2477.94</ele>
        <time>2014-09-23T11:56:13Z</time>
      </trkpt>
      <trkpt lat="42.93254" lon="0.13877">
        <ele>2477.45</ele>
        <time>2014-09-23T11:56:14Z</time>
      </trkpt>
      <trkpt lat="42.93253" lon="0.13879">
        <ele>2477.45</ele>
        <time>2014-09-23T11:56:15Z</time>
      </trkpt>
      <trkpt lat="42.93253" lon="0.13881">
        <ele>2476.97</ele>
        <time>2014-09-23T11:56:16Z</time>
      </trkpt>
      <trkpt lat="42.93252" lon="0.13883">
        <ele>2476.97</ele>
        <time>2014-09-23T11:56:17Z</time>
      </trkpt>
      <trkpt lat="42.93252" lon="0.13885">
        <ele>2476.97</ele>
        <time>2014-09-23T11:56:18Z</time>
      </trkpt>
      <trkpt lat="42.93247" lon="0.13913">
        <ele>2474.09</ele>
        <time>2014-09-23T11:56:34Z</time>
      </trkpt>
      <trkpt lat="42.93244" lon="0.13936">
        <ele>2471.69</ele>
        <time>2014-09-23T11:56:47Z</time>
      </trkpt>
      <trkpt lat="42.93243" lon="0.13938">
        <ele>2471.69</ele>
        <time>2014-09-23T11:56:48Z</time>
      </trkpt>
      <trkpt lat="42.93243" lon="0.13939">
        <ele>2471.69</ele>
        <time>2014-09-23T11:56:49Z</time>
      </trkpt>
      <trkpt lat="42.93242" lon="0.13941">
        <ele>2471.21</ele>
        <time>2014-09-23T11:56:50Z</time>
      </trkpt>
      <trkpt lat="42.93242" lon="0.13943">
        <ele>2471.21</ele>
        <time>2014-09-23T11:56:51Z</time>
      </trkpt>
      <trkpt lat="42.93242" lon="0.13945">
        <ele>2471.21</ele>
        <time>2014-09-23T11:56:52Z</time>
      </trkpt>
      <trkpt lat="42.93242" lon="0.13947">
        <ele>2470.73</ele>
        <time>2014-09-23T11:56:53Z</time>
      </trkpt>
      <trkpt lat="42.93242" lon="0.13948">
        <ele>2470.73</ele>
        <time>2014-09-23T11:56:54Z</time>
      </trkpt>
      <trkpt lat="42.93241" lon="0.1395">
        <ele>2470.73</ele>
        <time>2014-09-23T11:56:55Z</time>
      </trkpt>
      <trkpt lat="42.93241" lon="0.13951">
        <ele>2470.24</ele>
        <time>2014-09-23T11:56:56Z</time>
      </trkpt>
      <trkpt lat="42.93241" lon="0.13953">
        <ele>2470.24</ele>
        <time>2014-09-23T11:56:57Z</time>
      </trkpt>
      <trkpt lat="42.9323" lon="0.13981">
        <ele>2467.36</ele>
        <time>2014-09-23T11:57:15Z</time>
      </trkpt>
      <trkpt lat="42.93219" lon="0.14013">
        <ele>2464.48</ele>
        <time>2014-09-23T11:57:34Z</time>
      </trkpt>
      <trkpt lat="42.93218" lon="0.14029">
        <ele>2463.04</ele>
        <time>2014-09-23T11:57:43Z</time>
      </trkpt>
      <trkpt lat="42.93218" lon="0.14058">
        <ele>2460.63</ele>
        <time>2014-09-23T11:57:59Z</time>
      </trkpt>
      <trkpt lat="42.93219" lon="0.14093">
        <ele>2457.75</ele>
        <time>2014-09-23T11:58:18Z</time>
      </trkpt>
      <trkpt lat="42.93219" lon="0.1412">
        <ele>2454.38</ele>
        <time>2014-09-23T11:58:31Z</time>
      </trkpt>
      <trkpt lat="42.93217" lon="0.14152">
        <ele>2451.98</ele>
        <time>2014-09-23T11:58:48Z</time>
      </trkpt>
      <trkpt lat="42.9321" lon="0.14179">
        <ele>2449.58</ele>
        <time>2014-09-23T11:59:04Z</time>
      </trkpt>
      <trkpt lat="42.93205" lon="0.14208">
        <ele>2446.21</ele>
        <time>2014-09-23T11:59:18Z</time>
      </trkpt>
      <trkpt lat="42.93205" lon="0.14211">
        <ele>2445.73</ele>
        <time>2014-09-23T11:59:21Z</time>
      </trkpt>
      <trkpt lat="42.93204" lon="0.14213">
        <ele>2445.73</ele>
        <time>2014-09-23T11:59:22Z</time>
      </trkpt>
      <trkpt lat="42.93201" lon="0.14238">
        <ele>2443.81</ele>
        <time>2014-09-23T11:59:37Z</time>
      </trkpt>
      <trkpt lat="42.93196" lon="0.14262">
        <ele>2441.89</ele>
        <time>2014-09-23T11:59:51Z</time>
      </trkpt>
      <trkpt lat="42.93196" lon="0.14288">
        <ele>2439.48</ele>
        <time>2014-09-23T12:00:06Z</time>
      </trkpt>
      <trkpt lat="42.93185" lon="0.14303">
        <ele>2438.04</ele>
        <time>2014-09-23T12:00:19Z</time>
      </trkpt>
      <trkpt lat="42.93184" lon="0.14303">
        <ele>2437.56</ele>
        <time>2014-09-23T12:00:20Z</time>
      </trkpt>
      <trkpt lat="42.93183" lon="0.14303">
        <ele>2437.56</ele>
        <time>2014-09-23T12:00:21Z</time>
      </trkpt>
      <trkpt lat="42.93182" lon="0.14303">
        <ele>2437.56</ele>
        <time>2014-09-23T12:00:22Z</time>
      </trkpt>
      <trkpt lat="42.9318" lon="0.14302">
        <ele>2437.08</ele>
        <time>2014-09-23T12:00:23Z</time>
      </trkpt>
      <trkpt lat="42.93177" lon="0.14298">
        <ele>2436.6</ele>
        <time>2014-09-23T12:00:26Z</time>
      </trkpt>
      <trkpt lat="42.93177" lon="0.14296">
        <ele>2436.6</ele>
        <time>2014-09-23T12:00:27Z</time>
      </trkpt>
      <trkpt lat="42.93176" lon="0.14286">
        <ele>2436.12</ele>
        <time>2014-09-23T12:00:32Z</time>
      </trkpt>
      <trkpt lat="42.93177" lon="0.14284">
        <ele>2436.12</ele>
        <time>2014-09-23T12:00:33Z</time>
      </trkpt>
      <trkpt lat="42.93182" lon="0.14264">
        <ele>2433.71</ele>
        <time>2014-09-23T12:00:44Z</time>
      </trkpt>
      <trkpt lat="42.93182" lon="0.14263">
        <ele>2433.71</ele>
        <time>2014-09-23T12:00:45Z</time>
      </trkpt>
      <trkpt lat="42.93182" lon="0.14261">
        <ele>2433.23</ele>
        <time>2014-09-23T12:00:46Z</time>
      </trkpt>
      <trkpt lat="42.93183" lon="0.14259">
        <ele>2433.23</ele>
        <time>2014-09-23T12:00:47Z</time>
      </trkpt>
      <trkpt lat="42.93183" lon="0.14257">
        <ele>2433.23</ele>
        <time>2014-09-23T12:00:48Z</time>
      </trkpt>
      <trkpt lat="42.93183" lon="0.14255">
        <ele>2433.23</ele>
        <time>2014-09-23T12:00:49Z</time>
      </trkpt>
      <trkpt lat="42.93183" lon="0.14253">
        <ele>2432.75</ele>
        <time>2014-09-23T12:00:50Z</time>
      </trkpt>
      <trkpt lat="42.93183" lon="0.14251">
        <ele>2432.75</ele>
        <time>2014-09-23T12:00:51Z</time>
      </trkpt>
      <trkpt lat="42.93189" lon="0.14226">
        <ele>2429.87</ele>
        <time>2014-09-23T12:01:06Z</time>
      </trkpt>
      <trkpt lat="42.93188" lon="0.14225">
        <ele>2429.87</ele>
        <time>2014-09-23T12:01:07Z</time>
      </trkpt>
      <trkpt lat="42.93188" lon="0.14224">
        <ele>2429.87</ele>
        <time>2014-09-23T12:01:08Z</time>
      </trkpt>
      <trkpt lat="42.93188" lon="0.14222">
        <ele>2429.39</ele>
        <time>2014-09-23T12:01:09Z</time>
      </trkpt>
      <trkpt lat="42.93188" lon="0.1422">
        <ele>2428.91</ele>
        <time>2014-09-23T12:01:10Z</time>
      </trkpt>
      <trkpt lat="42.93187" lon="0.14191">
        <ele>2426.5</ele>
        <time>2014-09-23T12:01:27Z</time>
      </trkpt>
      <trkpt lat="42.93181" lon="0.14165">
        <ele>2424.1</ele>
        <time>2014-09-23T12:01:42Z</time>
      </trkpt>
      <trkpt lat="42.93178" lon="0.14135">
        <ele>2421.22</ele>
        <time>2014-09-23T12:02:00Z</time>
      </trkpt>
      <trkpt lat="42.9317" lon="0.14101">
        <ele>2418.33</ele>
        <time>2014-09-23T12:02:19Z</time>
      </trkpt>
      <trkpt lat="42.93158" lon="0.14077">
        <ele>2415.45</ele>
        <time>2014-09-23T12:02:35Z</time>
      </trkpt>
      <trkpt lat="42.93147" lon="0.14049">
        <ele>2412.57</ele>
        <time>2014-09-23T12:02:53Z</time>
      </trkpt>
      <trkpt lat="42.93145" lon="0.14034">
        <ele>2410.64</ele>
        <time>2014-09-23T12:03:06Z</time>
      </trkpt>
      <trkpt lat="42.93143" lon="0.14005">
        <ele>2407.76</ele>
        <time>2014-09-23T12:03:22Z</time>
      </trkpt>
      <trkpt lat="42.93139" lon="0.13999">
        <ele>2406.32</ele>
        <time>2014-09-23T12:03:26Z</time>
      </trkpt>
      <trkpt lat="42.93132" lon="0.13971">
        <ele>2403.91</ele>
        <time>2014-09-23T12:03:43Z</time>
      </trkpt>
      <trkpt lat="42.93126" lon="0.13939">
        <ele>2401.03</ele>
        <time>2014-09-23T12:03:59Z</time>
      </trkpt>
      <trkpt lat="42.9311" lon="0.13909">
        <ele>2397.67</ele>
        <time>2014-09-23T12:04:17Z</time>
      </trkpt>
      <trkpt lat="42.93101" lon="0.13884">
        <ele>2394.3</ele>
        <time>2014-09-23T12:04:34Z</time>
      </trkpt>
      <trkpt lat="42.93097" lon="0.13844">
        <ele>2391.42</ele>
        <time>2014-09-23T12:04:57Z</time>
      </trkpt>
      <trkpt lat="42.93098" lon="0.13822">
        <ele>2390.94</ele>
        <time>2014-09-23T12:05:13Z</time>
      </trkpt>
      <trkpt lat="42.93097" lon="0.13821">
        <ele>2390.46</ele>
        <time>2014-09-23T12:05:15Z</time>
      </trkpt>
      <trkpt lat="42.93095" lon="0.13818">
        <ele>2390.46</ele>
        <time>2014-09-23T12:05:18Z</time>
      </trkpt>
      <trkpt lat="42.93094" lon="0.13817">
        <ele>2389.97</ele>
        <time>2014-09-23T12:05:19Z</time>
      </trkpt>
      <trkpt lat="42.93082" lon="0.13805">
        <ele>2389.01</ele>
        <time>2014-09-23T12:05:37Z</time>
      </trkpt>
      <trkpt lat="42.9308" lon="0.13806">
        <ele>2389.01</ele>
        <time>2014-09-23T12:05:53Z</time>
      </trkpt>
      <trkpt lat="42.93078" lon="0.1381">
        <ele>2389.01</ele>
        <time>2014-09-23T12:06:27Z</time>
      </trkpt>
      <trkpt lat="42.9308" lon="0.13802">
        <ele>2388.53</ele>
        <time>2014-09-23T12:06:37Z</time>
      </trkpt>
      <trkpt lat="42.93079" lon="0.13799">
        <ele>2387.57</ele>
        <time>2014-09-23T12:06:38Z</time>
      </trkpt>
      <trkpt lat="42.93076" lon="0.13797">
        <ele>2387.57</ele>
        <time>2014-09-23T12:06:39Z</time>
      </trkpt>
      <trkpt lat="42.93075" lon="0.13796">
        <ele>2388.05</ele>
        <time>2014-09-23T12:06:40Z</time>
      </trkpt>
      <trkpt lat="42.93073" lon="0.13794">
        <ele>2388.53</ele>
        <time>2014-09-23T12:06:41Z</time>
      </trkpt>
      <trkpt lat="42.93064" lon="0.13783">
        <ele>2386.61</ele>
        <time>2014-09-23T12:06:56Z</time>
      </trkpt>
      <trkpt lat="42.93064" lon="0.13785">
        <ele>2387.57</ele>
        <time>2014-09-23T12:07:18Z</time>
      </trkpt>
      <trkpt lat="42.93061" lon="0.13791">
        <ele>2386.61</ele>
        <time>2014-09-23T12:07:33Z</time>
      </trkpt>
      <trkpt lat="42.9306" lon="0.13792">
        <ele>2387.09</ele>
        <time>2014-09-23T12:07:34Z</time>
      </trkpt>
      <trkpt lat="42.93047" lon="0.13811">
        <ele>2384.69</ele>
        <time>2014-09-23T12:07:51Z</time>
      </trkpt>
      <trkpt lat="42.93039" lon="0.13822">
        <ele>2384.21</ele>
        <time>2014-09-23T12:08:01Z</time>
      </trkpt>
      <trkpt lat="42.93038" lon="0.13824">
        <ele>2384.21</ele>
        <time>2014-09-23T12:08:02Z</time>
      </trkpt>
      <trkpt lat="42.93019" lon="0.1383">
        <ele>2382.76</ele>
        <time>2014-09-23T12:08:19Z</time>
      </trkpt>
      <trkpt lat="42.92996" lon="0.13825">
        <ele>2379.88</ele>
        <time>2014-09-23T12:08:37Z</time>
      </trkpt>
      <trkpt lat="42.92966" lon="0.13827">
        <ele>2377</ele>
        <time>2014-09-23T12:08:59Z</time>
      </trkpt>
      <trkpt lat="42.92943" lon="0.13832">
        <ele>2375.07</ele>
        <time>2014-09-23T12:09:18Z</time>
      </trkpt>
      <trkpt lat="42.92921" lon="0.1384">
        <ele>2372.67</ele>
        <time>2014-09-23T12:09:36Z</time>
      </trkpt>
      <trkpt lat="42.92895" lon="0.13844">
        <ele>2369.79</ele>
        <time>2014-09-23T12:09:56Z</time>
      </trkpt>
      <trkpt lat="42.92873" lon="0.13847">
        <ele>2367.38</ele>
        <time>2014-09-23T12:10:13Z</time>
      </trkpt>
      <trkpt lat="42.92855" lon="0.13842">
        <ele>2365.94</ele>
        <time>2014-09-23T12:10:27Z</time>
      </trkpt>
      <trkpt lat="42.92843" lon="0.13837">
        <ele>2364.5</ele>
        <time>2014-09-23T12:10:38Z</time>
      </trkpt>
      <trkpt lat="42.92819" lon="0.13828">
        <ele>2362.58</ele>
        <time>2014-09-23T12:10:58Z</time>
      </trkpt>
      <trkpt lat="42.92797" lon="0.13818">
        <ele>2360.17</ele>
        <time>2014-09-23T12:11:15Z</time>
      </trkpt>
      <trkpt lat="42.92775" lon="0.13805">
        <ele>2358.25</ele>
        <time>2014-09-23T12:11:33Z</time>
      </trkpt>
      <trkpt lat="42.9275" lon="0.13795">
        <ele>2354.89</ele>
        <time>2014-09-23T12:11:51Z</time>
      </trkpt>
      <trkpt lat="42.92733" lon="0.1379">
        <ele>2353.44</ele>
        <time>2014-09-23T12:12:05Z</time>
      </trkpt>
      <trkpt lat="42.92713" lon="0.13782">
        <ele>2351.52</ele>
        <time>2014-09-23T12:12:21Z</time>
      </trkpt>
      <trkpt lat="42.92689" lon="0.13773">
        <ele>2349.6</ele>
        <time>2014-09-23T12:12:41Z</time>
      </trkpt>
      <trkpt lat="42.9266" lon="0.1377">
        <ele>2347.2</ele>
        <time>2014-09-23T12:13:01Z</time>
      </trkpt>
      <trkpt lat="42.92629" lon="0.1376">
        <ele>2344.31</ele>
        <time>2014-09-23T12:13:23Z</time>
      </trkpt>
      <trkpt lat="42.92606" lon="0.13755">
        <ele>2341.91</ele>
        <time>2014-09-23T12:13:41Z</time>
      </trkpt>
      <trkpt lat="42.92588" lon="0.13745">
        <ele>2340.47</ele>
        <time>2014-09-23T12:13:57Z</time>
      </trkpt>
      <trkpt lat="42.92569" lon="0.13731">
        <ele>2338.06</ele>
        <time>2014-09-23T12:14:14Z</time>
      </trkpt>
      <trkpt lat="42.92548" lon="0.13717">
        <ele>2336.62</ele>
        <time>2014-09-23T12:14:32Z</time>
      </trkpt>
      <trkpt lat="42.92529" lon="0.13705">
        <ele>2334.22</ele>
        <time>2014-09-23T12:14:46Z</time>
      </trkpt>
      <trkpt lat="42.9251" lon="0.13694">
        <ele>2332.3</ele>
        <time>2014-09-23T12:15:03Z</time>
      </trkpt>
      <trkpt lat="42.92492" lon="0.13675">
        <ele>2330.37</ele>
        <time>2014-09-23T12:15:20Z</time>
      </trkpt>
      <trkpt lat="42.92476" lon="0.13654">
        <ele>2328.45</ele>
        <time>2014-09-23T12:15:37Z</time>
      </trkpt>
      <trkpt lat="42.9246" lon="0.13631">
        <ele>2326.53</ele>
        <time>2014-09-23T12:15:55Z</time>
      </trkpt>
      <trkpt lat="42.9244" lon="0.13612">
        <ele>2324.61</ele>
        <time>2014-09-23T12:16:15Z</time>
      </trkpt>
      <trkpt lat="42.92421" lon="0.136">
        <ele>2323.16</ele>
        <time>2014-09-23T12:16:31Z</time>
      </trkpt>
      <trkpt lat="42.92398" lon="0.13591">
        <ele>2319.8</ele>
        <time>2014-09-23T12:16:49Z</time>
      </trkpt>
      <trkpt lat="42.92381" lon="0.13599">
        <ele>2317.88</ele>
        <time>2014-09-23T12:17:05Z</time>
      </trkpt>
      <trkpt lat="42.92379" lon="0.13603">
        <ele>2317.88</ele>
        <time>2014-09-23T12:17:13Z</time>
      </trkpt>
      <trkpt lat="42.92378" lon="0.13604">
        <ele>2317.88</ele>
        <time>2014-09-23T12:17:14Z</time>
      </trkpt>
      <trkpt lat="42.92378" lon="0.13605">
        <ele>2317.88</ele>
        <time>2014-09-23T12:17:15Z</time>
      </trkpt>
      <trkpt lat="42.92377" lon="0.13606">
        <ele>2317.88</ele>
        <time>2014-09-23T12:17:16Z</time>
      </trkpt>
      <trkpt lat="42.92376" lon="0.13607">
        <ele>2317.88</ele>
        <time>2014-09-23T12:17:17Z</time>
      </trkpt>
      <trkpt lat="42.92375" lon="0.13608">
        <ele>2317.4</ele>
        <time>2014-09-23T12:17:18Z</time>
      </trkpt>
      <trkpt lat="42.92374" lon="0.1361">
        <ele>2317.4</ele>
        <time>2014-09-23T12:17:19Z</time>
      </trkpt>
      <trkpt lat="42.92373" lon="0.13611">
        <ele>2316.91</ele>
        <time>2014-09-23T12:17:20Z</time>
      </trkpt>
      <trkpt lat="42.92359" lon="0.13638">
        <ele>2314.51</ele>
        <time>2014-09-23T12:17:39Z</time>
      </trkpt>
      <trkpt lat="42.92347" lon="0.13663">
        <ele>2313.07</ele>
        <time>2014-09-23T12:17:56Z</time>
      </trkpt>
      <trkpt lat="42.9234" lon="0.13686">
        <ele>2312.11</ele>
        <time>2014-09-23T12:18:10Z</time>
      </trkpt>
      <trkpt lat="42.92336" lon="0.1372">
        <ele>2309.22</ele>
        <time>2014-09-23T12:18:29Z</time>
      </trkpt>
      <trkpt lat="42.92325" lon="0.13745">
        <ele>2307.78</ele>
        <time>2014-09-23T12:18:45Z</time>
      </trkpt>
      <trkpt lat="42.92312" lon="0.13773">
        <ele>2305.38</ele>
        <time>2014-09-23T12:19:03Z</time>
      </trkpt>
      <trkpt lat="42.92303" lon="0.13789">
        <ele>2304.42</ele>
        <time>2014-09-23T12:19:14Z</time>
      </trkpt>
      <trkpt lat="42.92302" lon="0.1379">
        <ele>2304.42</ele>
        <time>2014-09-23T12:19:15Z</time>
      </trkpt>
      <trkpt lat="42.92301" lon="0.13791">
        <ele>2303.94</ele>
        <time>2014-09-23T12:19:16Z</time>
      </trkpt>
      <trkpt lat="42.923" lon="0.13792">
        <ele>2303.94</ele>
        <time>2014-09-23T12:19:17Z</time>
      </trkpt>
      <trkpt lat="42.92298" lon="0.13793">
        <ele>2303.94</ele>
        <time>2014-09-23T12:19:18Z</time>
      </trkpt>
      <trkpt lat="42.92278" lon="0.13801">
        <ele>2302.49</ele>
        <time>2014-09-23T12:19:35Z</time>
      </trkpt>
      <trkpt lat="42.92254" lon="0.13816">
        <ele>2300.09</ele>
        <time>2014-09-23T12:19:55Z</time>
      </trkpt>
      <trkpt lat="42.92242" lon="0.13838">
        <ele>2297.69</ele>
        <time>2014-09-23T12:20:09Z</time>
      </trkpt>
      <trkpt lat="42.92225" lon="0.13856">
        <ele>2295.77</ele>
        <time>2014-09-23T12:20:25Z</time>
      </trkpt>
      <trkpt lat="42.92204" lon="0.13866">
        <ele>2293.84</ele>
        <time>2014-09-23T12:20:41Z</time>
      </trkpt>
      <trkpt lat="42.92183" lon="0.13874">
        <ele>2291.92</ele>
        <time>2014-09-23T12:20:58Z</time>
      </trkpt>
      <trkpt lat="42.92163" lon="0.13883">
        <ele>2290</ele>
        <time>2014-09-23T12:21:13Z</time>
      </trkpt>
      <trkpt lat="42.92142" lon="0.13891">
        <ele>2288.56</ele>
        <time>2014-09-23T12:21:29Z</time>
      </trkpt>
      <trkpt lat="42.9212" lon="0.13908">
        <ele>2286.15</ele>
        <time>2014-09-23T12:21:48Z</time>
      </trkpt>
      <trkpt lat="42.92098" lon="0.13918">
        <ele>2283.75</ele>
        <time>2014-09-23T12:22:05Z</time>
      </trkpt>
      <trkpt lat="42.92077" lon="0.1393">
        <ele>2282.31</ele>
        <time>2014-09-23T12:22:22Z</time>
      </trkpt>
      <trkpt lat="42.92056" lon="0.1395">
        <ele>2280.87</ele>
        <time>2014-09-23T12:22:40Z</time>
      </trkpt>
      <trkpt lat="42.92053" lon="0.13951">
        <ele>2280.87</ele>
        <time>2014-09-23T12:22:42Z</time>
      </trkpt>
      <trkpt lat="42.92052" lon="0.13951">
        <ele>2280.38</ele>
        <time>2014-09-23T12:22:43Z</time>
      </trkpt>
      <trkpt lat="42.9205" lon="0.13952">
        <ele>2280.38</ele>
        <time>2014-09-23T12:22:44Z</time>
      </trkpt>
      <trkpt lat="42.92049" lon="0.13952">
        <ele>2280.38</ele>
        <time>2014-09-23T12:22:45Z</time>
      </trkpt>
      <trkpt lat="42.92048" lon="0.13953">
        <ele>2280.38</ele>
        <time>2014-09-23T12:22:46Z</time>
      </trkpt>
      <trkpt lat="42.92046" lon="0.13954">
        <ele>2280.38</ele>
        <time>2014-09-23T12:22:47Z</time>
      </trkpt>
      <trkpt lat="42.92021" lon="0.13957">
        <ele>2278.46</ele>
        <time>2014-09-23T12:23:04Z</time>
      </trkpt>
      <trkpt lat="42.91996" lon="0.13959">
        <ele>2276.54</ele>
        <time>2014-09-23T12:23:22Z</time>
      </trkpt>
      <trkpt lat="42.91972" lon="0.13973">
        <ele>2274.62</ele>
        <time>2014-09-23T12:23:44Z</time>
      </trkpt>
      <trkpt lat="42.9195" lon="0.13983">
        <ele>2273.17</ele>
        <time>2014-09-23T12:24:01Z</time>
      </trkpt>
      <trkpt lat="42.91923" lon="0.13987">
        <ele>2270.77</ele>
        <time>2014-09-23T12:24:20Z</time>
      </trkpt>
      <trkpt lat="42.91902" lon="0.13986">
        <ele>2269.81</ele>
        <time>2014-09-23T12:24:37Z</time>
      </trkpt>
      <trkpt lat="42.91896" lon="0.14">
        <ele>2267.89</ele>
        <time>2014-09-23T12:24:43Z</time>
      </trkpt>
      <trkpt lat="42.91895" lon="0.14001">
        <ele>2267.89</ele>
        <time>2014-09-23T12:24:44Z</time>
      </trkpt>
      <trkpt lat="42.9186" lon="0.14008">
        <ele>2265.96</ele>
        <time>2014-09-23T12:25:04Z</time>
      </trkpt>
      <trkpt lat="42.91833" lon="0.13999">
        <ele>2264.52</ele>
        <time>2014-09-23T12:25:23Z</time>
      </trkpt>
      <trkpt lat="42.91806" lon="0.14002">
        <ele>2262.6</ele>
        <time>2014-09-23T12:25:41Z</time>
      </trkpt>
      <trkpt lat="42.91803" lon="0.14003">
        <ele>2262.6</ele>
        <time>2014-09-23T12:25:43Z</time>
      </trkpt>
      <trkpt lat="42.91792" lon="0.13999">
        <ele>2262.12</ele>
        <time>2014-09-23T12:25:51Z</time>
      </trkpt>
      <trkpt lat="42.91767" lon="0.13985">
        <ele>2259.72</ele>
        <time>2014-09-23T12:26:12Z</time>
      </trkpt>
      <trkpt lat="42.91742" lon="0.1398">
        <ele>2258.27</ele>
        <time>2014-09-23T12:26:29Z</time>
      </trkpt>
      <trkpt lat="42.91732" lon="0.13974">
        <ele>2257.31</ele>
        <time>2014-09-23T12:26:42Z</time>
      </trkpt>
      <trkpt lat="42.91712" lon="0.13958">
        <ele>2254.43</ele>
        <time>2014-09-23T12:27:00Z</time>
      </trkpt>
      <trkpt lat="42.91697" lon="0.13963">
        <ele>2253.47</ele>
        <time>2014-09-23T12:27:15Z</time>
      </trkpt>
      <trkpt lat="42.91696" lon="0.13964">
        <ele>2253.47</ele>
        <time>2014-09-23T12:27:17Z</time>
      </trkpt>
      <trkpt lat="42.91688" lon="0.13982">
        <ele>2252.03</ele>
        <time>2014-09-23T12:27:29Z</time>
      </trkpt>
      <trkpt lat="42.91672" lon="0.14001">
        <ele>2250.58</ele>
        <time>2014-09-23T12:27:43Z</time>
      </trkpt>
      <trkpt lat="42.91667" lon="0.14008">
        <ele>2250.1</ele>
        <time>2014-09-23T12:27:50Z</time>
      </trkpt>
      <trkpt lat="42.91666" lon="0.14011">
        <ele>2249.62</ele>
        <time>2014-09-23T12:27:52Z</time>
      </trkpt>
      <trkpt lat="42.91673" lon="0.14034">
        <ele>2248.18</ele>
        <time>2014-09-23T12:28:08Z</time>
      </trkpt>
      <trkpt lat="42.91674" lon="0.14038">
        <ele>2248.18</ele>
        <time>2014-09-23T12:28:10Z</time>
      </trkpt>
      <trkpt lat="42.9168" lon="0.14065">
        <ele>2246.26</ele>
        <time>2014-09-23T12:28:27Z</time>
      </trkpt>
      <trkpt lat="42.91688" lon="0.14083">
        <ele>2244.33</ele>
        <time>2014-09-23T12:28:39Z</time>
      </trkpt>
      <trkpt lat="42.91689" lon="0.1409">
        <ele>2243.85</ele>
        <time>2014-09-23T12:28:43Z</time>
      </trkpt>
      <trkpt lat="42.91702" lon="0.14122">
        <ele>2241.45</ele>
        <time>2014-09-23T12:29:04Z</time>
      </trkpt>
      <trkpt lat="42.91704" lon="0.1415">
        <ele>2240.01</ele>
        <time>2014-09-23T12:29:21Z</time>
      </trkpt>
      <trkpt lat="42.91705" lon="0.14155">
        <ele>2239.05</ele>
        <time>2014-09-23T12:29:24Z</time>
      </trkpt>
      <trkpt lat="42.91707" lon="0.14163">
        <ele>2238.57</ele>
        <time>2014-09-23T12:29:29Z</time>
      </trkpt>
      <trkpt lat="42.91706" lon="0.14169">
        <ele>2238.57</ele>
        <time>2014-09-23T12:29:33Z</time>
      </trkpt>
      <trkpt lat="42.91702" lon="0.14178">
        <ele>2237.61</ele>
        <time>2014-09-23T12:29:39Z</time>
      </trkpt>
      <trkpt lat="42.91683" lon="0.142">
        <ele>2235.2</ele>
        <time>2014-09-23T12:29:59Z</time>
      </trkpt>
      <trkpt lat="42.91668" lon="0.14221">
        <ele>2233.28</ele>
        <time>2014-09-23T12:30:17Z</time>
      </trkpt>
      <trkpt lat="42.91658" lon="0.14248">
        <ele>2230.88</ele>
        <time>2014-09-23T12:30:33Z</time>
      </trkpt>
      <trkpt lat="42.91646" lon="0.14278">
        <ele>2228.95</ele>
        <time>2014-09-23T12:30:49Z</time>
      </trkpt>
      <trkpt lat="42.9163" lon="0.14303">
        <ele>2227.03</ele>
        <time>2014-09-23T12:31:06Z</time>
      </trkpt>
      <trkpt lat="42.91614" lon="0.14324">
        <ele>2225.11</ele>
        <time>2014-09-23T12:31:22Z</time>
      </trkpt>
      <trkpt lat="42.91605" lon="0.14351">
        <ele>2223.67</ele>
        <time>2014-09-23T12:31:38Z</time>
      </trkpt>
      <trkpt lat="42.91593" lon="0.14376">
        <ele>2221.74</ele>
        <time>2014-09-23T12:31:54Z</time>
      </trkpt>
      <trkpt lat="42.91584" lon="0.14396">
        <ele>2219.82</ele>
        <time>2014-09-23T12:32:07Z</time>
      </trkpt>
      <trkpt lat="42.91564" lon="0.14411">
        <ele>2217.42</ele>
        <time>2014-09-23T12:32:24Z</time>
      </trkpt>
      <trkpt lat="42.91543" lon="0.14409">
        <ele>2215.98</ele>
        <time>2014-09-23T12:32:39Z</time>
      </trkpt>
      <trkpt lat="42.91517" lon="0.14403">
        <ele>2214.05</ele>
        <time>2014-09-23T12:32:58Z</time>
      </trkpt>
      <trkpt lat="42.9149" lon="0.14389">
        <ele>2211.17</ele>
        <time>2014-09-23T12:33:19Z</time>
      </trkpt>
      <trkpt lat="42.9147" lon="0.14372">
        <ele>2209.25</ele>
        <time>2014-09-23T12:33:36Z</time>
      </trkpt>
      <trkpt lat="42.91452" lon="0.14355">
        <ele>2207.32</ele>
        <time>2014-09-23T12:33:53Z</time>
      </trkpt>
      <trkpt lat="42.91435" lon="0.14334">
        <ele>2205.4</ele>
        <time>2014-09-23T12:34:09Z</time>
      </trkpt>
      <trkpt lat="42.9142" lon="0.1432">
        <ele>2203.96</ele>
        <time>2014-09-23T12:34:24Z</time>
      </trkpt>
      <trkpt lat="42.91399" lon="0.14302">
        <ele>2201.56</ele>
        <time>2014-09-23T12:34:42Z</time>
      </trkpt>
      <trkpt lat="42.91387" lon="0.14291">
        <ele>2199.63</ele>
        <time>2014-09-23T12:35:00Z</time>
      </trkpt>
      <trkpt lat="42.91379" lon="0.14281">
        <ele>2199.15</ele>
        <time>2014-09-23T12:35:20Z</time>
      </trkpt>
      <trkpt lat="42.91363" lon="0.14253">
        <ele>2197.23</ele>
        <time>2014-09-23T12:35:38Z</time>
      </trkpt>
      <trkpt lat="42.91351" lon="0.14228">
        <ele>2194.83</ele>
        <time>2014-09-23T12:35:55Z</time>
      </trkpt>
      <trkpt lat="42.91329" lon="0.14209">
        <ele>2192.42</ele>
        <time>2014-09-23T12:36:13Z</time>
      </trkpt>
      <trkpt lat="42.91325" lon="0.14204">
        <ele>2192.42</ele>
        <time>2014-09-23T12:36:25Z</time>
      </trkpt>
      <trkpt lat="42.91325" lon="0.14205">
        <ele>2191.94</ele>
        <time>2014-09-23T12:36:40Z</time>
      </trkpt>
      <trkpt lat="42.91322" lon="0.14201">
        <ele>2191.46</ele>
        <time>2014-09-23T12:36:54Z</time>
      </trkpt>
      <trkpt lat="42.91318" lon="0.14199">
        <ele>2191.46</ele>
        <time>2014-09-23T12:37:08Z</time>
      </trkpt>
      <trkpt lat="42.91314" lon="0.14198">
        <ele>2190.98</ele>
        <time>2014-09-23T12:37:15Z</time>
      </trkpt>
      <trkpt lat="42.91311" lon="0.14199">
        <ele>2190.5</ele>
        <time>2014-09-23T12:37:19Z</time>
      </trkpt>
      <trkpt lat="42.91309" lon="0.14194">
        <ele>2190.02</ele>
        <time>2014-09-23T12:37:32Z</time>
      </trkpt>
      <trkpt lat="42.91308" lon="0.14194">
        <ele>2190.5</ele>
        <time>2014-09-23T12:37:35Z</time>
      </trkpt>
      <trkpt lat="42.91285" lon="0.14182">
        <ele>2188.58</ele>
        <time>2014-09-23T12:37:55Z</time>
      </trkpt>
      <trkpt lat="42.91265" lon="0.14183">
        <ele>2186.18</ele>
        <time>2014-09-23T12:38:12Z</time>
      </trkpt>
      <trkpt lat="42.91253" lon="0.14183">
        <ele>2184.73</ele>
        <time>2014-09-23T12:38:27Z</time>
      </trkpt>
      <trkpt lat="42.91247" lon="0.14185">
        <ele>2184.25</ele>
        <time>2014-09-23T12:38:41Z</time>
      </trkpt>
      <trkpt lat="42.91231" lon="0.14191">
        <ele>2182.81</ele>
        <time>2014-09-23T12:38:55Z</time>
      </trkpt>
      <trkpt lat="42.91224" lon="0.14191">
        <ele>2182.33</ele>
        <time>2014-09-23T12:39:11Z</time>
      </trkpt>
      <trkpt lat="42.91216" lon="0.1419">
        <ele>2181.37</ele>
        <time>2014-09-23T12:39:26Z</time>
      </trkpt>
      <trkpt lat="42.91211" lon="0.14195">
        <ele>2180.89</ele>
        <time>2014-09-23T12:39:43Z</time>
      </trkpt>
      <trkpt lat="42.91207" lon="0.14198">
        <ele>2180.41</ele>
        <time>2014-09-23T12:40:03Z</time>
      </trkpt>
      <trkpt lat="42.91206" lon="0.14203">
        <ele>2179.93</ele>
        <time>2014-09-23T12:40:19Z</time>
      </trkpt>
      <trkpt lat="42.91203" lon="0.14208">
        <ele>2179.45</ele>
        <time>2014-09-23T12:40:37Z</time>
      </trkpt>
      <trkpt lat="42.91202" lon="0.14208">
        <ele>2179.45</ele>
        <time>2014-09-23T12:40:51Z</time>
      </trkpt>
      <trkpt lat="42.9119" lon="0.14235">
        <ele>2177.52</ele>
        <time>2014-09-23T12:41:10Z</time>
      </trkpt>
      <trkpt lat="42.91173" lon="0.14235">
        <ele>2176.08</ele>
        <time>2014-09-23T12:41:25Z</time>
      </trkpt>
      <trkpt lat="42.91154" lon="0.14221">
        <ele>2174.16</ele>
        <time>2014-09-23T12:41:41Z</time>
      </trkpt>
      <trkpt lat="42.91136" lon="0.14224">
        <ele>2172.72</ele>
        <time>2014-09-23T12:41:58Z</time>
      </trkpt>
      <trkpt lat="42.91126" lon="0.14226">
        <ele>2171.76</ele>
        <time>2014-09-23T12:42:14Z</time>
      </trkpt>
      <trkpt lat="42.91112" lon="0.14228">
        <ele>2170.31</ele>
        <time>2014-09-23T12:42:29Z</time>
      </trkpt>
      <trkpt lat="42.91109" lon="0.14225">
        <ele>2169.83</ele>
        <time>2014-09-23T12:42:33Z</time>
      </trkpt>
      <trkpt lat="42.91084" lon="0.1422">
        <ele>2167.43</ele>
        <time>2014-09-23T12:42:52Z</time>
      </trkpt>
      <trkpt lat="42.91061" lon="0.14224">
        <ele>2165.99</ele>
        <time>2014-09-23T12:43:09Z</time>
      </trkpt>
      <trkpt lat="42.91041" lon="0.14216">
        <ele>2164.06</ele>
        <time>2014-09-23T12:43:25Z</time>
      </trkpt>
      <trkpt lat="42.91033" lon="0.14217">
        <ele>2163.1</ele>
        <time>2014-09-23T12:43:36Z</time>
      </trkpt>
      <trkpt lat="42.9101" lon="0.14211">
        <ele>2160.22</ele>
        <time>2014-09-23T12:43:55Z</time>
      </trkpt>
      <trkpt lat="42.90989" lon="0.14203">
        <ele>2158.78</ele>
        <time>2014-09-23T12:44:11Z</time>
      </trkpt>
      <trkpt lat="42.90968" lon="0.14183">
        <ele>2156.37</ele>
        <time>2014-09-23T12:44:28Z</time>
      </trkpt>
      <trkpt lat="42.90947" lon="0.14168">
        <ele>2152.53</ele>
        <time>2014-09-23T12:44:46Z</time>
      </trkpt>
      <trkpt lat="42.90946" lon="0.14169">
        <ele>2153.01</ele>
        <time>2014-09-23T12:44:47Z</time>
      </trkpt>
      <trkpt lat="42.90932" lon="0.14189">
        <ele>2151.57</ele>
        <time>2014-09-23T12:45:05Z</time>
      </trkpt>
      <trkpt lat="42.90923" lon="0.14198">
        <ele>2151.09</ele>
        <time>2014-09-23T12:45:18Z</time>
      </trkpt>
      <trkpt lat="42.90907" lon="0.14209">
        <ele>2150.13</ele>
        <time>2014-09-23T12:45:35Z</time>
      </trkpt>
      <trkpt lat="42.90894" lon="0.14232">
        <ele>2147.72</ele>
        <time>2014-09-23T12:45:53Z</time>
      </trkpt>
      <trkpt lat="42.90891" lon="0.14244">
        <ele>2147.24</ele>
        <time>2014-09-23T12:46:00Z</time>
      </trkpt>
      <trkpt lat="42.90884" lon="0.14276">
        <ele>2144.84</ele>
        <time>2014-09-23T12:46:18Z</time>
      </trkpt>
      <trkpt lat="42.90881" lon="0.14311">
        <ele>2142.44</ele>
        <time>2014-09-23T12:46:37Z</time>
      </trkpt>
      <trkpt lat="42.90879" lon="0.14333">
        <ele>2140.99</ele>
        <time>2014-09-23T12:46:49Z</time>
      </trkpt>
      <trkpt lat="42.90874" lon="0.14353">
        <ele>2139.55</ele>
        <time>2014-09-23T12:47:02Z</time>
      </trkpt>
      <trkpt lat="42.90871" lon="0.1437">
        <ele>2139.07</ele>
        <time>2014-09-23T12:47:15Z</time>
      </trkpt>
      <trkpt lat="42.9086" lon="0.14398">
        <ele>2136.19</ele>
        <time>2014-09-23T12:47:33Z</time>
      </trkpt>
      <trkpt lat="42.90852" lon="0.14424">
        <ele>2134.26</ele>
        <time>2014-09-23T12:47:49Z</time>
      </trkpt>
      <trkpt lat="42.90846" lon="0.14452">
        <ele>2133.3</ele>
        <time>2014-09-23T12:48:04Z</time>
      </trkpt>
      <trkpt lat="42.9084" lon="0.14479">
        <ele>2131.38</ele>
        <time>2014-09-23T12:48:20Z</time>
      </trkpt>
      <trkpt lat="42.90833" lon="0.14502">
        <ele>2129.94</ele>
        <time>2014-09-23T12:48:40Z</time>
      </trkpt>
      <trkpt lat="42.9083" lon="0.14506">
        <ele>2129.94</ele>
        <time>2014-09-23T12:48:48Z</time>
      </trkpt>
      <trkpt lat="42.90834" lon="0.14517">
        <ele>2129.94</ele>
        <time>2014-09-23T12:48:56Z</time>
      </trkpt>
      <trkpt lat="42.90822" lon="0.14525">
        <ele>2130.42</ele>
        <time>2014-09-23T12:49:10Z</time>
      </trkpt>
      <trkpt lat="42.90822" lon="0.14525">
        <ele>2130.42</ele>
        <time>2014-09-23T12:49:12Z</time>
      </trkpt>
      <trkpt lat="42.90821" lon="0.14527">
        <ele>2130.42</ele>
        <time>2014-09-23T12:49:26Z</time>
      </trkpt>
      <trkpt lat="42.90824" lon="0.14523">
        <ele>2130.42</ele>
        <time>2014-09-23T12:49:38Z</time>
      </trkpt>
      <trkpt lat="42.90824" lon="0.14522">
        <ele>2130.9</ele>
        <time>2014-09-23T12:49:42Z</time>
      </trkpt>
      <trkpt lat="42.9083" lon="0.14521">
        <ele>2129.94</ele>
        <time>2014-09-23T12:49:49Z</time>
      </trkpt>
      <trkpt lat="42.90841" lon="0.14539">
        <ele>2129.46</ele>
        <time>2014-09-23T12:50:06Z</time>
      </trkpt>
      <trkpt lat="42.90839" lon="0.14534">
        <ele>2129.94</ele>
        <time>2014-09-23T12:50:20Z</time>
      </trkpt>
      <trkpt lat="42.90838" lon="0.14529">
        <ele>2129.94</ele>
        <time>2014-09-23T12:50:35Z</time>
      </trkpt>
      <trkpt lat="42.90841" lon="0.14535">
        <ele>2129.46</ele>
        <time>2014-09-23T12:50:44Z</time>
      </trkpt>
      <trkpt lat="42.90843" lon="0.14541">
        <ele>2129.46</ele>
        <time>2014-09-23T12:50:51Z</time>
      </trkpt>
      <trkpt lat="42.90855" lon="0.14557">
        <ele>2128.02</ele>
        <time>2014-09-23T12:51:04Z</time>
      </trkpt>
      <trkpt lat="42.90867" lon="0.14583">
        <ele>2125.61</ele>
        <time>2014-09-23T12:51:22Z</time>
      </trkpt>
      <trkpt lat="42.90874" lon="0.14593">
        <ele>2124.17</ele>
        <time>2014-09-23T12:51:37Z</time>
      </trkpt>
      <trkpt lat="42.90871" lon="0.14588">
        <ele>2124.17</ele>
        <time>2014-09-23T12:51:50Z</time>
      </trkpt>
      <trkpt lat="42.90874" lon="0.14587">
        <ele>2124.17</ele>
        <time>2014-09-23T12:51:56Z</time>
      </trkpt>
      <trkpt lat="42.9088" lon="0.14582">
        <ele>2124.17</ele>
        <time>2014-09-23T12:52:03Z</time>
      </trkpt>
      <trkpt lat="42.90883" lon="0.14581">
        <ele>2124.17</ele>
        <time>2014-09-23T12:52:15Z</time>
      </trkpt>
      <trkpt lat="42.90882" lon="0.14582">
        <ele>2124.17</ele>
        <time>2014-09-23T12:52:45Z</time>
      </trkpt>
      <trkpt lat="42.90882" lon="0.14583">
        <ele>2124.17</ele>
        <time>2014-09-23T12:53:16Z</time>
      </trkpt>
      <trkpt lat="42.90882" lon="0.14583">
        <ele>2124.17</ele>
        <time>2014-09-23T12:53:50Z</time>
      </trkpt>
      <trkpt lat="42.90883" lon="0.14583">
        <ele>2124.17</ele>
        <time>2014-09-23T12:54:17Z</time>
      </trkpt>
      <trkpt lat="42.90883" lon="0.14583">
        <ele>2124.17</ele>
        <time>2014-09-23T12:54:19Z</time>
      </trkpt>
      <trkpt lat="42.90871" lon="0.14598">
        <ele>2123.69</ele>
        <time>2014-09-23T12:54:33Z</time>
      </trkpt>
      <trkpt lat="42.90863" lon="0.14613">
        <ele>2122.25</ele>
        <time>2014-09-23T12:54:46Z</time>
      </trkpt>
      <trkpt lat="42.90854" lon="0.14622">
        <ele>2120.81</ele>
        <time>2014-09-23T12:54:55Z</time>
      </trkpt>
      <trkpt lat="42.90845" lon="0.14626">
        <ele>2119.36</ele>
        <time>2014-09-23T12:55:02Z</time>
      </trkpt>
      <trkpt lat="42.90829" lon="0.14633">
        <ele>2116.96</ele>
        <time>2014-09-23T12:55:17Z</time>
      </trkpt>
      <trkpt lat="42.90823" lon="0.14639">
        <ele>2116.48</ele>
        <time>2014-09-23T12:55:31Z</time>
      </trkpt>
      <trkpt lat="42.90824" lon="0.14638">
        <ele>2116</ele>
        <time>2014-09-23T12:55:37Z</time>
      </trkpt>
      <trkpt lat="42.90823" lon="0.14634">
        <ele>2115.04</ele>
        <time>2014-09-23T12:55:52Z</time>
      </trkpt>
      <trkpt lat="42.90822" lon="0.14633">
        <ele>2115.04</ele>
        <time>2014-09-23T12:56:20Z</time>
      </trkpt>
      <trkpt lat="42.90823" lon="0.14635">
        <ele>2115.04</ele>
        <time>2014-09-23T12:56:50Z</time>
      </trkpt>
      <trkpt lat="42.90823" lon="0.14635">
        <ele>2115.52</ele>
        <time>2014-09-23T12:57:13Z</time>
      </trkpt>
      <trkpt lat="42.90822" lon="0.14632">
        <ele>2115.52</ele>
        <time>2014-09-23T12:57:24Z</time>
      </trkpt>
    </trkseg>
  </trk>
</gpx>